<?xml version="1.0" encoding="UTF-8" standalone="no" ?>
<gpx xmlns="http://www.topografix.com/GPX/1/1" xmlns:xsi="http://www.w3.org/2001/XMLSchema-instance" xsi:schemaLocation="http://www.topografix.com/GPX/1/1 http://www.topografix.com/GPX/1/1/gpx.xsd" version="1.1" creator="VisuGPX - https://www.visugpx.com">
  <metadata>
    <name>20 SEPT 2020 09:03 / sortie amicale laique artix</name>
    <desc><![CDATA[1ère sortie avec le club VTT artix émaotion. beau temps et parcours agréable]]></desc>
  </metadata>
  <trk>
    <name><![CDATA[Tracé actuel: 20 SEPT 2020 09:03]]></name>
    <trkseg>
      <trkpt lat="43.39951" lon="-0.57357">
        <ele>110.21</ele>
        <time>2020-09-20T07:03:46Z</time>
      </trkpt>
      <trkpt lat="43.3995" lon="-0.57357">
        <ele>110.69</ele>
        <time>2020-09-20T07:04:06Z</time>
      </trkpt>
      <trkpt lat="43.3995" lon="-0.5736">
        <ele>111.65</ele>
        <time>2020-09-20T07:04:26Z</time>
      </trkpt>
      <trkpt lat="43.3995" lon="-0.5736">
        <ele>111.65</ele>
        <time>2020-09-20T07:05:00Z</time>
      </trkpt>
      <trkpt lat="43.39949" lon="-0.57359">
        <ele>111.17</ele>
        <time>2020-09-20T07:05:33Z</time>
      </trkpt>
      <trkpt lat="43.3995" lon="-0.5736">
        <ele>110.21</ele>
        <time>2020-09-20T07:06:05Z</time>
      </trkpt>
      <trkpt lat="43.39952" lon="-0.57357">
        <ele>109.25</ele>
        <time>2020-09-20T07:06:39Z</time>
      </trkpt>
      <trkpt lat="43.39951" lon="-0.57358">
        <ele>109.73</ele>
        <time>2020-09-20T07:06:58Z</time>
      </trkpt>
      <trkpt lat="43.3995" lon="-0.5736">
        <ele>110.69</ele>
        <time>2020-09-20T07:07:13Z</time>
      </trkpt>
      <trkpt lat="43.39951" lon="-0.57361">
        <ele>111.17</ele>
        <time>2020-09-20T07:07:29Z</time>
      </trkpt>
      <trkpt lat="43.39947" lon="-0.57367">
        <ele>112.61</ele>
        <time>2020-09-20T07:07:43Z</time>
      </trkpt>
      <trkpt lat="43.39944" lon="-0.57371">
        <ele>113.57</ele>
        <time>2020-09-20T07:07:57Z</time>
      </trkpt>
      <trkpt lat="43.39944" lon="-0.57369">
        <ele>114.05</ele>
        <time>2020-09-20T07:08:22Z</time>
      </trkpt>
      <trkpt lat="43.39944" lon="-0.57369">
        <ele>114.05</ele>
        <time>2020-09-20T07:08:23Z</time>
      </trkpt>
      <trkpt lat="43.39939" lon="-0.57371">
        <ele>114.05</ele>
        <time>2020-09-20T07:08:27Z</time>
      </trkpt>
      <trkpt lat="43.39936" lon="-0.57369">
        <ele>114.05</ele>
        <time>2020-09-20T07:08:28Z</time>
      </trkpt>
      <trkpt lat="43.39935" lon="-0.57366">
        <ele>113.57</ele>
        <time>2020-09-20T07:08:29Z</time>
      </trkpt>
      <trkpt lat="43.39933" lon="-0.57363">
        <ele>113.57</ele>
        <time>2020-09-20T07:08:30Z</time>
      </trkpt>
      <trkpt lat="43.39929" lon="-0.57323">
        <ele>114.05</ele>
        <time>2020-09-20T07:08:39Z</time>
      </trkpt>
      <trkpt lat="43.39926" lon="-0.57259">
        <ele>114.53</ele>
        <time>2020-09-20T07:08:53Z</time>
      </trkpt>
      <trkpt lat="43.39915" lon="-0.57171">
        <ele>115.01</ele>
        <time>2020-09-20T07:09:10Z</time>
      </trkpt>
      <trkpt lat="43.3991" lon="-0.57089">
        <ele>113.57</ele>
        <time>2020-09-20T07:09:26Z</time>
      </trkpt>
      <trkpt lat="43.39902" lon="-0.57034">
        <ele>114.53</ele>
        <time>2020-09-20T07:09:39Z</time>
      </trkpt>
      <trkpt lat="43.39901" lon="-0.57009">
        <ele>114.05</ele>
        <time>2020-09-20T07:09:44Z</time>
      </trkpt>
      <trkpt lat="43.39905" lon="-0.56993">
        <ele>114.53</ele>
        <time>2020-09-20T07:09:47Z</time>
      </trkpt>
      <trkpt lat="43.39924" lon="-0.5694">
        <ele>118.38</ele>
        <time>2020-09-20T07:10:00Z</time>
      </trkpt>
      <trkpt lat="43.39933" lon="-0.56851">
        <ele>117.9</ele>
        <time>2020-09-20T07:10:15Z</time>
      </trkpt>
      <trkpt lat="43.39936" lon="-0.56833">
        <ele>118.38</ele>
        <time>2020-09-20T07:10:18Z</time>
      </trkpt>
      <trkpt lat="43.39937" lon="-0.56814">
        <ele>119.34</ele>
        <time>2020-09-20T07:10:21Z</time>
      </trkpt>
      <trkpt lat="43.39938" lon="-0.56789">
        <ele>120.78</ele>
        <time>2020-09-20T07:10:25Z</time>
      </trkpt>
      <trkpt lat="43.39937" lon="-0.56782">
        <ele>121.26</ele>
        <time>2020-09-20T07:10:26Z</time>
      </trkpt>
      <trkpt lat="43.39935" lon="-0.56757">
        <ele>122.71</ele>
        <time>2020-09-20T07:10:30Z</time>
      </trkpt>
      <trkpt lat="43.39935" lon="-0.56752">
        <ele>123.19</ele>
        <time>2020-09-20T07:10:31Z</time>
      </trkpt>
      <trkpt lat="43.39943" lon="-0.5669">
        <ele>127.51</ele>
        <time>2020-09-20T07:10:44Z</time>
      </trkpt>
      <trkpt lat="43.39939" lon="-0.56647">
        <ele>127.99</ele>
        <time>2020-09-20T07:10:54Z</time>
      </trkpt>
      <trkpt lat="43.39939" lon="-0.56585">
        <ele>130.88</ele>
        <time>2020-09-20T07:11:08Z</time>
      </trkpt>
      <trkpt lat="43.39949" lon="-0.56529">
        <ele>133.28</ele>
        <time>2020-09-20T07:11:22Z</time>
      </trkpt>
      <trkpt lat="43.39959" lon="-0.56452">
        <ele>135.68</ele>
        <time>2020-09-20T07:11:38Z</time>
      </trkpt>
      <trkpt lat="43.3997" lon="-0.56379">
        <ele>137.13</ele>
        <time>2020-09-20T07:11:53Z</time>
      </trkpt>
      <trkpt lat="43.39973" lon="-0.56378">
        <ele>137.13</ele>
        <time>2020-09-20T07:11:54Z</time>
      </trkpt>
      <trkpt lat="43.39976" lon="-0.56378">
        <ele>136.64</ele>
        <time>2020-09-20T07:11:55Z</time>
      </trkpt>
      <trkpt lat="43.4001" lon="-0.56379">
        <ele>136.16</ele>
        <time>2020-09-20T07:12:05Z</time>
      </trkpt>
      <trkpt lat="43.40012" lon="-0.56376">
        <ele>136.16</ele>
        <time>2020-09-20T07:12:06Z</time>
      </trkpt>
      <trkpt lat="43.40013" lon="-0.56371">
        <ele>136.16</ele>
        <time>2020-09-20T07:12:07Z</time>
      </trkpt>
      <trkpt lat="43.40014" lon="-0.56367">
        <ele>136.16</ele>
        <time>2020-09-20T07:12:08Z</time>
      </trkpt>
      <trkpt lat="43.40014" lon="-0.56362">
        <ele>136.16</ele>
        <time>2020-09-20T07:12:09Z</time>
      </trkpt>
      <trkpt lat="43.40023" lon="-0.56287">
        <ele>135.2</ele>
        <time>2020-09-20T07:12:25Z</time>
      </trkpt>
      <trkpt lat="43.40031" lon="-0.56209">
        <ele>135.2</ele>
        <time>2020-09-20T07:12:40Z</time>
      </trkpt>
      <trkpt lat="43.40032" lon="-0.56204">
        <ele>135.2</ele>
        <time>2020-09-20T07:12:41Z</time>
      </trkpt>
      <trkpt lat="43.40032" lon="-0.56198">
        <ele>135.2</ele>
        <time>2020-09-20T07:12:42Z</time>
      </trkpt>
      <trkpt lat="43.40044" lon="-0.56092">
        <ele>133.76</ele>
        <time>2020-09-20T07:13:00Z</time>
      </trkpt>
      <trkpt lat="43.40055" lon="-0.55973">
        <ele>134.72</ele>
        <time>2020-09-20T07:13:18Z</time>
      </trkpt>
      <trkpt lat="43.40057" lon="-0.55951">
        <ele>135.2</ele>
        <time>2020-09-20T07:13:21Z</time>
      </trkpt>
      <trkpt lat="43.40063" lon="-0.55889">
        <ele>136.64</ele>
        <time>2020-09-20T07:13:30Z</time>
      </trkpt>
      <trkpt lat="43.40069" lon="-0.5586">
        <ele>137.13</ele>
        <time>2020-09-20T07:13:34Z</time>
      </trkpt>
      <trkpt lat="43.40083" lon="-0.55734">
        <ele>138.09</ele>
        <time>2020-09-20T07:13:51Z</time>
      </trkpt>
      <trkpt lat="43.40094" lon="-0.55637">
        <ele>140.01</ele>
        <time>2020-09-20T07:14:07Z</time>
      </trkpt>
      <trkpt lat="43.40104" lon="-0.55563">
        <ele>141.45</ele>
        <time>2020-09-20T07:14:20Z</time>
      </trkpt>
      <trkpt lat="43.40121" lon="-0.55468">
        <ele>143.85</ele>
        <time>2020-09-20T07:14:37Z</time>
      </trkpt>
      <trkpt lat="43.4014" lon="-0.5537">
        <ele>145.78</ele>
        <time>2020-09-20T07:14:54Z</time>
      </trkpt>
      <trkpt lat="43.40158" lon="-0.55264">
        <ele>144.82</ele>
        <time>2020-09-20T07:15:12Z</time>
      </trkpt>
      <trkpt lat="43.40179" lon="-0.55154">
        <ele>142.41</ele>
        <time>2020-09-20T07:15:27Z</time>
      </trkpt>
      <trkpt lat="43.40212" lon="-0.55007">
        <ele>140.01</ele>
        <time>2020-09-20T07:15:44Z</time>
      </trkpt>
      <trkpt lat="43.40245" lon="-0.54906">
        <ele>140.49</ele>
        <time>2020-09-20T07:15:59Z</time>
      </trkpt>
      <trkpt lat="43.40282" lon="-0.54796">
        <ele>141.45</ele>
        <time>2020-09-20T07:16:16Z</time>
      </trkpt>
      <trkpt lat="43.40322" lon="-0.54682">
        <ele>142.41</ele>
        <time>2020-09-20T07:16:33Z</time>
      </trkpt>
      <trkpt lat="43.40358" lon="-0.54585">
        <ele>143.85</ele>
        <time>2020-09-20T07:16:50Z</time>
      </trkpt>
      <trkpt lat="43.40364" lon="-0.54574">
        <ele>144.34</ele>
        <time>2020-09-20T07:16:52Z</time>
      </trkpt>
      <trkpt lat="43.40374" lon="-0.54559">
        <ele>144.34</ele>
        <time>2020-09-20T07:16:55Z</time>
      </trkpt>
      <trkpt lat="43.40427" lon="-0.54467">
        <ele>145.3</ele>
        <time>2020-09-20T07:17:11Z</time>
      </trkpt>
      <trkpt lat="43.40449" lon="-0.54357">
        <ele>147.22</ele>
        <time>2020-09-20T07:17:26Z</time>
      </trkpt>
      <trkpt lat="43.40473" lon="-0.54252">
        <ele>149.14</ele>
        <time>2020-09-20T07:17:39Z</time>
      </trkpt>
      <trkpt lat="43.40502" lon="-0.54129">
        <ele>151.54</ele>
        <time>2020-09-20T07:17:56Z</time>
      </trkpt>
      <trkpt lat="43.40522" lon="-0.54036">
        <ele>152.51</ele>
        <time>2020-09-20T07:18:09Z</time>
      </trkpt>
      <trkpt lat="43.40524" lon="-0.54029">
        <ele>152.51</ele>
        <time>2020-09-20T07:18:10Z</time>
      </trkpt>
      <trkpt lat="43.40543" lon="-0.53917">
        <ele>152.51</ele>
        <time>2020-09-20T07:18:27Z</time>
      </trkpt>
      <trkpt lat="43.4056" lon="-0.53827">
        <ele>152.99</ele>
        <time>2020-09-20T07:18:42Z</time>
      </trkpt>
      <trkpt lat="43.4058" lon="-0.53705">
        <ele>154.43</ele>
        <time>2020-09-20T07:19:02Z</time>
      </trkpt>
      <trkpt lat="43.40583" lon="-0.53588">
        <ele>155.87</ele>
        <time>2020-09-20T07:19:21Z</time>
      </trkpt>
      <trkpt lat="43.40586" lon="-0.53542">
        <ele>156.83</ele>
        <time>2020-09-20T07:19:28Z</time>
      </trkpt>
      <trkpt lat="43.40586" lon="-0.53536">
        <ele>156.83</ele>
        <time>2020-09-20T07:19:29Z</time>
      </trkpt>
      <trkpt lat="43.40593" lon="-0.53423">
        <ele>159.24</ele>
        <time>2020-09-20T07:19:47Z</time>
      </trkpt>
      <trkpt lat="43.40594" lon="-0.53417">
        <ele>159.24</ele>
        <time>2020-09-20T07:19:48Z</time>
      </trkpt>
      <trkpt lat="43.40595" lon="-0.53411">
        <ele>159.24</ele>
        <time>2020-09-20T07:19:49Z</time>
      </trkpt>
      <trkpt lat="43.40596" lon="-0.53404">
        <ele>159.24</ele>
        <time>2020-09-20T07:19:50Z</time>
      </trkpt>
      <trkpt lat="43.40606" lon="-0.53307">
        <ele>161.64</ele>
        <time>2020-09-20T07:20:07Z</time>
      </trkpt>
      <trkpt lat="43.40612" lon="-0.53256">
        <ele>163.56</ele>
        <time>2020-09-20T07:20:19Z</time>
      </trkpt>
      <trkpt lat="43.40598" lon="-0.53232">
        <ele>162.12</ele>
        <time>2020-09-20T07:20:27Z</time>
      </trkpt>
      <trkpt lat="43.40595" lon="-0.53228">
        <ele>162.12</ele>
        <time>2020-09-20T07:20:30Z</time>
      </trkpt>
      <trkpt lat="43.40587" lon="-0.53224">
        <ele>161.16</ele>
        <time>2020-09-20T07:20:34Z</time>
      </trkpt>
      <trkpt lat="43.40563" lon="-0.53215">
        <ele>162.12</ele>
        <time>2020-09-20T07:20:46Z</time>
      </trkpt>
      <trkpt lat="43.40553" lon="-0.53167">
        <ele>162.12</ele>
        <time>2020-09-20T07:20:59Z</time>
      </trkpt>
      <trkpt lat="43.40539" lon="-0.5314">
        <ele>162.12</ele>
        <time>2020-09-20T07:21:07Z</time>
      </trkpt>
      <trkpt lat="43.40525" lon="-0.53094">
        <ele>166.93</ele>
        <time>2020-09-20T07:21:18Z</time>
      </trkpt>
      <trkpt lat="43.40514" lon="-0.53067">
        <ele>169.33</ele>
        <time>2020-09-20T07:21:25Z</time>
      </trkpt>
      <trkpt lat="43.40495" lon="-0.53028">
        <ele>174.14</ele>
        <time>2020-09-20T07:21:36Z</time>
      </trkpt>
      <trkpt lat="43.40477" lon="-0.53008">
        <ele>176.06</ele>
        <time>2020-09-20T07:21:46Z</time>
      </trkpt>
      <trkpt lat="43.40461" lon="-0.52972">
        <ele>180.87</ele>
        <time>2020-09-20T07:21:58Z</time>
      </trkpt>
      <trkpt lat="43.40453" lon="-0.52958">
        <ele>183.75</ele>
        <time>2020-09-20T07:22:03Z</time>
      </trkpt>
      <trkpt lat="43.40443" lon="-0.52939">
        <ele>187.11</ele>
        <time>2020-09-20T07:22:10Z</time>
      </trkpt>
      <trkpt lat="43.4043" lon="-0.5292">
        <ele>188.08</ele>
        <time>2020-09-20T07:22:17Z</time>
      </trkpt>
      <trkpt lat="43.40402" lon="-0.52879">
        <ele>187.59</ele>
        <time>2020-09-20T07:22:31Z</time>
      </trkpt>
      <trkpt lat="43.40389" lon="-0.52847">
        <ele>189.04</ele>
        <time>2020-09-20T07:22:41Z</time>
      </trkpt>
      <trkpt lat="43.40372" lon="-0.52807">
        <ele>195.77</ele>
        <time>2020-09-20T07:22:54Z</time>
      </trkpt>
      <trkpt lat="43.40359" lon="-0.52762">
        <ele>198.65</ele>
        <time>2020-09-20T07:23:06Z</time>
      </trkpt>
      <trkpt lat="43.40358" lon="-0.5276">
        <ele>198.65</ele>
        <time>2020-09-20T07:23:07Z</time>
      </trkpt>
      <trkpt lat="43.40357" lon="-0.52755">
        <ele>197.69</ele>
        <time>2020-09-20T07:23:09Z</time>
      </trkpt>
      <trkpt lat="43.40347" lon="-0.52714">
        <ele>194.32</ele>
        <time>2020-09-20T07:23:18Z</time>
      </trkpt>
      <trkpt lat="43.40348" lon="-0.52706">
        <ele>193.84</ele>
        <time>2020-09-20T07:23:19Z</time>
      </trkpt>
      <trkpt lat="43.4035" lon="-0.52698">
        <ele>193.84</ele>
        <time>2020-09-20T07:23:20Z</time>
      </trkpt>
      <trkpt lat="43.40353" lon="-0.52683">
        <ele>192.88</ele>
        <time>2020-09-20T07:23:22Z</time>
      </trkpt>
      <trkpt lat="43.40354" lon="-0.52659">
        <ele>190.96</ele>
        <time>2020-09-20T07:23:25Z</time>
      </trkpt>
      <trkpt lat="43.40352" lon="-0.52644">
        <ele>189.52</ele>
        <time>2020-09-20T07:23:27Z</time>
      </trkpt>
      <trkpt lat="43.40351" lon="-0.52637">
        <ele>188.56</ele>
        <time>2020-09-20T07:23:28Z</time>
      </trkpt>
      <trkpt lat="43.40344" lon="-0.52606">
        <ele>185.67</ele>
        <time>2020-09-20T07:23:32Z</time>
      </trkpt>
      <trkpt lat="43.4034" lon="-0.52579">
        <ele>183.75</ele>
        <time>2020-09-20T07:23:37Z</time>
      </trkpt>
      <trkpt lat="43.40334" lon="-0.5256">
        <ele>182.79</ele>
        <time>2020-09-20T07:23:41Z</time>
      </trkpt>
      <trkpt lat="43.40332" lon="-0.52557">
        <ele>182.79</ele>
        <time>2020-09-20T07:23:42Z</time>
      </trkpt>
      <trkpt lat="43.4033" lon="-0.52554">
        <ele>182.79</ele>
        <time>2020-09-20T07:23:43Z</time>
      </trkpt>
      <trkpt lat="43.40328" lon="-0.5255">
        <ele>182.79</ele>
        <time>2020-09-20T07:23:44Z</time>
      </trkpt>
      <trkpt lat="43.40327" lon="-0.52547">
        <ele>182.79</ele>
        <time>2020-09-20T07:23:45Z</time>
      </trkpt>
      <trkpt lat="43.40326" lon="-0.52545">
        <ele>182.79</ele>
        <time>2020-09-20T07:23:46Z</time>
      </trkpt>
      <trkpt lat="43.40325" lon="-0.52543">
        <ele>183.27</ele>
        <time>2020-09-20T07:23:47Z</time>
      </trkpt>
      <trkpt lat="43.40325" lon="-0.5254">
        <ele>183.27</ele>
        <time>2020-09-20T07:23:48Z</time>
      </trkpt>
      <trkpt lat="43.40325" lon="-0.52537">
        <ele>183.27</ele>
        <time>2020-09-20T07:23:49Z</time>
      </trkpt>
      <trkpt lat="43.40324" lon="-0.52534">
        <ele>183.75</ele>
        <time>2020-09-20T07:23:50Z</time>
      </trkpt>
      <trkpt lat="43.40305" lon="-0.52492">
        <ele>187.11</ele>
        <time>2020-09-20T07:24:03Z</time>
      </trkpt>
      <trkpt lat="43.403" lon="-0.52485">
        <ele>187.11</ele>
        <time>2020-09-20T07:24:06Z</time>
      </trkpt>
      <trkpt lat="43.40299" lon="-0.52482">
        <ele>187.59</ele>
        <time>2020-09-20T07:24:07Z</time>
      </trkpt>
      <trkpt lat="43.40298" lon="-0.52479">
        <ele>188.08</ele>
        <time>2020-09-20T07:24:08Z</time>
      </trkpt>
      <trkpt lat="43.40297" lon="-0.52475">
        <ele>188.08</ele>
        <time>2020-09-20T07:24:09Z</time>
      </trkpt>
      <trkpt lat="43.40297" lon="-0.5247">
        <ele>188.56</ele>
        <time>2020-09-20T07:24:10Z</time>
      </trkpt>
      <trkpt lat="43.40296" lon="-0.52465">
        <ele>188.56</ele>
        <time>2020-09-20T07:24:11Z</time>
      </trkpt>
      <trkpt lat="43.40295" lon="-0.52461">
        <ele>189.04</ele>
        <time>2020-09-20T07:24:12Z</time>
      </trkpt>
      <trkpt lat="43.40295" lon="-0.52458">
        <ele>189.04</ele>
        <time>2020-09-20T07:24:13Z</time>
      </trkpt>
      <trkpt lat="43.40294" lon="-0.52455">
        <ele>189.52</ele>
        <time>2020-09-20T07:24:14Z</time>
      </trkpt>
      <trkpt lat="43.40292" lon="-0.52451">
        <ele>189.52</ele>
        <time>2020-09-20T07:24:15Z</time>
      </trkpt>
      <trkpt lat="43.4029" lon="-0.52448">
        <ele>190</ele>
        <time>2020-09-20T07:24:16Z</time>
      </trkpt>
      <trkpt lat="43.40288" lon="-0.52445">
        <ele>190</ele>
        <time>2020-09-20T07:24:17Z</time>
      </trkpt>
      <trkpt lat="43.40286" lon="-0.52443">
        <ele>190.48</ele>
        <time>2020-09-20T07:24:18Z</time>
      </trkpt>
      <trkpt lat="43.40285" lon="-0.5244">
        <ele>190.48</ele>
        <time>2020-09-20T07:24:19Z</time>
      </trkpt>
      <trkpt lat="43.40283" lon="-0.52438">
        <ele>190.48</ele>
        <time>2020-09-20T07:24:20Z</time>
      </trkpt>
      <trkpt lat="43.40279" lon="-0.52432">
        <ele>191.44</ele>
        <time>2020-09-20T07:24:23Z</time>
      </trkpt>
      <trkpt lat="43.40278" lon="-0.5243">
        <ele>191.92</ele>
        <time>2020-09-20T07:24:24Z</time>
      </trkpt>
      <trkpt lat="43.40278" lon="-0.52428">
        <ele>191.92</ele>
        <time>2020-09-20T07:24:25Z</time>
      </trkpt>
      <trkpt lat="43.40277" lon="-0.52425">
        <ele>192.4</ele>
        <time>2020-09-20T07:24:26Z</time>
      </trkpt>
      <trkpt lat="43.40276" lon="-0.52423">
        <ele>192.4</ele>
        <time>2020-09-20T07:24:27Z</time>
      </trkpt>
      <trkpt lat="43.40275" lon="-0.5242">
        <ele>192.4</ele>
        <time>2020-09-20T07:24:28Z</time>
      </trkpt>
      <trkpt lat="43.40273" lon="-0.52416">
        <ele>191.92</ele>
        <time>2020-09-20T07:24:29Z</time>
      </trkpt>
      <trkpt lat="43.4027" lon="-0.52412">
        <ele>192.4</ele>
        <time>2020-09-20T07:24:31Z</time>
      </trkpt>
      <trkpt lat="43.40264" lon="-0.52403">
        <ele>193.36</ele>
        <time>2020-09-20T07:24:35Z</time>
      </trkpt>
      <trkpt lat="43.4026" lon="-0.52393">
        <ele>192.88</ele>
        <time>2020-09-20T07:24:38Z</time>
      </trkpt>
      <trkpt lat="43.40257" lon="-0.52384">
        <ele>192.4</ele>
        <time>2020-09-20T07:24:41Z</time>
      </trkpt>
      <trkpt lat="43.40248" lon="-0.52365">
        <ele>192.4</ele>
        <time>2020-09-20T07:24:46Z</time>
      </trkpt>
      <trkpt lat="43.40233" lon="-0.52343">
        <ele>193.84</ele>
        <time>2020-09-20T07:24:56Z</time>
      </trkpt>
      <trkpt lat="43.40225" lon="-0.52333">
        <ele>192.4</ele>
        <time>2020-09-20T07:25:03Z</time>
      </trkpt>
      <trkpt lat="43.40221" lon="-0.52325">
        <ele>191.92</ele>
        <time>2020-09-20T07:25:07Z</time>
      </trkpt>
      <trkpt lat="43.4022" lon="-0.52321">
        <ele>192.4</ele>
        <time>2020-09-20T07:25:09Z</time>
      </trkpt>
      <trkpt lat="43.40219" lon="-0.52313">
        <ele>193.36</ele>
        <time>2020-09-20T07:25:14Z</time>
      </trkpt>
      <trkpt lat="43.40218" lon="-0.52312">
        <ele>193.84</ele>
        <time>2020-09-20T07:25:16Z</time>
      </trkpt>
      <trkpt lat="43.40216" lon="-0.52307">
        <ele>194.8</ele>
        <time>2020-09-20T07:25:19Z</time>
      </trkpt>
      <trkpt lat="43.40214" lon="-0.52294">
        <ele>194.32</ele>
        <time>2020-09-20T07:25:25Z</time>
      </trkpt>
      <trkpt lat="43.4019" lon="-0.52279">
        <ele>192.4</ele>
        <time>2020-09-20T07:25:37Z</time>
      </trkpt>
      <trkpt lat="43.40186" lon="-0.52278">
        <ele>192.4</ele>
        <time>2020-09-20T07:25:39Z</time>
      </trkpt>
      <trkpt lat="43.40177" lon="-0.52271">
        <ele>193.36</ele>
        <time>2020-09-20T07:25:44Z</time>
      </trkpt>
      <trkpt lat="43.40159" lon="-0.5225">
        <ele>193.36</ele>
        <time>2020-09-20T07:25:55Z</time>
      </trkpt>
      <trkpt lat="43.40146" lon="-0.52219">
        <ele>191.44</ele>
        <time>2020-09-20T07:26:05Z</time>
      </trkpt>
      <trkpt lat="43.40136" lon="-0.52184">
        <ele>192.88</ele>
        <time>2020-09-20T07:26:15Z</time>
      </trkpt>
      <trkpt lat="43.40136" lon="-0.52182">
        <ele>192.88</ele>
        <time>2020-09-20T07:26:16Z</time>
      </trkpt>
      <trkpt lat="43.40109" lon="-0.52145">
        <ele>193.36</ele>
        <time>2020-09-20T07:26:28Z</time>
      </trkpt>
      <trkpt lat="43.40093" lon="-0.52121">
        <ele>194.32</ele>
        <time>2020-09-20T07:26:37Z</time>
      </trkpt>
      <trkpt lat="43.40073" lon="-0.52092">
        <ele>194.8</ele>
        <time>2020-09-20T07:26:50Z</time>
      </trkpt>
      <trkpt lat="43.40068" lon="-0.52088">
        <ele>192.88</ele>
        <time>2020-09-20T07:27:03Z</time>
      </trkpt>
      <trkpt lat="43.40061" lon="-0.52084">
        <ele>197.69</ele>
        <time>2020-09-20T07:27:23Z</time>
      </trkpt>
      <trkpt lat="43.40056" lon="-0.52086">
        <ele>197.69</ele>
        <time>2020-09-20T07:27:51Z</time>
      </trkpt>
      <trkpt lat="43.40064" lon="-0.52082">
        <ele>202.01</ele>
        <time>2020-09-20T07:28:11Z</time>
      </trkpt>
      <trkpt lat="43.40067" lon="-0.52086">
        <ele>206.34</ele>
        <time>2020-09-20T07:28:35Z</time>
      </trkpt>
      <trkpt lat="43.4007" lon="-0.52087">
        <ele>208.26</ele>
        <time>2020-09-20T07:28:56Z</time>
      </trkpt>
      <trkpt lat="43.40072" lon="-0.52086">
        <ele>211.15</ele>
        <time>2020-09-20T07:29:30Z</time>
      </trkpt>
      <trkpt lat="43.40065" lon="-0.52079">
        <ele>210.19</ele>
        <time>2020-09-20T07:29:57Z</time>
      </trkpt>
      <trkpt lat="43.40069" lon="-0.52079">
        <ele>207.3</ele>
        <time>2020-09-20T07:30:28Z</time>
      </trkpt>
      <trkpt lat="43.40068" lon="-0.52081">
        <ele>208.26</ele>
        <time>2020-09-20T07:30:42Z</time>
      </trkpt>
      <trkpt lat="43.40069" lon="-0.52085">
        <ele>205.86</ele>
        <time>2020-09-20T07:30:48Z</time>
      </trkpt>
      <trkpt lat="43.40083" lon="-0.52112">
        <ele>205.38</ele>
        <time>2020-09-20T07:30:58Z</time>
      </trkpt>
      <trkpt lat="43.40104" lon="-0.52141">
        <ele>203.94</ele>
        <time>2020-09-20T07:31:08Z</time>
      </trkpt>
      <trkpt lat="43.40122" lon="-0.52163">
        <ele>204.9</ele>
        <time>2020-09-20T07:31:15Z</time>
      </trkpt>
      <trkpt lat="43.40128" lon="-0.52187">
        <ele>204.9</ele>
        <time>2020-09-20T07:31:20Z</time>
      </trkpt>
      <trkpt lat="43.40145" lon="-0.52229">
        <ele>203.94</ele>
        <time>2020-09-20T07:31:31Z</time>
      </trkpt>
      <trkpt lat="43.40169" lon="-0.52257">
        <ele>201.53</ele>
        <time>2020-09-20T07:31:41Z</time>
      </trkpt>
      <trkpt lat="43.40179" lon="-0.5226">
        <ele>200.09</ele>
        <time>2020-09-20T07:31:45Z</time>
      </trkpt>
      <trkpt lat="43.40204" lon="-0.52279">
        <ele>198.65</ele>
        <time>2020-09-20T07:31:54Z</time>
      </trkpt>
      <trkpt lat="43.4021" lon="-0.52304">
        <ele>196.25</ele>
        <time>2020-09-20T07:32:03Z</time>
      </trkpt>
      <trkpt lat="43.4022" lon="-0.52325">
        <ele>194.32</ele>
        <time>2020-09-20T07:32:11Z</time>
      </trkpt>
      <trkpt lat="43.40243" lon="-0.52363">
        <ele>193.84</ele>
        <time>2020-09-20T07:32:23Z</time>
      </trkpt>
      <trkpt lat="43.40249" lon="-0.52383">
        <ele>194.8</ele>
        <time>2020-09-20T07:32:29Z</time>
      </trkpt>
      <trkpt lat="43.40252" lon="-0.52387">
        <ele>193.84</ele>
        <time>2020-09-20T07:32:31Z</time>
      </trkpt>
      <trkpt lat="43.40263" lon="-0.52402">
        <ele>190.48</ele>
        <time>2020-09-20T07:32:43Z</time>
      </trkpt>
      <trkpt lat="43.40267" lon="-0.52411">
        <ele>190</ele>
        <time>2020-09-20T07:33:18Z</time>
      </trkpt>
      <trkpt lat="43.40271" lon="-0.52411">
        <ele>187.59</ele>
        <time>2020-09-20T07:33:53Z</time>
      </trkpt>
      <trkpt lat="43.40271" lon="-0.52408">
        <ele>189.04</ele>
        <time>2020-09-20T07:34:17Z</time>
      </trkpt>
      <trkpt lat="43.40273" lon="-0.52408">
        <ele>188.56</ele>
        <time>2020-09-20T07:34:19Z</time>
      </trkpt>
      <trkpt lat="43.40274" lon="-0.52406">
        <ele>187.59</ele>
        <time>2020-09-20T07:34:21Z</time>
      </trkpt>
      <trkpt lat="43.40276" lon="-0.52394">
        <ele>186.15</ele>
        <time>2020-09-20T07:34:28Z</time>
      </trkpt>
      <trkpt lat="43.40281" lon="-0.52387">
        <ele>184.71</ele>
        <time>2020-09-20T07:34:33Z</time>
      </trkpt>
      <trkpt lat="43.4029" lon="-0.52388">
        <ele>184.71</ele>
        <time>2020-09-20T07:34:38Z</time>
      </trkpt>
      <trkpt lat="43.40302" lon="-0.52384">
        <ele>185.19</ele>
        <time>2020-09-20T07:34:44Z</time>
      </trkpt>
      <trkpt lat="43.40303" lon="-0.52379">
        <ele>185.67</ele>
        <time>2020-09-20T07:34:46Z</time>
      </trkpt>
      <trkpt lat="43.40304" lon="-0.52376">
        <ele>185.67</ele>
        <time>2020-09-20T07:34:47Z</time>
      </trkpt>
      <trkpt lat="43.40304" lon="-0.52374">
        <ele>185.67</ele>
        <time>2020-09-20T07:34:48Z</time>
      </trkpt>
      <trkpt lat="43.40304" lon="-0.52371">
        <ele>186.15</ele>
        <time>2020-09-20T07:34:49Z</time>
      </trkpt>
      <trkpt lat="43.40305" lon="-0.52369">
        <ele>186.15</ele>
        <time>2020-09-20T07:34:50Z</time>
      </trkpt>
      <trkpt lat="43.40305" lon="-0.52368">
        <ele>185.67</ele>
        <time>2020-09-20T07:34:51Z</time>
      </trkpt>
      <trkpt lat="43.40313" lon="-0.52343">
        <ele>186.15</ele>
        <time>2020-09-20T07:35:03Z</time>
      </trkpt>
      <trkpt lat="43.40313" lon="-0.52336">
        <ele>187.11</ele>
        <time>2020-09-20T07:35:07Z</time>
      </trkpt>
      <trkpt lat="43.40313" lon="-0.52334">
        <ele>187.11</ele>
        <time>2020-09-20T07:35:08Z</time>
      </trkpt>
      <trkpt lat="43.40313" lon="-0.52332">
        <ele>187.59</ele>
        <time>2020-09-20T07:35:09Z</time>
      </trkpt>
      <trkpt lat="43.40313" lon="-0.5233">
        <ele>187.59</ele>
        <time>2020-09-20T07:35:10Z</time>
      </trkpt>
      <trkpt lat="43.40313" lon="-0.52328">
        <ele>188.08</ele>
        <time>2020-09-20T07:35:11Z</time>
      </trkpt>
      <trkpt lat="43.40313" lon="-0.52307">
        <ele>191.92</ele>
        <time>2020-09-20T07:35:21Z</time>
      </trkpt>
      <trkpt lat="43.40305" lon="-0.52292">
        <ele>191.92</ele>
        <time>2020-09-20T07:35:30Z</time>
      </trkpt>
      <trkpt lat="43.40304" lon="-0.5229">
        <ele>191.92</ele>
        <time>2020-09-20T07:35:31Z</time>
      </trkpt>
      <trkpt lat="43.40304" lon="-0.52288">
        <ele>191.92</ele>
        <time>2020-09-20T07:35:32Z</time>
      </trkpt>
      <trkpt lat="43.40304" lon="-0.52287">
        <ele>192.4</ele>
        <time>2020-09-20T07:35:33Z</time>
      </trkpt>
      <trkpt lat="43.40303" lon="-0.52285">
        <ele>192.4</ele>
        <time>2020-09-20T07:35:34Z</time>
      </trkpt>
      <trkpt lat="43.40292" lon="-0.52265">
        <ele>194.32</ele>
        <time>2020-09-20T07:35:48Z</time>
      </trkpt>
      <trkpt lat="43.40286" lon="-0.52262">
        <ele>195.77</ele>
        <time>2020-09-20T07:36:18Z</time>
      </trkpt>
      <trkpt lat="43.40286" lon="-0.5226">
        <ele>198.17</ele>
        <time>2020-09-20T07:36:33Z</time>
      </trkpt>
      <trkpt lat="43.4028" lon="-0.5224">
        <ele>199.13</ele>
        <time>2020-09-20T07:36:50Z</time>
      </trkpt>
      <trkpt lat="43.40272" lon="-0.52222">
        <ele>201.05</ele>
        <time>2020-09-20T07:37:04Z</time>
      </trkpt>
      <trkpt lat="43.40265" lon="-0.52207">
        <ele>204.9</ele>
        <time>2020-09-20T07:37:21Z</time>
      </trkpt>
      <trkpt lat="43.40266" lon="-0.522">
        <ele>204.9</ele>
        <time>2020-09-20T07:37:39Z</time>
      </trkpt>
      <trkpt lat="43.40264" lon="-0.52197">
        <ele>205.38</ele>
        <time>2020-09-20T07:38:01Z</time>
      </trkpt>
      <trkpt lat="43.40262" lon="-0.52188">
        <ele>201.05</ele>
        <time>2020-09-20T07:38:28Z</time>
      </trkpt>
      <trkpt lat="43.40259" lon="-0.52185">
        <ele>200.09</ele>
        <time>2020-09-20T07:38:56Z</time>
      </trkpt>
      <trkpt lat="43.4026" lon="-0.52186">
        <ele>202.01</ele>
        <time>2020-09-20T07:39:15Z</time>
      </trkpt>
      <trkpt lat="43.40254" lon="-0.52163">
        <ele>202.98</ele>
        <time>2020-09-20T07:39:28Z</time>
      </trkpt>
      <trkpt lat="43.40246" lon="-0.52133">
        <ele>206.34</ele>
        <time>2020-09-20T07:39:43Z</time>
      </trkpt>
      <trkpt lat="43.40242" lon="-0.52104">
        <ele>211.15</ele>
        <time>2020-09-20T07:39:56Z</time>
      </trkpt>
      <trkpt lat="43.40242" lon="-0.52077">
        <ele>215.47</ele>
        <time>2020-09-20T07:40:07Z</time>
      </trkpt>
      <trkpt lat="43.40242" lon="-0.5204">
        <ele>219.32</ele>
        <time>2020-09-20T07:40:21Z</time>
      </trkpt>
      <trkpt lat="43.40241" lon="-0.52003">
        <ele>221.72</ele>
        <time>2020-09-20T07:40:35Z</time>
      </trkpt>
      <trkpt lat="43.4024" lon="-0.51971">
        <ele>224.12</ele>
        <time>2020-09-20T07:40:48Z</time>
      </trkpt>
      <trkpt lat="43.40239" lon="-0.51937">
        <ele>228.45</ele>
        <time>2020-09-20T07:41:03Z</time>
      </trkpt>
      <trkpt lat="43.40238" lon="-0.51896">
        <ele>229.89</ele>
        <time>2020-09-20T07:41:19Z</time>
      </trkpt>
      <trkpt lat="43.40238" lon="-0.51861">
        <ele>234.22</ele>
        <time>2020-09-20T07:41:33Z</time>
      </trkpt>
      <trkpt lat="43.40237" lon="-0.51835">
        <ele>239.51</ele>
        <time>2020-09-20T07:41:43Z</time>
      </trkpt>
      <trkpt lat="43.40238" lon="-0.51832">
        <ele>240.47</ele>
        <time>2020-09-20T07:41:44Z</time>
      </trkpt>
      <trkpt lat="43.40238" lon="-0.51828">
        <ele>240.95</ele>
        <time>2020-09-20T07:41:45Z</time>
      </trkpt>
      <trkpt lat="43.40238" lon="-0.51825">
        <ele>241.43</ele>
        <time>2020-09-20T07:41:46Z</time>
      </trkpt>
      <trkpt lat="43.40238" lon="-0.51823">
        <ele>241.91</ele>
        <time>2020-09-20T07:41:47Z</time>
      </trkpt>
      <trkpt lat="43.40238" lon="-0.5182">
        <ele>241.91</ele>
        <time>2020-09-20T07:41:48Z</time>
      </trkpt>
      <trkpt lat="43.40239" lon="-0.51818">
        <ele>241.91</ele>
        <time>2020-09-20T07:41:49Z</time>
      </trkpt>
      <trkpt lat="43.40239" lon="-0.51815">
        <ele>242.39</ele>
        <time>2020-09-20T07:41:50Z</time>
      </trkpt>
      <trkpt lat="43.40241" lon="-0.51784">
        <ele>242.87</ele>
        <time>2020-09-20T07:42:02Z</time>
      </trkpt>
      <trkpt lat="43.40242" lon="-0.51753">
        <ele>243.83</ele>
        <time>2020-09-20T07:42:14Z</time>
      </trkpt>
      <trkpt lat="43.40241" lon="-0.51735">
        <ele>244.79</ele>
        <time>2020-09-20T07:42:22Z</time>
      </trkpt>
      <trkpt lat="43.40241" lon="-0.51729">
        <ele>245.27</ele>
        <time>2020-09-20T07:42:25Z</time>
      </trkpt>
      <trkpt lat="43.4024" lon="-0.51706">
        <ele>246.72</ele>
        <time>2020-09-20T07:42:33Z</time>
      </trkpt>
      <trkpt lat="43.40241" lon="-0.5167">
        <ele>247.68</ele>
        <time>2020-09-20T07:42:48Z</time>
      </trkpt>
      <trkpt lat="43.40246" lon="-0.51645">
        <ele>248.64</ele>
        <time>2020-09-20T07:43:00Z</time>
      </trkpt>
      <trkpt lat="43.40257" lon="-0.51623">
        <ele>249.12</ele>
        <time>2020-09-20T07:43:14Z</time>
      </trkpt>
      <trkpt lat="43.40258" lon="-0.51622">
        <ele>249.12</ele>
        <time>2020-09-20T07:43:15Z</time>
      </trkpt>
      <trkpt lat="43.40258" lon="-0.5162">
        <ele>249.12</ele>
        <time>2020-09-20T07:43:16Z</time>
      </trkpt>
      <trkpt lat="43.40257" lon="-0.51619">
        <ele>249.12</ele>
        <time>2020-09-20T07:43:17Z</time>
      </trkpt>
      <trkpt lat="43.40257" lon="-0.51618">
        <ele>249.6</ele>
        <time>2020-09-20T07:43:30Z</time>
      </trkpt>
      <trkpt lat="43.40257" lon="-0.51616">
        <ele>249.6</ele>
        <time>2020-09-20T07:43:50Z</time>
      </trkpt>
      <trkpt lat="43.40257" lon="-0.5162">
        <ele>253.44</ele>
        <time>2020-09-20T07:44:16Z</time>
      </trkpt>
      <trkpt lat="43.40257" lon="-0.51617">
        <ele>252.96</ele>
        <time>2020-09-20T07:44:42Z</time>
      </trkpt>
      <trkpt lat="43.40258" lon="-0.51618">
        <ele>251.52</ele>
        <time>2020-09-20T07:45:06Z</time>
      </trkpt>
      <trkpt lat="43.40257" lon="-0.51617">
        <ele>251.04</ele>
        <time>2020-09-20T07:45:26Z</time>
      </trkpt>
      <trkpt lat="43.40257" lon="-0.51618">
        <ele>251.04</ele>
        <time>2020-09-20T07:45:51Z</time>
      </trkpt>
      <trkpt lat="43.40255" lon="-0.51617">
        <ele>250.08</ele>
        <time>2020-09-20T07:46:15Z</time>
      </trkpt>
      <trkpt lat="43.40255" lon="-0.51616">
        <ele>249.12</ele>
        <time>2020-09-20T07:46:40Z</time>
      </trkpt>
      <trkpt lat="43.40256" lon="-0.51615">
        <ele>249.6</ele>
        <time>2020-09-20T07:46:59Z</time>
      </trkpt>
      <trkpt lat="43.40256" lon="-0.51616">
        <ele>249.12</ele>
        <time>2020-09-20T07:47:25Z</time>
      </trkpt>
      <trkpt lat="43.40258" lon="-0.51615">
        <ele>250.08</ele>
        <time>2020-09-20T07:47:51Z</time>
      </trkpt>
      <trkpt lat="43.40256" lon="-0.51617">
        <ele>252</ele>
        <time>2020-09-20T07:48:13Z</time>
      </trkpt>
      <trkpt lat="43.40252" lon="-0.51613">
        <ele>251.04</ele>
        <time>2020-09-20T07:48:32Z</time>
      </trkpt>
      <trkpt lat="43.40251" lon="-0.51611">
        <ele>250.56</ele>
        <time>2020-09-20T07:48:33Z</time>
      </trkpt>
      <trkpt lat="43.4025" lon="-0.5161">
        <ele>250.56</ele>
        <time>2020-09-20T07:48:34Z</time>
      </trkpt>
      <trkpt lat="43.40233" lon="-0.51581">
        <ele>251.04</ele>
        <time>2020-09-20T07:48:48Z</time>
      </trkpt>
      <trkpt lat="43.40217" lon="-0.51554">
        <ele>252.48</ele>
        <time>2020-09-20T07:49:01Z</time>
      </trkpt>
      <trkpt lat="43.40192" lon="-0.51525">
        <ele>253.93</ele>
        <time>2020-09-20T07:49:16Z</time>
      </trkpt>
      <trkpt lat="43.40162" lon="-0.51492">
        <ele>256.33</ele>
        <time>2020-09-20T07:49:32Z</time>
      </trkpt>
      <trkpt lat="43.40138" lon="-0.51457">
        <ele>257.77</ele>
        <time>2020-09-20T07:49:47Z</time>
      </trkpt>
      <trkpt lat="43.40122" lon="-0.51418">
        <ele>258.73</ele>
        <time>2020-09-20T07:50:01Z</time>
      </trkpt>
      <trkpt lat="43.40112" lon="-0.51374">
        <ele>260.17</ele>
        <time>2020-09-20T07:50:15Z</time>
      </trkpt>
      <trkpt lat="43.40096" lon="-0.51317">
        <ele>262.1</ele>
        <time>2020-09-20T07:50:30Z</time>
      </trkpt>
      <trkpt lat="43.4008" lon="-0.51261">
        <ele>264.98</ele>
        <time>2020-09-20T07:50:46Z</time>
      </trkpt>
      <trkpt lat="43.40102" lon="-0.51226">
        <ele>263.54</ele>
        <time>2020-09-20T07:50:56Z</time>
      </trkpt>
      <trkpt lat="43.40151" lon="-0.51169">
        <ele>261.14</ele>
        <time>2020-09-20T07:51:11Z</time>
      </trkpt>
      <trkpt lat="43.40186" lon="-0.51142">
        <ele>259.69</ele>
        <time>2020-09-20T07:51:19Z</time>
      </trkpt>
      <trkpt lat="43.40192" lon="-0.51141">
        <ele>259.69</ele>
        <time>2020-09-20T07:51:20Z</time>
      </trkpt>
      <trkpt lat="43.40197" lon="-0.51142">
        <ele>259.69</ele>
        <time>2020-09-20T07:51:21Z</time>
      </trkpt>
      <trkpt lat="43.40203" lon="-0.51144">
        <ele>259.69</ele>
        <time>2020-09-20T07:51:22Z</time>
      </trkpt>
      <trkpt lat="43.40208" lon="-0.51146">
        <ele>260.17</ele>
        <time>2020-09-20T07:51:23Z</time>
      </trkpt>
      <trkpt lat="43.40279" lon="-0.51176">
        <ele>259.21</ele>
        <time>2020-09-20T07:51:39Z</time>
      </trkpt>
      <trkpt lat="43.40313" lon="-0.51216">
        <ele>258.25</ele>
        <time>2020-09-20T07:51:51Z</time>
      </trkpt>
      <trkpt lat="43.40319" lon="-0.51233">
        <ele>257.77</ele>
        <time>2020-09-20T07:51:54Z</time>
      </trkpt>
      <trkpt lat="43.40321" lon="-0.51238">
        <ele>257.77</ele>
        <time>2020-09-20T07:51:55Z</time>
      </trkpt>
      <trkpt lat="43.40327" lon="-0.51249">
        <ele>257.29</ele>
        <time>2020-09-20T07:51:57Z</time>
      </trkpt>
      <trkpt lat="43.4033" lon="-0.51253">
        <ele>256.81</ele>
        <time>2020-09-20T07:51:58Z</time>
      </trkpt>
      <trkpt lat="43.40398" lon="-0.51334">
        <ele>251.52</ele>
        <time>2020-09-20T07:52:15Z</time>
      </trkpt>
      <trkpt lat="43.40452" lon="-0.51418">
        <ele>247.2</ele>
        <time>2020-09-20T07:52:28Z</time>
      </trkpt>
      <trkpt lat="43.40461" lon="-0.51427">
        <ele>246.72</ele>
        <time>2020-09-20T07:52:30Z</time>
      </trkpt>
      <trkpt lat="43.40494" lon="-0.51462">
        <ele>246.23</ele>
        <time>2020-09-20T07:52:40Z</time>
      </trkpt>
      <trkpt lat="43.40509" lon="-0.51496">
        <ele>245.27</ele>
        <time>2020-09-20T07:52:47Z</time>
      </trkpt>
      <trkpt lat="43.40516" lon="-0.51511">
        <ele>244.31</ele>
        <time>2020-09-20T07:52:50Z</time>
      </trkpt>
      <trkpt lat="43.40525" lon="-0.51526">
        <ele>243.83</ele>
        <time>2020-09-20T07:52:54Z</time>
      </trkpt>
      <trkpt lat="43.40527" lon="-0.5153">
        <ele>243.83</ele>
        <time>2020-09-20T07:52:55Z</time>
      </trkpt>
      <trkpt lat="43.40529" lon="-0.51536">
        <ele>243.35</ele>
        <time>2020-09-20T07:52:56Z</time>
      </trkpt>
      <trkpt lat="43.40531" lon="-0.51541">
        <ele>242.87</ele>
        <time>2020-09-20T07:52:57Z</time>
      </trkpt>
      <trkpt lat="43.40535" lon="-0.51547">
        <ele>242.39</ele>
        <time>2020-09-20T07:52:58Z</time>
      </trkpt>
      <trkpt lat="43.40572" lon="-0.51601">
        <ele>238.06</ele>
        <time>2020-09-20T07:53:10Z</time>
      </trkpt>
      <trkpt lat="43.40576" lon="-0.51604">
        <ele>237.58</ele>
        <time>2020-09-20T07:53:11Z</time>
      </trkpt>
      <trkpt lat="43.4058" lon="-0.51607">
        <ele>237.58</ele>
        <time>2020-09-20T07:53:12Z</time>
      </trkpt>
      <trkpt lat="43.40657" lon="-0.51641">
        <ele>231.81</ele>
        <time>2020-09-20T07:53:24Z</time>
      </trkpt>
      <trkpt lat="43.40679" lon="-0.51651">
        <ele>229.41</ele>
        <time>2020-09-20T07:53:27Z</time>
      </trkpt>
      <trkpt lat="43.40694" lon="-0.51655">
        <ele>227.97</ele>
        <time>2020-09-20T07:53:29Z</time>
      </trkpt>
      <trkpt lat="43.40738" lon="-0.51666">
        <ele>222.2</ele>
        <time>2020-09-20T07:53:35Z</time>
      </trkpt>
      <trkpt lat="43.40744" lon="-0.51669">
        <ele>220.76</ele>
        <time>2020-09-20T07:53:36Z</time>
      </trkpt>
      <trkpt lat="43.4075" lon="-0.5167">
        <ele>219.8</ele>
        <time>2020-09-20T07:53:37Z</time>
      </trkpt>
      <trkpt lat="43.40755" lon="-0.5167">
        <ele>218.84</ele>
        <time>2020-09-20T07:53:38Z</time>
      </trkpt>
      <trkpt lat="43.4076" lon="-0.51667">
        <ele>217.88</ele>
        <time>2020-09-20T07:53:39Z</time>
      </trkpt>
      <trkpt lat="43.40764" lon="-0.51663">
        <ele>216.91</ele>
        <time>2020-09-20T07:53:40Z</time>
      </trkpt>
      <trkpt lat="43.40768" lon="-0.51657">
        <ele>215.95</ele>
        <time>2020-09-20T07:53:41Z</time>
      </trkpt>
      <trkpt lat="43.40772" lon="-0.5165">
        <ele>215.47</ele>
        <time>2020-09-20T07:53:42Z</time>
      </trkpt>
      <trkpt lat="43.40776" lon="-0.51642">
        <ele>214.51</ele>
        <time>2020-09-20T07:53:43Z</time>
      </trkpt>
      <trkpt lat="43.40781" lon="-0.51635">
        <ele>213.55</ele>
        <time>2020-09-20T07:53:44Z</time>
      </trkpt>
      <trkpt lat="43.4079" lon="-0.51622">
        <ele>211.63</ele>
        <time>2020-09-20T07:53:46Z</time>
      </trkpt>
      <trkpt lat="43.40795" lon="-0.51617">
        <ele>210.67</ele>
        <time>2020-09-20T07:53:47Z</time>
      </trkpt>
      <trkpt lat="43.40807" lon="-0.51604">
        <ele>208.26</ele>
        <time>2020-09-20T07:53:50Z</time>
      </trkpt>
      <trkpt lat="43.4081" lon="-0.51598">
        <ele>207.3</ele>
        <time>2020-09-20T07:53:51Z</time>
      </trkpt>
      <trkpt lat="43.40812" lon="-0.51593">
        <ele>205.86</ele>
        <time>2020-09-20T07:53:52Z</time>
      </trkpt>
      <trkpt lat="43.40814" lon="-0.51586">
        <ele>205.38</ele>
        <time>2020-09-20T07:53:53Z</time>
      </trkpt>
      <trkpt lat="43.40815" lon="-0.51579">
        <ele>203.94</ele>
        <time>2020-09-20T07:53:54Z</time>
      </trkpt>
      <trkpt lat="43.40815" lon="-0.51571">
        <ele>202.98</ele>
        <time>2020-09-20T07:53:55Z</time>
      </trkpt>
      <trkpt lat="43.40813" lon="-0.51564">
        <ele>202.49</ele>
        <time>2020-09-20T07:53:56Z</time>
      </trkpt>
      <trkpt lat="43.4081" lon="-0.51558">
        <ele>201.53</ele>
        <time>2020-09-20T07:53:57Z</time>
      </trkpt>
      <trkpt lat="43.40808" lon="-0.51553">
        <ele>200.57</ele>
        <time>2020-09-20T07:53:58Z</time>
      </trkpt>
      <trkpt lat="43.40806" lon="-0.51549">
        <ele>200.09</ele>
        <time>2020-09-20T07:53:59Z</time>
      </trkpt>
      <trkpt lat="43.40805" lon="-0.51545">
        <ele>199.13</ele>
        <time>2020-09-20T07:54:00Z</time>
      </trkpt>
      <trkpt lat="43.40805" lon="-0.51542">
        <ele>198.65</ele>
        <time>2020-09-20T07:54:01Z</time>
      </trkpt>
      <trkpt lat="43.40806" lon="-0.5154">
        <ele>197.69</ele>
        <time>2020-09-20T07:54:02Z</time>
      </trkpt>
      <trkpt lat="43.40811" lon="-0.51536">
        <ele>194.8</ele>
        <time>2020-09-20T07:54:13Z</time>
      </trkpt>
      <trkpt lat="43.40812" lon="-0.51533">
        <ele>196.25</ele>
        <time>2020-09-20T07:54:41Z</time>
      </trkpt>
      <trkpt lat="43.40814" lon="-0.5153">
        <ele>198.17</ele>
        <time>2020-09-20T07:55:00Z</time>
      </trkpt>
      <trkpt lat="43.40804" lon="-0.51501">
        <ele>196.25</ele>
        <time>2020-09-20T07:55:10Z</time>
      </trkpt>
      <trkpt lat="43.40801" lon="-0.51497">
        <ele>196.25</ele>
        <time>2020-09-20T07:55:11Z</time>
      </trkpt>
      <trkpt lat="43.40798" lon="-0.51492">
        <ele>195.77</ele>
        <time>2020-09-20T07:55:12Z</time>
      </trkpt>
      <trkpt lat="43.40786" lon="-0.51458">
        <ele>195.28</ele>
        <time>2020-09-20T07:55:18Z</time>
      </trkpt>
      <trkpt lat="43.4078" lon="-0.51437">
        <ele>194.32</ele>
        <time>2020-09-20T07:55:22Z</time>
      </trkpt>
      <trkpt lat="43.40774" lon="-0.5142">
        <ele>193.84</ele>
        <time>2020-09-20T07:55:26Z</time>
      </trkpt>
      <trkpt lat="43.40762" lon="-0.51402">
        <ele>194.32</ele>
        <time>2020-09-20T07:55:30Z</time>
      </trkpt>
      <trkpt lat="43.40748" lon="-0.5137">
        <ele>193.84</ele>
        <time>2020-09-20T07:55:40Z</time>
      </trkpt>
      <trkpt lat="43.4074" lon="-0.5135">
        <ele>194.8</ele>
        <time>2020-09-20T07:55:50Z</time>
      </trkpt>
      <trkpt lat="43.40751" lon="-0.51303">
        <ele>196.73</ele>
        <time>2020-09-20T07:56:02Z</time>
      </trkpt>
      <trkpt lat="43.40773" lon="-0.51263">
        <ele>196.73</ele>
        <time>2020-09-20T07:56:14Z</time>
      </trkpt>
      <trkpt lat="43.40796" lon="-0.51223">
        <ele>196.73</ele>
        <time>2020-09-20T07:56:29Z</time>
      </trkpt>
      <trkpt lat="43.40797" lon="-0.5122">
        <ele>197.21</ele>
        <time>2020-09-20T07:56:30Z</time>
      </trkpt>
      <trkpt lat="43.40814" lon="-0.51175">
        <ele>198.17</ele>
        <time>2020-09-20T07:56:41Z</time>
      </trkpt>
      <trkpt lat="43.40834" lon="-0.51121">
        <ele>200.09</ele>
        <time>2020-09-20T07:56:56Z</time>
      </trkpt>
      <trkpt lat="43.40841" lon="-0.51069">
        <ele>201.05</ele>
        <time>2020-09-20T07:57:12Z</time>
      </trkpt>
      <trkpt lat="43.40842" lon="-0.51067">
        <ele>201.05</ele>
        <time>2020-09-20T07:57:13Z</time>
      </trkpt>
      <trkpt lat="43.40843" lon="-0.51066">
        <ele>201.05</ele>
        <time>2020-09-20T07:57:14Z</time>
      </trkpt>
      <trkpt lat="43.40845" lon="-0.51067">
        <ele>200.57</ele>
        <time>2020-09-20T07:57:15Z</time>
      </trkpt>
      <trkpt lat="43.40847" lon="-0.51068">
        <ele>200.57</ele>
        <time>2020-09-20T07:57:16Z</time>
      </trkpt>
      <trkpt lat="43.40849" lon="-0.5107">
        <ele>201.05</ele>
        <time>2020-09-20T07:57:17Z</time>
      </trkpt>
      <trkpt lat="43.40851" lon="-0.51073">
        <ele>201.05</ele>
        <time>2020-09-20T07:57:18Z</time>
      </trkpt>
      <trkpt lat="43.40853" lon="-0.51075">
        <ele>201.53</ele>
        <time>2020-09-20T07:57:19Z</time>
      </trkpt>
      <trkpt lat="43.40874" lon="-0.51104">
        <ele>203.94</ele>
        <time>2020-09-20T07:57:31Z</time>
      </trkpt>
      <trkpt lat="43.40895" lon="-0.51147">
        <ele>206.82</ele>
        <time>2020-09-20T07:57:44Z</time>
      </trkpt>
      <trkpt lat="43.40913" lon="-0.51212">
        <ele>206.34</ele>
        <time>2020-09-20T07:57:58Z</time>
      </trkpt>
      <trkpt lat="43.40926" lon="-0.51282">
        <ele>204.9</ele>
        <time>2020-09-20T07:58:15Z</time>
      </trkpt>
      <trkpt lat="43.40939" lon="-0.51339">
        <ele>201.53</ele>
        <time>2020-09-20T07:58:29Z</time>
      </trkpt>
      <trkpt lat="43.40958" lon="-0.51387">
        <ele>198.65</ele>
        <time>2020-09-20T07:58:40Z</time>
      </trkpt>
      <trkpt lat="43.40989" lon="-0.51479">
        <ele>196.73</ele>
        <time>2020-09-20T07:58:55Z</time>
      </trkpt>
      <trkpt lat="43.41004" lon="-0.51537">
        <ele>195.77</ele>
        <time>2020-09-20T07:59:05Z</time>
      </trkpt>
      <trkpt lat="43.41007" lon="-0.51542">
        <ele>195.28</ele>
        <time>2020-09-20T07:59:06Z</time>
      </trkpt>
      <trkpt lat="43.4101" lon="-0.51548">
        <ele>195.28</ele>
        <time>2020-09-20T07:59:07Z</time>
      </trkpt>
      <trkpt lat="43.41014" lon="-0.51552">
        <ele>194.8</ele>
        <time>2020-09-20T07:59:08Z</time>
      </trkpt>
      <trkpt lat="43.41017" lon="-0.51556">
        <ele>194.8</ele>
        <time>2020-09-20T07:59:09Z</time>
      </trkpt>
      <trkpt lat="43.41021" lon="-0.51562">
        <ele>194.32</ele>
        <time>2020-09-20T07:59:10Z</time>
      </trkpt>
      <trkpt lat="43.41023" lon="-0.51567">
        <ele>194.32</ele>
        <time>2020-09-20T07:59:11Z</time>
      </trkpt>
      <trkpt lat="43.4104" lon="-0.51618">
        <ele>195.28</ele>
        <time>2020-09-20T07:59:21Z</time>
      </trkpt>
      <trkpt lat="43.41067" lon="-0.51692">
        <ele>192.88</ele>
        <time>2020-09-20T07:59:35Z</time>
      </trkpt>
      <trkpt lat="43.41079" lon="-0.51734">
        <ele>192.88</ele>
        <time>2020-09-20T07:59:44Z</time>
      </trkpt>
      <trkpt lat="43.41081" lon="-0.51754">
        <ele>191.92</ele>
        <time>2020-09-20T07:59:47Z</time>
      </trkpt>
      <trkpt lat="43.41106" lon="-0.51869">
        <ele>189.04</ele>
        <time>2020-09-20T08:00:02Z</time>
      </trkpt>
      <trkpt lat="43.41115" lon="-0.51905">
        <ele>189.04</ele>
        <time>2020-09-20T08:00:07Z</time>
      </trkpt>
      <trkpt lat="43.41159" lon="-0.5198">
        <ele>189.04</ele>
        <time>2020-09-20T08:00:20Z</time>
      </trkpt>
      <trkpt lat="43.41198" lon="-0.52035">
        <ele>189.04</ele>
        <time>2020-09-20T08:00:32Z</time>
      </trkpt>
      <trkpt lat="43.41202" lon="-0.52038">
        <ele>189.04</ele>
        <time>2020-09-20T08:00:33Z</time>
      </trkpt>
      <trkpt lat="43.41206" lon="-0.5204">
        <ele>189.04</ele>
        <time>2020-09-20T08:00:34Z</time>
      </trkpt>
      <trkpt lat="43.41232" lon="-0.52057">
        <ele>189.04</ele>
        <time>2020-09-20T08:00:41Z</time>
      </trkpt>
      <trkpt lat="43.41234" lon="-0.52062">
        <ele>189.04</ele>
        <time>2020-09-20T08:00:42Z</time>
      </trkpt>
      <trkpt lat="43.41235" lon="-0.52068">
        <ele>188.56</ele>
        <time>2020-09-20T08:00:43Z</time>
      </trkpt>
      <trkpt lat="43.41234" lon="-0.52075">
        <ele>188.08</ele>
        <time>2020-09-20T08:00:44Z</time>
      </trkpt>
      <trkpt lat="43.41232" lon="-0.52082">
        <ele>187.59</ele>
        <time>2020-09-20T08:00:45Z</time>
      </trkpt>
      <trkpt lat="43.41228" lon="-0.52087">
        <ele>187.11</ele>
        <time>2020-09-20T08:00:46Z</time>
      </trkpt>
      <trkpt lat="43.41223" lon="-0.52093">
        <ele>186.63</ele>
        <time>2020-09-20T08:00:47Z</time>
      </trkpt>
      <trkpt lat="43.41218" lon="-0.52098">
        <ele>186.15</ele>
        <time>2020-09-20T08:00:48Z</time>
      </trkpt>
      <trkpt lat="43.41193" lon="-0.52125">
        <ele>183.75</ele>
        <time>2020-09-20T08:00:53Z</time>
      </trkpt>
      <trkpt lat="43.41191" lon="-0.52132">
        <ele>183.75</ele>
        <time>2020-09-20T08:00:54Z</time>
      </trkpt>
      <trkpt lat="43.41191" lon="-0.52139">
        <ele>183.27</ele>
        <time>2020-09-20T08:00:55Z</time>
      </trkpt>
      <trkpt lat="43.41193" lon="-0.52146">
        <ele>183.27</ele>
        <time>2020-09-20T08:00:56Z</time>
      </trkpt>
      <trkpt lat="43.41195" lon="-0.52154">
        <ele>182.79</ele>
        <time>2020-09-20T08:00:57Z</time>
      </trkpt>
      <trkpt lat="43.41199" lon="-0.5217">
        <ele>182.79</ele>
        <time>2020-09-20T08:00:59Z</time>
      </trkpt>
      <trkpt lat="43.41211" lon="-0.52201">
        <ele>181.83</ele>
        <time>2020-09-20T08:01:03Z</time>
      </trkpt>
      <trkpt lat="43.41215" lon="-0.52208">
        <ele>181.83</ele>
        <time>2020-09-20T08:01:04Z</time>
      </trkpt>
      <trkpt lat="43.4126" lon="-0.5227">
        <ele>181.35</ele>
        <time>2020-09-20T08:01:16Z</time>
      </trkpt>
      <trkpt lat="43.41282" lon="-0.52313">
        <ele>181.35</ele>
        <time>2020-09-20T08:01:26Z</time>
      </trkpt>
      <trkpt lat="43.41286" lon="-0.52323">
        <ele>181.83</ele>
        <time>2020-09-20T08:01:28Z</time>
      </trkpt>
      <trkpt lat="43.41287" lon="-0.52328">
        <ele>181.83</ele>
        <time>2020-09-20T08:01:29Z</time>
      </trkpt>
      <trkpt lat="43.41299" lon="-0.52371">
        <ele>181.83</ele>
        <time>2020-09-20T08:01:36Z</time>
      </trkpt>
      <trkpt lat="43.41315" lon="-0.52438">
        <ele>181.35</ele>
        <time>2020-09-20T08:01:48Z</time>
      </trkpt>
      <trkpt lat="43.41319" lon="-0.52453">
        <ele>179.9</ele>
        <time>2020-09-20T08:01:51Z</time>
      </trkpt>
      <trkpt lat="43.41321" lon="-0.52457">
        <ele>179.9</ele>
        <time>2020-09-20T08:01:52Z</time>
      </trkpt>
      <trkpt lat="43.41324" lon="-0.5246">
        <ele>179.42</ele>
        <time>2020-09-20T08:01:53Z</time>
      </trkpt>
      <trkpt lat="43.41327" lon="-0.52461">
        <ele>178.94</ele>
        <time>2020-09-20T08:01:54Z</time>
      </trkpt>
      <trkpt lat="43.4133" lon="-0.5246">
        <ele>178.46</ele>
        <time>2020-09-20T08:01:55Z</time>
      </trkpt>
      <trkpt lat="43.41334" lon="-0.52459">
        <ele>178.46</ele>
        <time>2020-09-20T08:01:56Z</time>
      </trkpt>
      <trkpt lat="43.41347" lon="-0.52458">
        <ele>177.02</ele>
        <time>2020-09-20T08:02:01Z</time>
      </trkpt>
      <trkpt lat="43.41349" lon="-0.52457">
        <ele>177.02</ele>
        <time>2020-09-20T08:02:02Z</time>
      </trkpt>
      <trkpt lat="43.41376" lon="-0.52449">
        <ele>177.5</ele>
        <time>2020-09-20T08:02:11Z</time>
      </trkpt>
      <trkpt lat="43.41378" lon="-0.52446">
        <ele>177.98</ele>
        <time>2020-09-20T08:02:12Z</time>
      </trkpt>
      <trkpt lat="43.4138" lon="-0.52443">
        <ele>177.98</ele>
        <time>2020-09-20T08:02:13Z</time>
      </trkpt>
      <trkpt lat="43.4138" lon="-0.52439">
        <ele>177.98</ele>
        <time>2020-09-20T08:02:14Z</time>
      </trkpt>
      <trkpt lat="43.41381" lon="-0.52435">
        <ele>178.46</ele>
        <time>2020-09-20T08:02:15Z</time>
      </trkpt>
      <trkpt lat="43.41381" lon="-0.52432">
        <ele>178.94</ele>
        <time>2020-09-20T08:02:16Z</time>
      </trkpt>
      <trkpt lat="43.41381" lon="-0.52429">
        <ele>178.94</ele>
        <time>2020-09-20T08:02:17Z</time>
      </trkpt>
      <trkpt lat="43.41393" lon="-0.52387">
        <ele>182.79</ele>
        <time>2020-09-20T08:02:30Z</time>
      </trkpt>
      <trkpt lat="43.41413" lon="-0.52351">
        <ele>185.19</ele>
        <time>2020-09-20T08:02:44Z</time>
      </trkpt>
      <trkpt lat="43.41438" lon="-0.52312">
        <ele>187.11</ele>
        <time>2020-09-20T08:03:00Z</time>
      </trkpt>
      <trkpt lat="43.41451" lon="-0.52288">
        <ele>189.04</ele>
        <time>2020-09-20T08:03:10Z</time>
      </trkpt>
      <trkpt lat="43.41453" lon="-0.52288">
        <ele>189.52</ele>
        <time>2020-09-20T08:03:11Z</time>
      </trkpt>
      <trkpt lat="43.41455" lon="-0.5229">
        <ele>189.52</ele>
        <time>2020-09-20T08:03:12Z</time>
      </trkpt>
      <trkpt lat="43.41456" lon="-0.52291">
        <ele>189.52</ele>
        <time>2020-09-20T08:03:13Z</time>
      </trkpt>
      <trkpt lat="43.41458" lon="-0.52294">
        <ele>190</ele>
        <time>2020-09-20T08:03:14Z</time>
      </trkpt>
      <trkpt lat="43.41459" lon="-0.52296">
        <ele>190</ele>
        <time>2020-09-20T08:03:15Z</time>
      </trkpt>
      <trkpt lat="43.41461" lon="-0.523">
        <ele>190</ele>
        <time>2020-09-20T08:03:16Z</time>
      </trkpt>
      <trkpt lat="43.4148" lon="-0.5235">
        <ele>190.96</ele>
        <time>2020-09-20T08:03:29Z</time>
      </trkpt>
      <trkpt lat="43.41502" lon="-0.52404">
        <ele>193.36</ele>
        <time>2020-09-20T08:03:44Z</time>
      </trkpt>
      <trkpt lat="43.4152" lon="-0.5245">
        <ele>193.36</ele>
        <time>2020-09-20T08:03:58Z</time>
      </trkpt>
      <trkpt lat="43.41537" lon="-0.52498">
        <ele>192.4</ele>
        <time>2020-09-20T08:04:07Z</time>
      </trkpt>
      <trkpt lat="43.41541" lon="-0.52512">
        <ele>191.92</ele>
        <time>2020-09-20T08:04:09Z</time>
      </trkpt>
      <trkpt lat="43.41542" lon="-0.52518">
        <ele>191.44</ele>
        <time>2020-09-20T08:04:10Z</time>
      </trkpt>
      <trkpt lat="43.41543" lon="-0.52541">
        <ele>190.48</ele>
        <time>2020-09-20T08:04:14Z</time>
      </trkpt>
      <trkpt lat="43.41541" lon="-0.52559">
        <ele>188.56</ele>
        <time>2020-09-20T08:04:17Z</time>
      </trkpt>
      <trkpt lat="43.41538" lon="-0.52581">
        <ele>186.63</ele>
        <time>2020-09-20T08:04:20Z</time>
      </trkpt>
      <trkpt lat="43.41538" lon="-0.52589">
        <ele>185.67</ele>
        <time>2020-09-20T08:04:21Z</time>
      </trkpt>
      <trkpt lat="43.41538" lon="-0.52598">
        <ele>184.71</ele>
        <time>2020-09-20T08:04:22Z</time>
      </trkpt>
      <trkpt lat="43.41539" lon="-0.52605">
        <ele>183.75</ele>
        <time>2020-09-20T08:04:23Z</time>
      </trkpt>
      <trkpt lat="43.4154" lon="-0.52613">
        <ele>182.31</ele>
        <time>2020-09-20T08:04:24Z</time>
      </trkpt>
      <trkpt lat="43.41544" lon="-0.52636">
        <ele>179.9</ele>
        <time>2020-09-20T08:04:27Z</time>
      </trkpt>
      <trkpt lat="43.41546" lon="-0.52643">
        <ele>178.94</ele>
        <time>2020-09-20T08:04:28Z</time>
      </trkpt>
      <trkpt lat="43.41548" lon="-0.52649">
        <ele>178.46</ele>
        <time>2020-09-20T08:04:29Z</time>
      </trkpt>
      <trkpt lat="43.41564" lon="-0.52682">
        <ele>177.02</ele>
        <time>2020-09-20T08:04:37Z</time>
      </trkpt>
      <trkpt lat="43.41575" lon="-0.52701">
        <ele>179.9</ele>
        <time>2020-09-20T08:04:48Z</time>
      </trkpt>
      <trkpt lat="43.4158" lon="-0.52704">
        <ele>183.75</ele>
        <time>2020-09-20T08:05:12Z</time>
      </trkpt>
      <trkpt lat="43.4158" lon="-0.52707">
        <ele>185.67</ele>
        <time>2020-09-20T08:05:40Z</time>
      </trkpt>
      <trkpt lat="43.41584" lon="-0.52715">
        <ele>186.63</ele>
        <time>2020-09-20T08:06:06Z</time>
      </trkpt>
      <trkpt lat="43.41605" lon="-0.52743">
        <ele>185.19</ele>
        <time>2020-09-20T08:06:16Z</time>
      </trkpt>
      <trkpt lat="43.41613" lon="-0.52754">
        <ele>185.19</ele>
        <time>2020-09-20T08:06:20Z</time>
      </trkpt>
      <trkpt lat="43.41643" lon="-0.5277">
        <ele>189.04</ele>
        <time>2020-09-20T08:06:33Z</time>
      </trkpt>
      <trkpt lat="43.41671" lon="-0.52777">
        <ele>195.77</ele>
        <time>2020-09-20T08:06:45Z</time>
      </trkpt>
      <trkpt lat="43.41685" lon="-0.52787">
        <ele>198.65</ele>
        <time>2020-09-20T08:06:52Z</time>
      </trkpt>
      <trkpt lat="43.41687" lon="-0.52789">
        <ele>199.13</ele>
        <time>2020-09-20T08:06:53Z</time>
      </trkpt>
      <trkpt lat="43.41689" lon="-0.5279">
        <ele>199.61</ele>
        <time>2020-09-20T08:06:54Z</time>
      </trkpt>
      <trkpt lat="43.41716" lon="-0.52808">
        <ele>206.82</ele>
        <time>2020-09-20T08:07:07Z</time>
      </trkpt>
      <trkpt lat="43.41743" lon="-0.52828">
        <ele>212.11</ele>
        <time>2020-09-20T08:07:21Z</time>
      </trkpt>
      <trkpt lat="43.41772" lon="-0.52843">
        <ele>213.07</ele>
        <time>2020-09-20T08:07:34Z</time>
      </trkpt>
      <trkpt lat="43.41804" lon="-0.52834">
        <ele>213.55</ele>
        <time>2020-09-20T08:07:46Z</time>
      </trkpt>
      <trkpt lat="43.41842" lon="-0.52812">
        <ele>215.95</ele>
        <time>2020-09-20T08:07:57Z</time>
      </trkpt>
      <trkpt lat="43.41858" lon="-0.52792">
        <ele>217.4</ele>
        <time>2020-09-20T08:08:02Z</time>
      </trkpt>
      <trkpt lat="43.41865" lon="-0.5278">
        <ele>217.4</ele>
        <time>2020-09-20T08:08:04Z</time>
      </trkpt>
      <trkpt lat="43.41893" lon="-0.52717">
        <ele>203.94</ele>
        <time>2020-09-20T08:08:14Z</time>
      </trkpt>
      <trkpt lat="43.41896" lon="-0.52714">
        <ele>202.49</ele>
        <time>2020-09-20T08:08:15Z</time>
      </trkpt>
      <trkpt lat="43.41898" lon="-0.52713">
        <ele>201.53</ele>
        <time>2020-09-20T08:08:16Z</time>
      </trkpt>
      <trkpt lat="43.419" lon="-0.52713">
        <ele>200.57</ele>
        <time>2020-09-20T08:08:17Z</time>
      </trkpt>
      <trkpt lat="43.41916" lon="-0.5272">
        <ele>197.21</ele>
        <time>2020-09-20T08:08:22Z</time>
      </trkpt>
      <trkpt lat="43.4192" lon="-0.52718">
        <ele>196.25</ele>
        <time>2020-09-20T08:08:23Z</time>
      </trkpt>
      <trkpt lat="43.41923" lon="-0.52715">
        <ele>195.77</ele>
        <time>2020-09-20T08:08:24Z</time>
      </trkpt>
      <trkpt lat="43.41932" lon="-0.527">
        <ele>192.4</ele>
        <time>2020-09-20T08:08:28Z</time>
      </trkpt>
      <trkpt lat="43.41938" lon="-0.5269">
        <ele>190.48</ele>
        <time>2020-09-20T08:08:30Z</time>
      </trkpt>
      <trkpt lat="43.4196" lon="-0.52665">
        <ele>182.79</ele>
        <time>2020-09-20T08:08:40Z</time>
      </trkpt>
      <trkpt lat="43.41987" lon="-0.52637">
        <ele>179.9</ele>
        <time>2020-09-20T08:08:53Z</time>
      </trkpt>
      <trkpt lat="43.42016" lon="-0.52606">
        <ele>183.27</ele>
        <time>2020-09-20T08:09:09Z</time>
      </trkpt>
      <trkpt lat="43.4204" lon="-0.52574">
        <ele>190.48</ele>
        <time>2020-09-20T08:09:26Z</time>
      </trkpt>
      <trkpt lat="43.42064" lon="-0.52546">
        <ele>193.36</ele>
        <time>2020-09-20T08:09:43Z</time>
      </trkpt>
      <trkpt lat="43.42087" lon="-0.52531">
        <ele>196.73</ele>
        <time>2020-09-20T08:09:59Z</time>
      </trkpt>
      <trkpt lat="43.42106" lon="-0.52519">
        <ele>200.09</ele>
        <time>2020-09-20T08:10:14Z</time>
      </trkpt>
      <trkpt lat="43.4212" lon="-0.52508">
        <ele>203.46</ele>
        <time>2020-09-20T08:10:28Z</time>
      </trkpt>
      <trkpt lat="43.42136" lon="-0.52498">
        <ele>206.82</ele>
        <time>2020-09-20T08:10:42Z</time>
      </trkpt>
      <trkpt lat="43.42147" lon="-0.52494">
        <ele>208.74</ele>
        <time>2020-09-20T08:10:52Z</time>
      </trkpt>
      <trkpt lat="43.42148" lon="-0.52494">
        <ele>208.74</ele>
        <time>2020-09-20T08:10:53Z</time>
      </trkpt>
      <trkpt lat="43.42149" lon="-0.52493">
        <ele>208.74</ele>
        <time>2020-09-20T08:10:54Z</time>
      </trkpt>
      <trkpt lat="43.42167" lon="-0.52486">
        <ele>210.67</ele>
        <time>2020-09-20T08:11:06Z</time>
      </trkpt>
      <trkpt lat="43.42185" lon="-0.52479">
        <ele>214.99</ele>
        <time>2020-09-20T08:11:20Z</time>
      </trkpt>
      <trkpt lat="43.42203" lon="-0.52464">
        <ele>217.88</ele>
        <time>2020-09-20T08:11:35Z</time>
      </trkpt>
      <trkpt lat="43.42212" lon="-0.52453">
        <ele>219.8</ele>
        <time>2020-09-20T08:11:43Z</time>
      </trkpt>
      <trkpt lat="43.42213" lon="-0.52452">
        <ele>220.28</ele>
        <time>2020-09-20T08:11:44Z</time>
      </trkpt>
      <trkpt lat="43.42231" lon="-0.52429">
        <ele>225.57</ele>
        <time>2020-09-20T08:12:01Z</time>
      </trkpt>
      <trkpt lat="43.42249" lon="-0.52416">
        <ele>229.89</ele>
        <time>2020-09-20T08:12:16Z</time>
      </trkpt>
      <trkpt lat="43.42271" lon="-0.52405">
        <ele>231.81</ele>
        <time>2020-09-20T08:12:31Z</time>
      </trkpt>
      <trkpt lat="43.42295" lon="-0.52395">
        <ele>233.74</ele>
        <time>2020-09-20T08:12:47Z</time>
      </trkpt>
      <trkpt lat="43.42302" lon="-0.52393">
        <ele>236.62</ele>
        <time>2020-09-20T08:12:53Z</time>
      </trkpt>
      <trkpt lat="43.42303" lon="-0.52393">
        <ele>237.1</ele>
        <time>2020-09-20T08:12:54Z</time>
      </trkpt>
      <trkpt lat="43.42304" lon="-0.52392">
        <ele>237.1</ele>
        <time>2020-09-20T08:12:55Z</time>
      </trkpt>
      <trkpt lat="43.42306" lon="-0.52391">
        <ele>237.58</ele>
        <time>2020-09-20T08:12:56Z</time>
      </trkpt>
      <trkpt lat="43.42308" lon="-0.52391">
        <ele>237.58</ele>
        <time>2020-09-20T08:12:57Z</time>
      </trkpt>
      <trkpt lat="43.42309" lon="-0.52391">
        <ele>238.06</ele>
        <time>2020-09-20T08:12:58Z</time>
      </trkpt>
      <trkpt lat="43.42311" lon="-0.52391">
        <ele>238.06</ele>
        <time>2020-09-20T08:12:59Z</time>
      </trkpt>
      <trkpt lat="43.42313" lon="-0.5239">
        <ele>238.06</ele>
        <time>2020-09-20T08:13:00Z</time>
      </trkpt>
      <trkpt lat="43.42314" lon="-0.5239">
        <ele>238.06</ele>
        <time>2020-09-20T08:13:01Z</time>
      </trkpt>
      <trkpt lat="43.42316" lon="-0.5239">
        <ele>238.06</ele>
        <time>2020-09-20T08:13:02Z</time>
      </trkpt>
      <trkpt lat="43.42317" lon="-0.5239">
        <ele>238.06</ele>
        <time>2020-09-20T08:13:03Z</time>
      </trkpt>
      <trkpt lat="43.42324" lon="-0.52388">
        <ele>239.51</ele>
        <time>2020-09-20T08:13:08Z</time>
      </trkpt>
      <trkpt lat="43.42326" lon="-0.52388">
        <ele>239.99</ele>
        <time>2020-09-20T08:13:09Z</time>
      </trkpt>
      <trkpt lat="43.42327" lon="-0.52387">
        <ele>240.47</ele>
        <time>2020-09-20T08:13:10Z</time>
      </trkpt>
      <trkpt lat="43.42332" lon="-0.52386">
        <ele>241.43</ele>
        <time>2020-09-20T08:13:13Z</time>
      </trkpt>
      <trkpt lat="43.42334" lon="-0.52385">
        <ele>241.43</ele>
        <time>2020-09-20T08:13:14Z</time>
      </trkpt>
      <trkpt lat="43.42335" lon="-0.52385">
        <ele>241.91</ele>
        <time>2020-09-20T08:13:15Z</time>
      </trkpt>
      <trkpt lat="43.42337" lon="-0.52384">
        <ele>241.91</ele>
        <time>2020-09-20T08:13:16Z</time>
      </trkpt>
      <trkpt lat="43.42356" lon="-0.52377">
        <ele>245.75</ele>
        <time>2020-09-20T08:13:29Z</time>
      </trkpt>
      <trkpt lat="43.42363" lon="-0.52372">
        <ele>247.68</ele>
        <time>2020-09-20T08:13:34Z</time>
      </trkpt>
      <trkpt lat="43.42375" lon="-0.52363">
        <ele>250.08</ele>
        <time>2020-09-20T08:13:43Z</time>
      </trkpt>
      <trkpt lat="43.42377" lon="-0.52361">
        <ele>250.08</ele>
        <time>2020-09-20T08:13:44Z</time>
      </trkpt>
      <trkpt lat="43.42401" lon="-0.52336">
        <ele>251.52</ele>
        <time>2020-09-20T08:14:01Z</time>
      </trkpt>
      <trkpt lat="43.42412" lon="-0.52326">
        <ele>252</ele>
        <time>2020-09-20T08:14:08Z</time>
      </trkpt>
      <trkpt lat="43.42413" lon="-0.52325">
        <ele>252</ele>
        <time>2020-09-20T08:14:09Z</time>
      </trkpt>
      <trkpt lat="43.42415" lon="-0.52323">
        <ele>251.52</ele>
        <time>2020-09-20T08:14:10Z</time>
      </trkpt>
      <trkpt lat="43.42425" lon="-0.52316">
        <ele>249.6</ele>
        <time>2020-09-20T08:14:20Z</time>
      </trkpt>
      <trkpt lat="43.42425" lon="-0.52315">
        <ele>248.16</ele>
        <time>2020-09-20T08:14:43Z</time>
      </trkpt>
      <trkpt lat="43.42427" lon="-0.52316">
        <ele>248.64</ele>
        <time>2020-09-20T08:15:08Z</time>
      </trkpt>
      <trkpt lat="43.42429" lon="-0.52316">
        <ele>250.08</ele>
        <time>2020-09-20T08:15:36Z</time>
      </trkpt>
      <trkpt lat="43.42428" lon="-0.52316">
        <ele>249.6</ele>
        <time>2020-09-20T08:15:56Z</time>
      </trkpt>
      <trkpt lat="43.42428" lon="-0.52316">
        <ele>249.6</ele>
        <time>2020-09-20T08:16:12Z</time>
      </trkpt>
      <trkpt lat="43.42429" lon="-0.52316">
        <ele>249.6</ele>
        <time>2020-09-20T08:16:13Z</time>
      </trkpt>
      <trkpt lat="43.42431" lon="-0.52316">
        <ele>249.6</ele>
        <time>2020-09-20T08:16:14Z</time>
      </trkpt>
      <trkpt lat="43.42433" lon="-0.52317">
        <ele>249.6</ele>
        <time>2020-09-20T08:16:15Z</time>
      </trkpt>
      <trkpt lat="43.42435" lon="-0.52319">
        <ele>249.12</ele>
        <time>2020-09-20T08:16:16Z</time>
      </trkpt>
      <trkpt lat="43.42437" lon="-0.52322">
        <ele>249.12</ele>
        <time>2020-09-20T08:16:17Z</time>
      </trkpt>
      <trkpt lat="43.42438" lon="-0.52325">
        <ele>249.6</ele>
        <time>2020-09-20T08:16:18Z</time>
      </trkpt>
      <trkpt lat="43.42443" lon="-0.52337">
        <ele>249.6</ele>
        <time>2020-09-20T08:16:27Z</time>
      </trkpt>
      <trkpt lat="43.4245" lon="-0.5236">
        <ele>250.08</ele>
        <time>2020-09-20T08:16:42Z</time>
      </trkpt>
      <trkpt lat="43.42483" lon="-0.52448">
        <ele>249.12</ele>
        <time>2020-09-20T08:16:57Z</time>
      </trkpt>
      <trkpt lat="43.42512" lon="-0.52507">
        <ele>248.64</ele>
        <time>2020-09-20T08:17:08Z</time>
      </trkpt>
      <trkpt lat="43.42515" lon="-0.52511">
        <ele>248.64</ele>
        <time>2020-09-20T08:17:09Z</time>
      </trkpt>
      <trkpt lat="43.42519" lon="-0.52513">
        <ele>248.64</ele>
        <time>2020-09-20T08:17:10Z</time>
      </trkpt>
      <trkpt lat="43.42524" lon="-0.52515">
        <ele>249.12</ele>
        <time>2020-09-20T08:17:11Z</time>
      </trkpt>
      <trkpt lat="43.42527" lon="-0.52515">
        <ele>249.12</ele>
        <time>2020-09-20T08:17:12Z</time>
      </trkpt>
      <trkpt lat="43.42531" lon="-0.52515">
        <ele>249.6</ele>
        <time>2020-09-20T08:17:13Z</time>
      </trkpt>
      <trkpt lat="43.42535" lon="-0.52513">
        <ele>249.6</ele>
        <time>2020-09-20T08:17:14Z</time>
      </trkpt>
      <trkpt lat="43.42539" lon="-0.52512">
        <ele>250.08</ele>
        <time>2020-09-20T08:17:15Z</time>
      </trkpt>
      <trkpt lat="43.42589" lon="-0.52491">
        <ele>250.56</ele>
        <time>2020-09-20T08:17:28Z</time>
      </trkpt>
      <trkpt lat="43.42594" lon="-0.52491">
        <ele>250.56</ele>
        <time>2020-09-20T08:17:29Z</time>
      </trkpt>
      <trkpt lat="43.42598" lon="-0.52493">
        <ele>250.56</ele>
        <time>2020-09-20T08:17:30Z</time>
      </trkpt>
      <trkpt lat="43.42603" lon="-0.52496">
        <ele>250.56</ele>
        <time>2020-09-20T08:17:31Z</time>
      </trkpt>
      <trkpt lat="43.42607" lon="-0.525">
        <ele>250.56</ele>
        <time>2020-09-20T08:17:32Z</time>
      </trkpt>
      <trkpt lat="43.42611" lon="-0.52505">
        <ele>250.08</ele>
        <time>2020-09-20T08:17:33Z</time>
      </trkpt>
      <trkpt lat="43.42615" lon="-0.52509">
        <ele>250.08</ele>
        <time>2020-09-20T08:17:34Z</time>
      </trkpt>
      <trkpt lat="43.42619" lon="-0.52513">
        <ele>250.08</ele>
        <time>2020-09-20T08:17:35Z</time>
      </trkpt>
      <trkpt lat="43.42696" lon="-0.5261">
        <ele>249.12</ele>
        <time>2020-09-20T08:17:55Z</time>
      </trkpt>
      <trkpt lat="43.42762" lon="-0.52688">
        <ele>248.16</ele>
        <time>2020-09-20T08:18:10Z</time>
      </trkpt>
      <trkpt lat="43.42767" lon="-0.52692">
        <ele>248.16</ele>
        <time>2020-09-20T08:18:11Z</time>
      </trkpt>
      <trkpt lat="43.42837" lon="-0.52741">
        <ele>248.16</ele>
        <time>2020-09-20T08:18:24Z</time>
      </trkpt>
      <trkpt lat="43.42842" lon="-0.52742">
        <ele>247.68</ele>
        <time>2020-09-20T08:18:25Z</time>
      </trkpt>
      <trkpt lat="43.42846" lon="-0.5274">
        <ele>247.68</ele>
        <time>2020-09-20T08:18:26Z</time>
      </trkpt>
      <trkpt lat="43.4285" lon="-0.52735">
        <ele>247.68</ele>
        <time>2020-09-20T08:18:27Z</time>
      </trkpt>
      <trkpt lat="43.42852" lon="-0.52729">
        <ele>247.68</ele>
        <time>2020-09-20T08:18:28Z</time>
      </trkpt>
      <trkpt lat="43.42854" lon="-0.52722">
        <ele>247.68</ele>
        <time>2020-09-20T08:18:29Z</time>
      </trkpt>
      <trkpt lat="43.4287" lon="-0.52676">
        <ele>245.75</ele>
        <time>2020-09-20T08:18:35Z</time>
      </trkpt>
      <trkpt lat="43.42875" lon="-0.52669">
        <ele>245.27</ele>
        <time>2020-09-20T08:18:36Z</time>
      </trkpt>
      <trkpt lat="43.4288" lon="-0.52662">
        <ele>244.79</ele>
        <time>2020-09-20T08:18:37Z</time>
      </trkpt>
      <trkpt lat="43.42891" lon="-0.52651">
        <ele>242.87</ele>
        <time>2020-09-20T08:18:39Z</time>
      </trkpt>
      <trkpt lat="43.42937" lon="-0.52608">
        <ele>239.02</ele>
        <time>2020-09-20T08:18:47Z</time>
      </trkpt>
      <trkpt lat="43.42942" lon="-0.52603">
        <ele>239.02</ele>
        <time>2020-09-20T08:18:48Z</time>
      </trkpt>
      <trkpt lat="43.42947" lon="-0.52599">
        <ele>239.02</ele>
        <time>2020-09-20T08:18:49Z</time>
      </trkpt>
      <trkpt lat="43.42965" lon="-0.52583">
        <ele>238.06</ele>
        <time>2020-09-20T08:18:53Z</time>
      </trkpt>
      <trkpt lat="43.43001" lon="-0.5258">
        <ele>236.62</ele>
        <time>2020-09-20T08:19:00Z</time>
      </trkpt>
      <trkpt lat="43.43017" lon="-0.52576">
        <ele>235.18</ele>
        <time>2020-09-20T08:19:04Z</time>
      </trkpt>
      <trkpt lat="43.43029" lon="-0.52581">
        <ele>234.22</ele>
        <time>2020-09-20T08:19:08Z</time>
      </trkpt>
      <trkpt lat="43.43046" lon="-0.52581">
        <ele>233.74</ele>
        <time>2020-09-20T08:19:12Z</time>
      </trkpt>
      <trkpt lat="43.43061" lon="-0.5258">
        <ele>233.74</ele>
        <time>2020-09-20T08:19:22Z</time>
      </trkpt>
      <trkpt lat="43.43069" lon="-0.52579">
        <ele>233.74</ele>
        <time>2020-09-20T08:19:36Z</time>
      </trkpt>
      <trkpt lat="43.43086" lon="-0.52581">
        <ele>232.78</ele>
        <time>2020-09-20T08:19:44Z</time>
      </trkpt>
      <trkpt lat="43.43097" lon="-0.52581">
        <ele>232.3</ele>
        <time>2020-09-20T08:19:51Z</time>
      </trkpt>
      <trkpt lat="43.43109" lon="-0.52584">
        <ele>231.33</ele>
        <time>2020-09-20T08:19:55Z</time>
      </trkpt>
      <trkpt lat="43.43135" lon="-0.52585">
        <ele>229.41</ele>
        <time>2020-09-20T08:20:03Z</time>
      </trkpt>
      <trkpt lat="43.43143" lon="-0.52559">
        <ele>228.45</ele>
        <time>2020-09-20T08:20:12Z</time>
      </trkpt>
      <trkpt lat="43.43149" lon="-0.52545">
        <ele>225.09</ele>
        <time>2020-09-20T08:20:24Z</time>
      </trkpt>
      <trkpt lat="43.43159" lon="-0.52528">
        <ele>220.28</ele>
        <time>2020-09-20T08:20:32Z</time>
      </trkpt>
      <trkpt lat="43.43154" lon="-0.52502">
        <ele>218.36</ele>
        <time>2020-09-20T08:20:39Z</time>
      </trkpt>
      <trkpt lat="43.43175" lon="-0.52483">
        <ele>214.99</ele>
        <time>2020-09-20T08:20:46Z</time>
      </trkpt>
      <trkpt lat="43.43175" lon="-0.52476">
        <ele>214.51</ele>
        <time>2020-09-20T08:20:47Z</time>
      </trkpt>
      <trkpt lat="43.43181" lon="-0.52386">
        <ele>211.15</ele>
        <time>2020-09-20T08:20:58Z</time>
      </trkpt>
      <trkpt lat="43.43234" lon="-0.52319">
        <ele>202.98</ele>
        <time>2020-09-20T08:21:10Z</time>
      </trkpt>
      <trkpt lat="43.43308" lon="-0.52267">
        <ele>197.69</ele>
        <time>2020-09-20T08:21:24Z</time>
      </trkpt>
      <trkpt lat="43.43318" lon="-0.52261">
        <ele>197.21</ele>
        <time>2020-09-20T08:21:26Z</time>
      </trkpt>
      <trkpt lat="43.43335" lon="-0.52273">
        <ele>196.25</ele>
        <time>2020-09-20T08:21:31Z</time>
      </trkpt>
      <trkpt lat="43.4335" lon="-0.52286">
        <ele>194.8</ele>
        <time>2020-09-20T08:21:35Z</time>
      </trkpt>
      <trkpt lat="43.43353" lon="-0.52285">
        <ele>194.8</ele>
        <time>2020-09-20T08:21:36Z</time>
      </trkpt>
      <trkpt lat="43.43356" lon="-0.52282">
        <ele>194.8</ele>
        <time>2020-09-20T08:21:37Z</time>
      </trkpt>
      <trkpt lat="43.43359" lon="-0.52278">
        <ele>194.8</ele>
        <time>2020-09-20T08:21:38Z</time>
      </trkpt>
      <trkpt lat="43.43363" lon="-0.52274">
        <ele>194.8</ele>
        <time>2020-09-20T08:21:39Z</time>
      </trkpt>
      <trkpt lat="43.43404" lon="-0.52213">
        <ele>196.25</ele>
        <time>2020-09-20T08:21:53Z</time>
      </trkpt>
      <trkpt lat="43.43427" lon="-0.52226">
        <ele>198.17</ele>
        <time>2020-09-20T08:22:01Z</time>
      </trkpt>
      <trkpt lat="43.43469" lon="-0.52258">
        <ele>201.53</ele>
        <time>2020-09-20T08:22:15Z</time>
      </trkpt>
      <trkpt lat="43.43503" lon="-0.52287">
        <ele>204.42</ele>
        <time>2020-09-20T08:22:27Z</time>
      </trkpt>
      <trkpt lat="43.4353" lon="-0.52309">
        <ele>208.26</ele>
        <time>2020-09-20T08:22:38Z</time>
      </trkpt>
      <trkpt lat="43.43567" lon="-0.52331">
        <ele>212.59</ele>
        <time>2020-09-20T08:22:52Z</time>
      </trkpt>
      <trkpt lat="43.43601" lon="-0.52358">
        <ele>214.51</ele>
        <time>2020-09-20T08:23:06Z</time>
      </trkpt>
      <trkpt lat="43.43642" lon="-0.52376">
        <ele>215.95</ele>
        <time>2020-09-20T08:23:22Z</time>
      </trkpt>
      <trkpt lat="43.4368" lon="-0.52391">
        <ele>217.88</ele>
        <time>2020-09-20T08:23:37Z</time>
      </trkpt>
      <trkpt lat="43.43705" lon="-0.52402">
        <ele>221.72</ele>
        <time>2020-09-20T08:23:48Z</time>
      </trkpt>
      <trkpt lat="43.43726" lon="-0.52407">
        <ele>224.61</ele>
        <time>2020-09-20T08:23:58Z</time>
      </trkpt>
      <trkpt lat="43.43727" lon="-0.52408">
        <ele>224.61</ele>
        <time>2020-09-20T08:23:59Z</time>
      </trkpt>
      <trkpt lat="43.43728" lon="-0.52408">
        <ele>224.61</ele>
        <time>2020-09-20T08:24:00Z</time>
      </trkpt>
      <trkpt lat="43.43732" lon="-0.52411">
        <ele>224.61</ele>
        <time>2020-09-20T08:24:04Z</time>
      </trkpt>
      <trkpt lat="43.43733" lon="-0.52412">
        <ele>224.61</ele>
        <time>2020-09-20T08:24:05Z</time>
      </trkpt>
      <trkpt lat="43.43734" lon="-0.52414">
        <ele>224.61</ele>
        <time>2020-09-20T08:24:06Z</time>
      </trkpt>
      <trkpt lat="43.43761" lon="-0.52451">
        <ele>224.61</ele>
        <time>2020-09-20T08:24:22Z</time>
      </trkpt>
      <trkpt lat="43.43789" lon="-0.52491">
        <ele>227.49</ele>
        <time>2020-09-20T08:24:39Z</time>
      </trkpt>
      <trkpt lat="43.43809" lon="-0.52538">
        <ele>229.89</ele>
        <time>2020-09-20T08:24:56Z</time>
      </trkpt>
      <trkpt lat="43.43829" lon="-0.52584">
        <ele>228.93</ele>
        <time>2020-09-20T08:25:07Z</time>
      </trkpt>
      <trkpt lat="43.43835" lon="-0.52593">
        <ele>228.93</ele>
        <time>2020-09-20T08:25:09Z</time>
      </trkpt>
      <trkpt lat="43.43865" lon="-0.5267">
        <ele>225.57</ele>
        <time>2020-09-20T08:25:19Z</time>
      </trkpt>
      <trkpt lat="43.43871" lon="-0.52704">
        <ele>223.64</ele>
        <time>2020-09-20T08:25:22Z</time>
      </trkpt>
      <trkpt lat="43.43902" lon="-0.52793">
        <ele>220.76</ele>
        <time>2020-09-20T08:25:31Z</time>
      </trkpt>
      <trkpt lat="43.43904" lon="-0.52799">
        <ele>220.76</ele>
        <time>2020-09-20T08:25:32Z</time>
      </trkpt>
      <trkpt lat="43.43905" lon="-0.52805">
        <ele>220.28</ele>
        <time>2020-09-20T08:25:33Z</time>
      </trkpt>
      <trkpt lat="43.43906" lon="-0.52812">
        <ele>220.28</ele>
        <time>2020-09-20T08:25:34Z</time>
      </trkpt>
      <trkpt lat="43.43907" lon="-0.52821">
        <ele>219.32</ele>
        <time>2020-09-20T08:25:35Z</time>
      </trkpt>
      <trkpt lat="43.43908" lon="-0.52829">
        <ele>218.84</ele>
        <time>2020-09-20T08:25:36Z</time>
      </trkpt>
      <trkpt lat="43.4391" lon="-0.52849">
        <ele>215.47</ele>
        <time>2020-09-20T08:25:43Z</time>
      </trkpt>
      <trkpt lat="43.4391" lon="-0.52851">
        <ele>215.47</ele>
        <time>2020-09-20T08:26:03Z</time>
      </trkpt>
      <trkpt lat="43.43908" lon="-0.52878">
        <ele>216.91</ele>
        <time>2020-09-20T08:26:29Z</time>
      </trkpt>
      <trkpt lat="43.43907" lon="-0.52922">
        <ele>212.11</ele>
        <time>2020-09-20T08:26:33Z</time>
      </trkpt>
      <trkpt lat="43.43909" lon="-0.52936">
        <ele>210.19</ele>
        <time>2020-09-20T08:26:34Z</time>
      </trkpt>
      <trkpt lat="43.43913" lon="-0.5295">
        <ele>208.74</ele>
        <time>2020-09-20T08:26:35Z</time>
      </trkpt>
      <trkpt lat="43.43926" lon="-0.52993">
        <ele>203.94</ele>
        <time>2020-09-20T08:26:38Z</time>
      </trkpt>
      <trkpt lat="43.43927" lon="-0.53008">
        <ele>202.01</ele>
        <time>2020-09-20T08:26:39Z</time>
      </trkpt>
      <trkpt lat="43.43925" lon="-0.53024">
        <ele>200.57</ele>
        <time>2020-09-20T08:26:40Z</time>
      </trkpt>
      <trkpt lat="43.43915" lon="-0.53073">
        <ele>194.8</ele>
        <time>2020-09-20T08:26:43Z</time>
      </trkpt>
      <trkpt lat="43.43915" lon="-0.53089">
        <ele>193.84</ele>
        <time>2020-09-20T08:26:44Z</time>
      </trkpt>
      <trkpt lat="43.43917" lon="-0.53103">
        <ele>192.88</ele>
        <time>2020-09-20T08:26:45Z</time>
      </trkpt>
      <trkpt lat="43.4392" lon="-0.53115">
        <ele>191.92</ele>
        <time>2020-09-20T08:26:46Z</time>
      </trkpt>
      <trkpt lat="43.43925" lon="-0.53127">
        <ele>191.44</ele>
        <time>2020-09-20T08:26:47Z</time>
      </trkpt>
      <trkpt lat="43.4393" lon="-0.53138">
        <ele>190.96</ele>
        <time>2020-09-20T08:26:48Z</time>
      </trkpt>
      <trkpt lat="43.43975" lon="-0.53232">
        <ele>189.52</ele>
        <time>2020-09-20T08:26:58Z</time>
      </trkpt>
      <trkpt lat="43.44007" lon="-0.53388">
        <ele>185.19</ele>
        <time>2020-09-20T08:27:11Z</time>
      </trkpt>
      <trkpt lat="43.44027" lon="-0.53497">
        <ele>181.35</ele>
        <time>2020-09-20T08:27:19Z</time>
      </trkpt>
      <trkpt lat="43.4403" lon="-0.53509">
        <ele>181.35</ele>
        <time>2020-09-20T08:27:20Z</time>
      </trkpt>
      <trkpt lat="43.4405" lon="-0.53566">
        <ele>180.87</ele>
        <time>2020-09-20T08:27:26Z</time>
      </trkpt>
      <trkpt lat="43.44066" lon="-0.53651">
        <ele>179.42</ele>
        <time>2020-09-20T08:27:38Z</time>
      </trkpt>
      <trkpt lat="43.44072" lon="-0.53692">
        <ele>177.02</ele>
        <time>2020-09-20T08:27:46Z</time>
      </trkpt>
      <trkpt lat="43.44098" lon="-0.53759">
        <ele>175.58</ele>
        <time>2020-09-20T08:27:59Z</time>
      </trkpt>
      <trkpt lat="43.44131" lon="-0.53845">
        <ele>176.54</ele>
        <time>2020-09-20T08:28:16Z</time>
      </trkpt>
      <trkpt lat="43.44144" lon="-0.53894">
        <ele>176.54</ele>
        <time>2020-09-20T08:28:25Z</time>
      </trkpt>
      <trkpt lat="43.44149" lon="-0.53912">
        <ele>176.54</ele>
        <time>2020-09-20T08:28:28Z</time>
      </trkpt>
      <trkpt lat="43.44152" lon="-0.53924">
        <ele>176.54</ele>
        <time>2020-09-20T08:28:30Z</time>
      </trkpt>
      <trkpt lat="43.44153" lon="-0.5393">
        <ele>176.06</ele>
        <time>2020-09-20T08:28:31Z</time>
      </trkpt>
      <trkpt lat="43.44155" lon="-0.53937">
        <ele>176.54</ele>
        <time>2020-09-20T08:28:32Z</time>
      </trkpt>
      <trkpt lat="43.44156" lon="-0.53943">
        <ele>176.06</ele>
        <time>2020-09-20T08:28:33Z</time>
      </trkpt>
      <trkpt lat="43.44158" lon="-0.53948">
        <ele>176.06</ele>
        <time>2020-09-20T08:28:34Z</time>
      </trkpt>
      <trkpt lat="43.4416" lon="-0.53954">
        <ele>176.06</ele>
        <time>2020-09-20T08:28:35Z</time>
      </trkpt>
      <trkpt lat="43.44162" lon="-0.53959">
        <ele>176.06</ele>
        <time>2020-09-20T08:28:36Z</time>
      </trkpt>
      <trkpt lat="43.44165" lon="-0.53965">
        <ele>176.06</ele>
        <time>2020-09-20T08:28:37Z</time>
      </trkpt>
      <trkpt lat="43.44167" lon="-0.53971">
        <ele>176.06</ele>
        <time>2020-09-20T08:28:38Z</time>
      </trkpt>
      <trkpt lat="43.4417" lon="-0.53976">
        <ele>176.54</ele>
        <time>2020-09-20T08:28:39Z</time>
      </trkpt>
      <trkpt lat="43.44173" lon="-0.53981">
        <ele>177.02</ele>
        <time>2020-09-20T08:28:40Z</time>
      </trkpt>
      <trkpt lat="43.44188" lon="-0.54007">
        <ele>179.9</ele>
        <time>2020-09-20T08:28:49Z</time>
      </trkpt>
      <trkpt lat="43.44188" lon="-0.54012">
        <ele>182.31</ele>
        <time>2020-09-20T08:29:05Z</time>
      </trkpt>
      <trkpt lat="43.44189" lon="-0.54013">
        <ele>181.35</ele>
        <time>2020-09-20T08:29:25Z</time>
      </trkpt>
      <trkpt lat="43.4419" lon="-0.54012">
        <ele>180.87</ele>
        <time>2020-09-20T08:29:48Z</time>
      </trkpt>
      <trkpt lat="43.44199" lon="-0.54024">
        <ele>175.1</ele>
        <time>2020-09-20T08:30:13Z</time>
      </trkpt>
      <trkpt lat="43.44226" lon="-0.54078">
        <ele>179.42</ele>
        <time>2020-09-20T08:30:25Z</time>
      </trkpt>
      <trkpt lat="43.44233" lon="-0.54097">
        <ele>180.38</ele>
        <time>2020-09-20T08:30:28Z</time>
      </trkpt>
      <trkpt lat="43.44234" lon="-0.54104">
        <ele>180.87</ele>
        <time>2020-09-20T08:30:29Z</time>
      </trkpt>
      <trkpt lat="43.44234" lon="-0.54111">
        <ele>180.38</ele>
        <time>2020-09-20T08:30:30Z</time>
      </trkpt>
      <trkpt lat="43.44235" lon="-0.54117">
        <ele>180.38</ele>
        <time>2020-09-20T08:30:31Z</time>
      </trkpt>
      <trkpt lat="43.44235" lon="-0.54124">
        <ele>179.9</ele>
        <time>2020-09-20T08:30:32Z</time>
      </trkpt>
      <trkpt lat="43.44236" lon="-0.54132">
        <ele>179.9</ele>
        <time>2020-09-20T08:30:33Z</time>
      </trkpt>
      <trkpt lat="43.44236" lon="-0.54139">
        <ele>179.42</ele>
        <time>2020-09-20T08:30:34Z</time>
      </trkpt>
      <trkpt lat="43.44243" lon="-0.5424">
        <ele>174.14</ele>
        <time>2020-09-20T08:30:48Z</time>
      </trkpt>
      <trkpt lat="43.44244" lon="-0.54247">
        <ele>174.14</ele>
        <time>2020-09-20T08:30:49Z</time>
      </trkpt>
      <trkpt lat="43.44254" lon="-0.54328">
        <ele>173.17</ele>
        <time>2020-09-20T08:31:01Z</time>
      </trkpt>
      <trkpt lat="43.44256" lon="-0.5434">
        <ele>173.17</ele>
        <time>2020-09-20T08:31:03Z</time>
      </trkpt>
      <trkpt lat="43.44257" lon="-0.54346">
        <ele>173.17</ele>
        <time>2020-09-20T08:31:04Z</time>
      </trkpt>
      <trkpt lat="43.44257" lon="-0.54352">
        <ele>173.17</ele>
        <time>2020-09-20T08:31:05Z</time>
      </trkpt>
      <trkpt lat="43.44259" lon="-0.54365">
        <ele>172.69</ele>
        <time>2020-09-20T08:31:07Z</time>
      </trkpt>
      <trkpt lat="43.44263" lon="-0.54378">
        <ele>172.69</ele>
        <time>2020-09-20T08:31:09Z</time>
      </trkpt>
      <trkpt lat="43.44268" lon="-0.54392">
        <ele>172.21</ele>
        <time>2020-09-20T08:31:11Z</time>
      </trkpt>
      <trkpt lat="43.44299" lon="-0.54482">
        <ele>171.73</ele>
        <time>2020-09-20T08:31:26Z</time>
      </trkpt>
      <trkpt lat="43.44315" lon="-0.54538">
        <ele>173.17</ele>
        <time>2020-09-20T08:31:36Z</time>
      </trkpt>
      <trkpt lat="43.44316" lon="-0.54543">
        <ele>173.17</ele>
        <time>2020-09-20T08:31:37Z</time>
      </trkpt>
      <trkpt lat="43.44315" lon="-0.54548">
        <ele>173.17</ele>
        <time>2020-09-20T08:31:38Z</time>
      </trkpt>
      <trkpt lat="43.44311" lon="-0.5455">
        <ele>173.17</ele>
        <time>2020-09-20T08:31:39Z</time>
      </trkpt>
      <trkpt lat="43.44309" lon="-0.54551">
        <ele>173.66</ele>
        <time>2020-09-20T08:31:40Z</time>
      </trkpt>
      <trkpt lat="43.44306" lon="-0.5455">
        <ele>173.66</ele>
        <time>2020-09-20T08:31:41Z</time>
      </trkpt>
      <trkpt lat="43.44303" lon="-0.54549">
        <ele>173.66</ele>
        <time>2020-09-20T08:31:42Z</time>
      </trkpt>
      <trkpt lat="43.443" lon="-0.54547">
        <ele>174.14</ele>
        <time>2020-09-20T08:31:43Z</time>
      </trkpt>
      <trkpt lat="43.44285" lon="-0.54537">
        <ele>174.14</ele>
        <time>2020-09-20T08:31:54Z</time>
      </trkpt>
      <trkpt lat="43.44285" lon="-0.54537">
        <ele>178.46</ele>
        <time>2020-09-20T08:32:26Z</time>
      </trkpt>
      <trkpt lat="43.44285" lon="-0.54536">
        <ele>179.9</ele>
        <time>2020-09-20T08:32:56Z</time>
      </trkpt>
      <trkpt lat="43.44282" lon="-0.54536">
        <ele>180.38</ele>
        <time>2020-09-20T08:33:29Z</time>
      </trkpt>
      <trkpt lat="43.44283" lon="-0.54537">
        <ele>177.5</ele>
        <time>2020-09-20T08:33:58Z</time>
      </trkpt>
      <trkpt lat="43.44285" lon="-0.54538">
        <ele>178.46</ele>
        <time>2020-09-20T08:34:40Z</time>
      </trkpt>
      <trkpt lat="43.44282" lon="-0.54537">
        <ele>178.94</ele>
        <time>2020-09-20T08:35:11Z</time>
      </trkpt>
      <trkpt lat="43.44282" lon="-0.54537">
        <ele>178.94</ele>
        <time>2020-09-20T08:35:42Z</time>
      </trkpt>
      <trkpt lat="43.44281" lon="-0.54535">
        <ele>180.87</ele>
        <time>2020-09-20T08:36:15Z</time>
      </trkpt>
      <trkpt lat="43.44283" lon="-0.54536">
        <ele>179.42</ele>
        <time>2020-09-20T08:36:45Z</time>
      </trkpt>
      <trkpt lat="43.44284" lon="-0.54534">
        <ele>180.38</ele>
        <time>2020-09-20T08:37:12Z</time>
      </trkpt>
      <trkpt lat="43.44285" lon="-0.54535">
        <ele>180.38</ele>
        <time>2020-09-20T08:37:32Z</time>
      </trkpt>
      <trkpt lat="43.44282" lon="-0.54534">
        <ele>183.27</ele>
        <time>2020-09-20T08:38:01Z</time>
      </trkpt>
      <trkpt lat="43.44282" lon="-0.54535">
        <ele>184.71</ele>
        <time>2020-09-20T08:38:35Z</time>
      </trkpt>
      <trkpt lat="43.44283" lon="-0.54536">
        <ele>180.38</ele>
        <time>2020-09-20T08:39:01Z</time>
      </trkpt>
      <trkpt lat="43.44284" lon="-0.54535">
        <ele>179.42</ele>
        <time>2020-09-20T08:39:27Z</time>
      </trkpt>
      <trkpt lat="43.44282" lon="-0.54535">
        <ele>180.87</ele>
        <time>2020-09-20T08:40:00Z</time>
      </trkpt>
      <trkpt lat="43.44281" lon="-0.54538">
        <ele>178.94</ele>
        <time>2020-09-20T08:40:26Z</time>
      </trkpt>
      <trkpt lat="43.44282" lon="-0.54538">
        <ele>177.98</ele>
        <time>2020-09-20T08:40:59Z</time>
      </trkpt>
      <trkpt lat="43.44284" lon="-0.54538">
        <ele>177.02</ele>
        <time>2020-09-20T08:41:40Z</time>
      </trkpt>
      <trkpt lat="43.44284" lon="-0.54537">
        <ele>177.02</ele>
        <time>2020-09-20T08:42:05Z</time>
      </trkpt>
      <trkpt lat="43.44282" lon="-0.54534">
        <ele>177.02</ele>
        <time>2020-09-20T08:42:36Z</time>
      </trkpt>
      <trkpt lat="43.44281" lon="-0.54536">
        <ele>177.02</ele>
        <time>2020-09-20T08:43:07Z</time>
      </trkpt>
      <trkpt lat="43.44283" lon="-0.54537">
        <ele>177.02</ele>
        <time>2020-09-20T08:43:34Z</time>
      </trkpt>
      <trkpt lat="43.44284" lon="-0.54537">
        <ele>177.02</ele>
        <time>2020-09-20T08:44:10Z</time>
      </trkpt>
      <trkpt lat="43.44284" lon="-0.54536">
        <ele>175.1</ele>
        <time>2020-09-20T08:44:51Z</time>
      </trkpt>
      <trkpt lat="43.44285" lon="-0.54538">
        <ele>175.58</ele>
        <time>2020-09-20T08:45:02Z</time>
      </trkpt>
      <trkpt lat="43.44286" lon="-0.54539">
        <ele>175.58</ele>
        <time>2020-09-20T08:45:24Z</time>
      </trkpt>
      <trkpt lat="43.44285" lon="-0.54539">
        <ele>175.58</ele>
        <time>2020-09-20T08:45:49Z</time>
      </trkpt>
      <trkpt lat="43.44285" lon="-0.5454">
        <ele>175.58</ele>
        <time>2020-09-20T08:45:56Z</time>
      </trkpt>
      <trkpt lat="43.44284" lon="-0.54541">
        <ele>176.06</ele>
        <time>2020-09-20T08:45:57Z</time>
      </trkpt>
      <trkpt lat="43.44282" lon="-0.54542">
        <ele>176.06</ele>
        <time>2020-09-20T08:45:58Z</time>
      </trkpt>
      <trkpt lat="43.44244" lon="-0.54538">
        <ele>175.58</ele>
        <time>2020-09-20T08:46:10Z</time>
      </trkpt>
      <trkpt lat="43.44208" lon="-0.54545">
        <ele>174.62</ele>
        <time>2020-09-20T08:46:25Z</time>
      </trkpt>
      <trkpt lat="43.44169" lon="-0.54565">
        <ele>174.62</ele>
        <time>2020-09-20T08:46:39Z</time>
      </trkpt>
      <trkpt lat="43.44128" lon="-0.54613">
        <ele>175.1</ele>
        <time>2020-09-20T08:46:54Z</time>
      </trkpt>
      <trkpt lat="43.44113" lon="-0.54677">
        <ele>175.1</ele>
        <time>2020-09-20T08:47:07Z</time>
      </trkpt>
      <trkpt lat="43.44105" lon="-0.54724">
        <ele>175.58</ele>
        <time>2020-09-20T08:47:19Z</time>
      </trkpt>
      <trkpt lat="43.44105" lon="-0.54727">
        <ele>176.06</ele>
        <time>2020-09-20T08:47:20Z</time>
      </trkpt>
      <trkpt lat="43.44107" lon="-0.54773">
        <ele>180.87</ele>
        <time>2020-09-20T08:47:33Z</time>
      </trkpt>
      <trkpt lat="43.44114" lon="-0.54819">
        <ele>181.35</ele>
        <time>2020-09-20T08:47:45Z</time>
      </trkpt>
      <trkpt lat="43.44118" lon="-0.54841">
        <ele>180.38</ele>
        <time>2020-09-20T08:47:49Z</time>
      </trkpt>
      <trkpt lat="43.44119" lon="-0.54848">
        <ele>180.38</ele>
        <time>2020-09-20T08:47:50Z</time>
      </trkpt>
      <trkpt lat="43.4413" lon="-0.54879">
        <ele>178.46</ele>
        <time>2020-09-20T08:47:54Z</time>
      </trkpt>
      <trkpt lat="43.44148" lon="-0.54916">
        <ele>177.02</ele>
        <time>2020-09-20T08:47:58Z</time>
      </trkpt>
      <trkpt lat="43.44152" lon="-0.54923">
        <ele>177.02</ele>
        <time>2020-09-20T08:47:59Z</time>
      </trkpt>
      <trkpt lat="43.44156" lon="-0.54929">
        <ele>177.02</ele>
        <time>2020-09-20T08:48:00Z</time>
      </trkpt>
      <trkpt lat="43.44159" lon="-0.54936">
        <ele>177.02</ele>
        <time>2020-09-20T08:48:01Z</time>
      </trkpt>
      <trkpt lat="43.44161" lon="-0.54941">
        <ele>177.5</ele>
        <time>2020-09-20T08:48:02Z</time>
      </trkpt>
      <trkpt lat="43.44181" lon="-0.54994">
        <ele>180.87</ele>
        <time>2020-09-20T08:48:15Z</time>
      </trkpt>
      <trkpt lat="43.44206" lon="-0.5504">
        <ele>181.35</ele>
        <time>2020-09-20T08:48:26Z</time>
      </trkpt>
      <trkpt lat="43.44207" lon="-0.55045">
        <ele>181.35</ele>
        <time>2020-09-20T08:48:27Z</time>
      </trkpt>
      <trkpt lat="43.44221" lon="-0.5511">
        <ele>179.9</ele>
        <time>2020-09-20T08:48:40Z</time>
      </trkpt>
      <trkpt lat="43.4423" lon="-0.55159">
        <ele>180.87</ele>
        <time>2020-09-20T08:48:49Z</time>
      </trkpt>
      <trkpt lat="43.44232" lon="-0.55165">
        <ele>180.87</ele>
        <time>2020-09-20T08:48:50Z</time>
      </trkpt>
      <trkpt lat="43.44235" lon="-0.55172">
        <ele>180.87</ele>
        <time>2020-09-20T08:48:51Z</time>
      </trkpt>
      <trkpt lat="43.44239" lon="-0.55177">
        <ele>180.38</ele>
        <time>2020-09-20T08:48:52Z</time>
      </trkpt>
      <trkpt lat="43.44243" lon="-0.55182">
        <ele>180.38</ele>
        <time>2020-09-20T08:48:53Z</time>
      </trkpt>
      <trkpt lat="43.44248" lon="-0.55187">
        <ele>180.38</ele>
        <time>2020-09-20T08:48:54Z</time>
      </trkpt>
      <trkpt lat="43.44252" lon="-0.55193">
        <ele>179.9</ele>
        <time>2020-09-20T08:48:55Z</time>
      </trkpt>
      <trkpt lat="43.44255" lon="-0.55199">
        <ele>179.9</ele>
        <time>2020-09-20T08:48:56Z</time>
      </trkpt>
      <trkpt lat="43.44257" lon="-0.55206">
        <ele>179.9</ele>
        <time>2020-09-20T08:48:57Z</time>
      </trkpt>
      <trkpt lat="43.44258" lon="-0.55212">
        <ele>179.9</ele>
        <time>2020-09-20T08:48:58Z</time>
      </trkpt>
      <trkpt lat="43.44259" lon="-0.55218">
        <ele>179.9</ele>
        <time>2020-09-20T08:48:59Z</time>
      </trkpt>
      <trkpt lat="43.44259" lon="-0.55223">
        <ele>179.9</ele>
        <time>2020-09-20T08:49:00Z</time>
      </trkpt>
      <trkpt lat="43.44266" lon="-0.55266">
        <ele>182.79</ele>
        <time>2020-09-20T08:49:13Z</time>
      </trkpt>
      <trkpt lat="43.44267" lon="-0.5527">
        <ele>183.27</ele>
        <time>2020-09-20T08:49:15Z</time>
      </trkpt>
      <trkpt lat="43.44268" lon="-0.55272">
        <ele>183.75</ele>
        <time>2020-09-20T08:49:16Z</time>
      </trkpt>
      <trkpt lat="43.44268" lon="-0.55274">
        <ele>183.75</ele>
        <time>2020-09-20T08:49:17Z</time>
      </trkpt>
      <trkpt lat="43.44268" lon="-0.55276">
        <ele>184.23</ele>
        <time>2020-09-20T08:49:18Z</time>
      </trkpt>
      <trkpt lat="43.44269" lon="-0.55278">
        <ele>184.71</ele>
        <time>2020-09-20T08:49:19Z</time>
      </trkpt>
      <trkpt lat="43.44269" lon="-0.5528">
        <ele>184.71</ele>
        <time>2020-09-20T08:49:20Z</time>
      </trkpt>
      <trkpt lat="43.4427" lon="-0.55282">
        <ele>185.19</ele>
        <time>2020-09-20T08:49:21Z</time>
      </trkpt>
      <trkpt lat="43.4427" lon="-0.55284">
        <ele>185.19</ele>
        <time>2020-09-20T08:49:22Z</time>
      </trkpt>
      <trkpt lat="43.44271" lon="-0.5531">
        <ele>187.11</ele>
        <time>2020-09-20T08:49:36Z</time>
      </trkpt>
      <trkpt lat="43.44271" lon="-0.55312">
        <ele>187.59</ele>
        <time>2020-09-20T08:49:37Z</time>
      </trkpt>
      <trkpt lat="43.44271" lon="-0.55314">
        <ele>188.08</ele>
        <time>2020-09-20T08:49:38Z</time>
      </trkpt>
      <trkpt lat="43.44271" lon="-0.55317">
        <ele>188.08</ele>
        <time>2020-09-20T08:49:39Z</time>
      </trkpt>
      <trkpt lat="43.44271" lon="-0.55319">
        <ele>188.56</ele>
        <time>2020-09-20T08:49:40Z</time>
      </trkpt>
      <trkpt lat="43.44271" lon="-0.55321">
        <ele>189.04</ele>
        <time>2020-09-20T08:49:41Z</time>
      </trkpt>
      <trkpt lat="43.44271" lon="-0.55325">
        <ele>189.04</ele>
        <time>2020-09-20T08:49:43Z</time>
      </trkpt>
      <trkpt lat="43.44271" lon="-0.55327">
        <ele>189.04</ele>
        <time>2020-09-20T08:49:44Z</time>
      </trkpt>
      <trkpt lat="43.44271" lon="-0.5533">
        <ele>189.04</ele>
        <time>2020-09-20T08:49:45Z</time>
      </trkpt>
      <trkpt lat="43.44272" lon="-0.55351">
        <ele>190</ele>
        <time>2020-09-20T08:49:56Z</time>
      </trkpt>
      <trkpt lat="43.44272" lon="-0.55354">
        <ele>190.48</ele>
        <time>2020-09-20T08:49:58Z</time>
      </trkpt>
      <trkpt lat="43.44272" lon="-0.55383">
        <ele>193.36</ele>
        <time>2020-09-20T08:50:13Z</time>
      </trkpt>
      <trkpt lat="43.44271" lon="-0.55387">
        <ele>193.36</ele>
        <time>2020-09-20T08:50:15Z</time>
      </trkpt>
      <trkpt lat="43.44271" lon="-0.55389">
        <ele>193.36</ele>
        <time>2020-09-20T08:50:16Z</time>
      </trkpt>
      <trkpt lat="43.4427" lon="-0.55391">
        <ele>193.36</ele>
        <time>2020-09-20T08:50:17Z</time>
      </trkpt>
      <trkpt lat="43.44263" lon="-0.55415">
        <ele>197.69</ele>
        <time>2020-09-20T08:50:32Z</time>
      </trkpt>
      <trkpt lat="43.44266" lon="-0.55429">
        <ele>197.69</ele>
        <time>2020-09-20T08:50:36Z</time>
      </trkpt>
      <trkpt lat="43.44268" lon="-0.55432">
        <ele>197.21</ele>
        <time>2020-09-20T08:50:37Z</time>
      </trkpt>
      <trkpt lat="43.4427" lon="-0.55435">
        <ele>196.73</ele>
        <time>2020-09-20T08:50:38Z</time>
      </trkpt>
      <trkpt lat="43.4429" lon="-0.55464">
        <ele>190.96</ele>
        <time>2020-09-20T08:50:46Z</time>
      </trkpt>
      <trkpt lat="43.44296" lon="-0.55469">
        <ele>190</ele>
        <time>2020-09-20T08:50:47Z</time>
      </trkpt>
      <trkpt lat="43.44303" lon="-0.55474">
        <ele>189.04</ele>
        <time>2020-09-20T08:50:48Z</time>
      </trkpt>
      <trkpt lat="43.44324" lon="-0.55487">
        <ele>185.19</ele>
        <time>2020-09-20T08:50:51Z</time>
      </trkpt>
      <trkpt lat="43.44335" lon="-0.55495">
        <ele>182.79</ele>
        <time>2020-09-20T08:50:53Z</time>
      </trkpt>
      <trkpt lat="43.44339" lon="-0.55496">
        <ele>181.83</ele>
        <time>2020-09-20T08:50:54Z</time>
      </trkpt>
      <trkpt lat="43.44357" lon="-0.55501">
        <ele>178.94</ele>
        <time>2020-09-20T08:50:58Z</time>
      </trkpt>
      <trkpt lat="43.44361" lon="-0.55504">
        <ele>178.46</ele>
        <time>2020-09-20T08:50:59Z</time>
      </trkpt>
      <trkpt lat="43.44365" lon="-0.55509">
        <ele>177.98</ele>
        <time>2020-09-20T08:51:00Z</time>
      </trkpt>
      <trkpt lat="43.44369" lon="-0.55515">
        <ele>177.02</ele>
        <time>2020-09-20T08:51:01Z</time>
      </trkpt>
      <trkpt lat="43.44373" lon="-0.55522">
        <ele>176.54</ele>
        <time>2020-09-20T08:51:02Z</time>
      </trkpt>
      <trkpt lat="43.44377" lon="-0.55529">
        <ele>176.06</ele>
        <time>2020-09-20T08:51:03Z</time>
      </trkpt>
      <trkpt lat="43.44381" lon="-0.55535">
        <ele>175.58</ele>
        <time>2020-09-20T08:51:04Z</time>
      </trkpt>
      <trkpt lat="43.44384" lon="-0.55541">
        <ele>175.1</ele>
        <time>2020-09-20T08:51:05Z</time>
      </trkpt>
      <trkpt lat="43.44407" lon="-0.55573">
        <ele>173.66</ele>
        <time>2020-09-20T08:51:12Z</time>
      </trkpt>
      <trkpt lat="43.44411" lon="-0.55575">
        <ele>173.17</ele>
        <time>2020-09-20T08:51:13Z</time>
      </trkpt>
      <trkpt lat="43.44414" lon="-0.55578">
        <ele>173.17</ele>
        <time>2020-09-20T08:51:14Z</time>
      </trkpt>
      <trkpt lat="43.44418" lon="-0.55582">
        <ele>172.69</ele>
        <time>2020-09-20T08:51:15Z</time>
      </trkpt>
      <trkpt lat="43.44421" lon="-0.55586">
        <ele>172.21</ele>
        <time>2020-09-20T08:51:16Z</time>
      </trkpt>
      <trkpt lat="43.44427" lon="-0.55614">
        <ele>172.69</ele>
        <time>2020-09-20T08:51:24Z</time>
      </trkpt>
      <trkpt lat="43.44449" lon="-0.55644">
        <ele>174.14</ele>
        <time>2020-09-20T08:51:34Z</time>
      </trkpt>
      <trkpt lat="43.44451" lon="-0.55655">
        <ele>174.62</ele>
        <time>2020-09-20T08:51:37Z</time>
      </trkpt>
      <trkpt lat="43.44449" lon="-0.55662">
        <ele>175.58</ele>
        <time>2020-09-20T08:51:40Z</time>
      </trkpt>
      <trkpt lat="43.44431" lon="-0.55687">
        <ele>177.98</ele>
        <time>2020-09-20T08:51:52Z</time>
      </trkpt>
      <trkpt lat="43.44436" lon="-0.55714">
        <ele>176.54</ele>
        <time>2020-09-20T08:51:59Z</time>
      </trkpt>
      <trkpt lat="43.44449" lon="-0.55732">
        <ele>175.58</ele>
        <time>2020-09-20T08:52:02Z</time>
      </trkpt>
      <trkpt lat="43.44452" lon="-0.55736">
        <ele>175.58</ele>
        <time>2020-09-20T08:52:03Z</time>
      </trkpt>
      <trkpt lat="43.44469" lon="-0.55761">
        <ele>177.5</ele>
        <time>2020-09-20T08:52:13Z</time>
      </trkpt>
      <trkpt lat="43.4447" lon="-0.55762">
        <ele>181.83</ele>
        <time>2020-09-20T08:52:37Z</time>
      </trkpt>
      <trkpt lat="43.44474" lon="-0.55769">
        <ele>180.38</ele>
        <time>2020-09-20T08:53:00Z</time>
      </trkpt>
      <trkpt lat="43.44489" lon="-0.55804">
        <ele>181.83</ele>
        <time>2020-09-20T08:53:14Z</time>
      </trkpt>
      <trkpt lat="43.44492" lon="-0.55849">
        <ele>181.35</ele>
        <time>2020-09-20T08:53:29Z</time>
      </trkpt>
      <trkpt lat="43.44495" lon="-0.55898">
        <ele>181.35</ele>
        <time>2020-09-20T08:53:43Z</time>
      </trkpt>
      <trkpt lat="43.44492" lon="-0.55941">
        <ele>182.79</ele>
        <time>2020-09-20T08:53:56Z</time>
      </trkpt>
      <trkpt lat="43.44471" lon="-0.55983">
        <ele>185.67</ele>
        <time>2020-09-20T08:54:09Z</time>
      </trkpt>
      <trkpt lat="43.44441" lon="-0.56019">
        <ele>189.04</ele>
        <time>2020-09-20T08:54:20Z</time>
      </trkpt>
      <trkpt lat="43.44411" lon="-0.56029">
        <ele>191.92</ele>
        <time>2020-09-20T08:54:35Z</time>
      </trkpt>
      <trkpt lat="43.44394" lon="-0.56027">
        <ele>192.88</ele>
        <time>2020-09-20T08:54:46Z</time>
      </trkpt>
      <trkpt lat="43.44364" lon="-0.56017">
        <ele>199.61</ele>
        <time>2020-09-20T08:55:00Z</time>
      </trkpt>
      <trkpt lat="43.44346" lon="-0.55986">
        <ele>202.49</ele>
        <time>2020-09-20T08:55:15Z</time>
      </trkpt>
      <trkpt lat="43.44335" lon="-0.55961">
        <ele>202.49</ele>
        <time>2020-09-20T08:55:29Z</time>
      </trkpt>
      <trkpt lat="43.44324" lon="-0.55936">
        <ele>204.42</ele>
        <time>2020-09-20T08:55:44Z</time>
      </trkpt>
      <trkpt lat="43.44317" lon="-0.55913">
        <ele>206.82</ele>
        <time>2020-09-20T08:55:58Z</time>
      </trkpt>
      <trkpt lat="43.44306" lon="-0.55894">
        <ele>212.11</ele>
        <time>2020-09-20T08:56:11Z</time>
      </trkpt>
      <trkpt lat="43.44291" lon="-0.55872">
        <ele>214.51</ele>
        <time>2020-09-20T08:56:24Z</time>
      </trkpt>
      <trkpt lat="43.44269" lon="-0.55849">
        <ele>214.03</ele>
        <time>2020-09-20T08:56:39Z</time>
      </trkpt>
      <trkpt lat="43.44244" lon="-0.5582">
        <ele>212.11</ele>
        <time>2020-09-20T08:56:55Z</time>
      </trkpt>
      <trkpt lat="43.44216" lon="-0.55794">
        <ele>212.59</ele>
        <time>2020-09-20T08:57:10Z</time>
      </trkpt>
      <trkpt lat="43.44185" lon="-0.55767">
        <ele>216.43</ele>
        <time>2020-09-20T08:57:25Z</time>
      </trkpt>
      <trkpt lat="43.44154" lon="-0.55743">
        <ele>218.36</ele>
        <time>2020-09-20T08:57:39Z</time>
      </trkpt>
      <trkpt lat="43.44133" lon="-0.55702">
        <ele>217.88</ele>
        <time>2020-09-20T08:57:50Z</time>
      </trkpt>
      <trkpt lat="43.44095" lon="-0.5561">
        <ele>215.47</ele>
        <time>2020-09-20T08:58:04Z</time>
      </trkpt>
      <trkpt lat="43.44047" lon="-0.55503">
        <ele>214.03</ele>
        <time>2020-09-20T08:58:21Z</time>
      </trkpt>
      <trkpt lat="43.44018" lon="-0.55459">
        <ele>214.51</ele>
        <time>2020-09-20T08:58:30Z</time>
      </trkpt>
      <trkpt lat="43.44014" lon="-0.55456">
        <ele>214.51</ele>
        <time>2020-09-20T08:58:31Z</time>
      </trkpt>
      <trkpt lat="43.4401" lon="-0.55453">
        <ele>214.51</ele>
        <time>2020-09-20T08:58:32Z</time>
      </trkpt>
      <trkpt lat="43.43956" lon="-0.55429">
        <ele>216.43</ele>
        <time>2020-09-20T08:58:47Z</time>
      </trkpt>
      <trkpt lat="43.43906" lon="-0.55402">
        <ele>218.84</ele>
        <time>2020-09-20T08:59:04Z</time>
      </trkpt>
      <trkpt lat="43.43867" lon="-0.55378">
        <ele>222.2</ele>
        <time>2020-09-20T08:59:19Z</time>
      </trkpt>
      <trkpt lat="43.43865" lon="-0.55381">
        <ele>222.68</ele>
        <time>2020-09-20T08:59:20Z</time>
      </trkpt>
      <trkpt lat="43.43864" lon="-0.55384">
        <ele>222.68</ele>
        <time>2020-09-20T08:59:21Z</time>
      </trkpt>
      <trkpt lat="43.43864" lon="-0.55432">
        <ele>220.28</ele>
        <time>2020-09-20T08:59:31Z</time>
      </trkpt>
      <trkpt lat="43.43867" lon="-0.55489">
        <ele>224.12</ele>
        <time>2020-09-20T08:59:43Z</time>
      </trkpt>
      <trkpt lat="43.43834" lon="-0.55563">
        <ele>228.45</ele>
        <time>2020-09-20T08:59:58Z</time>
      </trkpt>
      <trkpt lat="43.43819" lon="-0.55607">
        <ele>230.37</ele>
        <time>2020-09-20T09:00:06Z</time>
      </trkpt>
      <trkpt lat="43.4381" lon="-0.55687">
        <ele>232.78</ele>
        <time>2020-09-20T09:00:20Z</time>
      </trkpt>
      <trkpt lat="43.43808" lon="-0.55703">
        <ele>232.3</ele>
        <time>2020-09-20T09:00:23Z</time>
      </trkpt>
      <trkpt lat="43.43798" lon="-0.55769">
        <ele>229.41</ele>
        <time>2020-09-20T09:00:34Z</time>
      </trkpt>
      <trkpt lat="43.43792" lon="-0.55781">
        <ele>228.93</ele>
        <time>2020-09-20T09:00:36Z</time>
      </trkpt>
      <trkpt lat="43.43788" lon="-0.55787">
        <ele>228.93</ele>
        <time>2020-09-20T09:00:37Z</time>
      </trkpt>
      <trkpt lat="43.43727" lon="-0.55853">
        <ele>224.61</ele>
        <time>2020-09-20T09:00:48Z</time>
      </trkpt>
      <trkpt lat="43.43715" lon="-0.55864">
        <ele>223.16</ele>
        <time>2020-09-20T09:00:50Z</time>
      </trkpt>
      <trkpt lat="43.43709" lon="-0.55868">
        <ele>222.2</ele>
        <time>2020-09-20T09:00:51Z</time>
      </trkpt>
      <trkpt lat="43.43703" lon="-0.55869">
        <ele>221.72</ele>
        <time>2020-09-20T09:00:52Z</time>
      </trkpt>
      <trkpt lat="43.43697" lon="-0.55869">
        <ele>221.24</ele>
        <time>2020-09-20T09:00:53Z</time>
      </trkpt>
      <trkpt lat="43.43691" lon="-0.55866">
        <ele>220.76</ele>
        <time>2020-09-20T09:00:54Z</time>
      </trkpt>
      <trkpt lat="43.43686" lon="-0.55862">
        <ele>220.28</ele>
        <time>2020-09-20T09:00:55Z</time>
      </trkpt>
      <trkpt lat="43.43681" lon="-0.55857">
        <ele>219.32</ele>
        <time>2020-09-20T09:00:56Z</time>
      </trkpt>
      <trkpt lat="43.43675" lon="-0.55851">
        <ele>218.84</ele>
        <time>2020-09-20T09:00:57Z</time>
      </trkpt>
      <trkpt lat="43.43664" lon="-0.55838">
        <ele>217.88</ele>
        <time>2020-09-20T09:00:59Z</time>
      </trkpt>
      <trkpt lat="43.43652" lon="-0.55827">
        <ele>216.91</ele>
        <time>2020-09-20T09:01:01Z</time>
      </trkpt>
      <trkpt lat="43.43632" lon="-0.55807">
        <ele>214.51</ele>
        <time>2020-09-20T09:01:04Z</time>
      </trkpt>
      <trkpt lat="43.43626" lon="-0.558">
        <ele>214.03</ele>
        <time>2020-09-20T09:01:05Z</time>
      </trkpt>
      <trkpt lat="43.43619" lon="-0.55792">
        <ele>213.07</ele>
        <time>2020-09-20T09:01:06Z</time>
      </trkpt>
      <trkpt lat="43.43582" lon="-0.55758">
        <ele>209.22</ele>
        <time>2020-09-20T09:01:12Z</time>
      </trkpt>
      <trkpt lat="43.43579" lon="-0.55752">
        <ele>208.74</ele>
        <time>2020-09-20T09:01:13Z</time>
      </trkpt>
      <trkpt lat="43.43575" lon="-0.55748">
        <ele>208.26</ele>
        <time>2020-09-20T09:01:14Z</time>
      </trkpt>
      <trkpt lat="43.43572" lon="-0.55747">
        <ele>208.26</ele>
        <time>2020-09-20T09:01:15Z</time>
      </trkpt>
      <trkpt lat="43.4357" lon="-0.55749">
        <ele>207.78</ele>
        <time>2020-09-20T09:01:16Z</time>
      </trkpt>
      <trkpt lat="43.43568" lon="-0.55752">
        <ele>207.78</ele>
        <time>2020-09-20T09:01:17Z</time>
      </trkpt>
      <trkpt lat="43.43567" lon="-0.55756">
        <ele>207.78</ele>
        <time>2020-09-20T09:01:18Z</time>
      </trkpt>
      <trkpt lat="43.43567" lon="-0.55759">
        <ele>207.78</ele>
        <time>2020-09-20T09:01:19Z</time>
      </trkpt>
      <trkpt lat="43.43567" lon="-0.55762">
        <ele>207.78</ele>
        <time>2020-09-20T09:01:20Z</time>
      </trkpt>
      <trkpt lat="43.43569" lon="-0.55802">
        <ele>209.22</ele>
        <time>2020-09-20T09:01:33Z</time>
      </trkpt>
      <trkpt lat="43.43567" lon="-0.55841">
        <ele>215.47</ele>
        <time>2020-09-20T09:01:46Z</time>
      </trkpt>
      <trkpt lat="43.43558" lon="-0.55872">
        <ele>219.8</ele>
        <time>2020-09-20T09:01:56Z</time>
      </trkpt>
      <trkpt lat="43.43557" lon="-0.55875">
        <ele>220.28</ele>
        <time>2020-09-20T09:01:57Z</time>
      </trkpt>
      <trkpt lat="43.43553" lon="-0.55927">
        <ele>218.84</ele>
        <time>2020-09-20T09:02:06Z</time>
      </trkpt>
      <trkpt lat="43.43584" lon="-0.56018">
        <ele>213.07</ele>
        <time>2020-09-20T09:02:17Z</time>
      </trkpt>
      <trkpt lat="43.43592" lon="-0.56035">
        <ele>212.59</ele>
        <time>2020-09-20T09:02:19Z</time>
      </trkpt>
      <trkpt lat="43.43596" lon="-0.56043">
        <ele>212.11</ele>
        <time>2020-09-20T09:02:20Z</time>
      </trkpt>
      <trkpt lat="43.43601" lon="-0.5605">
        <ele>211.63</ele>
        <time>2020-09-20T09:02:21Z</time>
      </trkpt>
      <trkpt lat="43.43611" lon="-0.56062">
        <ele>211.15</ele>
        <time>2020-09-20T09:02:23Z</time>
      </trkpt>
      <trkpt lat="43.43648" lon="-0.56117">
        <ele>209.22</ele>
        <time>2020-09-20T09:02:31Z</time>
      </trkpt>
      <trkpt lat="43.43664" lon="-0.56148">
        <ele>209.22</ele>
        <time>2020-09-20T09:02:35Z</time>
      </trkpt>
      <trkpt lat="43.43675" lon="-0.56167">
        <ele>209.7</ele>
        <time>2020-09-20T09:02:38Z</time>
      </trkpt>
      <trkpt lat="43.43712" lon="-0.56238">
        <ele>215.95</ele>
        <time>2020-09-20T09:02:50Z</time>
      </trkpt>
      <trkpt lat="43.43717" lon="-0.56248">
        <ele>216.43</ele>
        <time>2020-09-20T09:02:52Z</time>
      </trkpt>
      <trkpt lat="43.43725" lon="-0.56264">
        <ele>216.91</ele>
        <time>2020-09-20T09:02:55Z</time>
      </trkpt>
      <trkpt lat="43.43728" lon="-0.56268">
        <ele>216.91</ele>
        <time>2020-09-20T09:02:56Z</time>
      </trkpt>
      <trkpt lat="43.4373" lon="-0.56272">
        <ele>216.91</ele>
        <time>2020-09-20T09:02:57Z</time>
      </trkpt>
      <trkpt lat="43.43755" lon="-0.56309">
        <ele>218.84</ele>
        <time>2020-09-20T09:03:09Z</time>
      </trkpt>
      <trkpt lat="43.43771" lon="-0.56336">
        <ele>219.32</ele>
        <time>2020-09-20T09:03:21Z</time>
      </trkpt>
      <trkpt lat="43.43786" lon="-0.5637">
        <ele>221.72</ele>
        <time>2020-09-20T09:03:32Z</time>
      </trkpt>
      <trkpt lat="43.43803" lon="-0.56399">
        <ele>224.61</ele>
        <time>2020-09-20T09:03:43Z</time>
      </trkpt>
      <trkpt lat="43.43824" lon="-0.5646">
        <ele>224.61</ele>
        <time>2020-09-20T09:03:56Z</time>
      </trkpt>
      <trkpt lat="43.43843" lon="-0.56513">
        <ele>224.61</ele>
        <time>2020-09-20T09:04:09Z</time>
      </trkpt>
      <trkpt lat="43.43856" lon="-0.56552">
        <ele>225.57</ele>
        <time>2020-09-20T09:04:21Z</time>
      </trkpt>
      <trkpt lat="43.43876" lon="-0.56611">
        <ele>227.49</ele>
        <time>2020-09-20T09:04:33Z</time>
      </trkpt>
      <trkpt lat="43.43902" lon="-0.5668">
        <ele>226.53</ele>
        <time>2020-09-20T09:04:42Z</time>
      </trkpt>
      <trkpt lat="43.43905" lon="-0.56689">
        <ele>226.53</ele>
        <time>2020-09-20T09:04:43Z</time>
      </trkpt>
      <trkpt lat="43.43925" lon="-0.56745">
        <ele>224.61</ele>
        <time>2020-09-20T09:04:49Z</time>
      </trkpt>
      <trkpt lat="43.43929" lon="-0.5676">
        <ele>222.68</ele>
        <time>2020-09-20T09:04:51Z</time>
      </trkpt>
      <trkpt lat="43.43931" lon="-0.56768">
        <ele>222.2</ele>
        <time>2020-09-20T09:04:52Z</time>
      </trkpt>
      <trkpt lat="43.43934" lon="-0.56776">
        <ele>221.24</ele>
        <time>2020-09-20T09:04:53Z</time>
      </trkpt>
      <trkpt lat="43.43937" lon="-0.56782">
        <ele>220.76</ele>
        <time>2020-09-20T09:04:54Z</time>
      </trkpt>
      <trkpt lat="43.4394" lon="-0.56789">
        <ele>219.8</ele>
        <time>2020-09-20T09:04:55Z</time>
      </trkpt>
      <trkpt lat="43.43944" lon="-0.56795">
        <ele>219.32</ele>
        <time>2020-09-20T09:04:56Z</time>
      </trkpt>
      <trkpt lat="43.43947" lon="-0.56803">
        <ele>218.36</ele>
        <time>2020-09-20T09:04:57Z</time>
      </trkpt>
      <trkpt lat="43.4395" lon="-0.56811">
        <ele>217.4</ele>
        <time>2020-09-20T09:04:58Z</time>
      </trkpt>
      <trkpt lat="43.43953" lon="-0.56819">
        <ele>216.43</ele>
        <time>2020-09-20T09:04:59Z</time>
      </trkpt>
      <trkpt lat="43.43955" lon="-0.56826">
        <ele>215.47</ele>
        <time>2020-09-20T09:05:00Z</time>
      </trkpt>
      <trkpt lat="43.43958" lon="-0.56833">
        <ele>214.51</ele>
        <time>2020-09-20T09:05:01Z</time>
      </trkpt>
      <trkpt lat="43.43959" lon="-0.56839">
        <ele>213.55</ele>
        <time>2020-09-20T09:05:02Z</time>
      </trkpt>
      <trkpt lat="43.4396" lon="-0.56844">
        <ele>213.07</ele>
        <time>2020-09-20T09:05:03Z</time>
      </trkpt>
      <trkpt lat="43.43959" lon="-0.56849">
        <ele>212.11</ele>
        <time>2020-09-20T09:05:04Z</time>
      </trkpt>
      <trkpt lat="43.43955" lon="-0.56852">
        <ele>210.67</ele>
        <time>2020-09-20T09:05:05Z</time>
      </trkpt>
      <trkpt lat="43.43951" lon="-0.56856">
        <ele>209.22</ele>
        <time>2020-09-20T09:05:06Z</time>
      </trkpt>
      <trkpt lat="43.43946" lon="-0.5686">
        <ele>208.26</ele>
        <time>2020-09-20T09:05:07Z</time>
      </trkpt>
      <trkpt lat="43.43941" lon="-0.56866">
        <ele>206.82</ele>
        <time>2020-09-20T09:05:08Z</time>
      </trkpt>
      <trkpt lat="43.43936" lon="-0.56873">
        <ele>205.38</ele>
        <time>2020-09-20T09:05:09Z</time>
      </trkpt>
      <trkpt lat="43.4393" lon="-0.56879">
        <ele>204.42</ele>
        <time>2020-09-20T09:05:10Z</time>
      </trkpt>
      <trkpt lat="43.43925" lon="-0.56886">
        <ele>202.98</ele>
        <time>2020-09-20T09:05:11Z</time>
      </trkpt>
      <trkpt lat="43.4392" lon="-0.56893">
        <ele>202.01</ele>
        <time>2020-09-20T09:05:12Z</time>
      </trkpt>
      <trkpt lat="43.43911" lon="-0.56908">
        <ele>198.17</ele>
        <time>2020-09-20T09:05:15Z</time>
      </trkpt>
      <trkpt lat="43.43911" lon="-0.56914">
        <ele>196.73</ele>
        <time>2020-09-20T09:05:16Z</time>
      </trkpt>
      <trkpt lat="43.43911" lon="-0.5692">
        <ele>195.77</ele>
        <time>2020-09-20T09:05:17Z</time>
      </trkpt>
      <trkpt lat="43.43911" lon="-0.56925">
        <ele>194.32</ele>
        <time>2020-09-20T09:05:18Z</time>
      </trkpt>
      <trkpt lat="43.43909" lon="-0.5693">
        <ele>192.88</ele>
        <time>2020-09-20T09:05:19Z</time>
      </trkpt>
      <trkpt lat="43.43906" lon="-0.56933">
        <ele>191.92</ele>
        <time>2020-09-20T09:05:20Z</time>
      </trkpt>
      <trkpt lat="43.43895" lon="-0.56935">
        <ele>188.08</ele>
        <time>2020-09-20T09:05:23Z</time>
      </trkpt>
      <trkpt lat="43.43894" lon="-0.56935">
        <ele>185.67</ele>
        <time>2020-09-20T09:05:32Z</time>
      </trkpt>
      <trkpt lat="43.43878" lon="-0.56933">
        <ele>188.56</ele>
        <time>2020-09-20T09:05:45Z</time>
      </trkpt>
      <trkpt lat="43.43874" lon="-0.56932">
        <ele>188.56</ele>
        <time>2020-09-20T09:05:46Z</time>
      </trkpt>
      <trkpt lat="43.43864" lon="-0.56929">
        <ele>188.56</ele>
        <time>2020-09-20T09:05:48Z</time>
      </trkpt>
      <trkpt lat="43.43843" lon="-0.56926">
        <ele>188.08</ele>
        <time>2020-09-20T09:05:51Z</time>
      </trkpt>
      <trkpt lat="43.43836" lon="-0.56923">
        <ele>188.08</ele>
        <time>2020-09-20T09:05:52Z</time>
      </trkpt>
      <trkpt lat="43.43829" lon="-0.56917">
        <ele>188.56</ele>
        <time>2020-09-20T09:05:53Z</time>
      </trkpt>
      <trkpt lat="43.43823" lon="-0.56911">
        <ele>188.56</ele>
        <time>2020-09-20T09:05:54Z</time>
      </trkpt>
      <trkpt lat="43.43817" lon="-0.56903">
        <ele>188.08</ele>
        <time>2020-09-20T09:05:55Z</time>
      </trkpt>
      <trkpt lat="43.43812" lon="-0.56895">
        <ele>188.08</ele>
        <time>2020-09-20T09:05:56Z</time>
      </trkpt>
      <trkpt lat="43.43792" lon="-0.56859">
        <ele>186.63</ele>
        <time>2020-09-20T09:06:00Z</time>
      </trkpt>
      <trkpt lat="43.43789" lon="-0.56851">
        <ele>186.15</ele>
        <time>2020-09-20T09:06:01Z</time>
      </trkpt>
      <trkpt lat="43.43785" lon="-0.56845">
        <ele>185.67</ele>
        <time>2020-09-20T09:06:02Z</time>
      </trkpt>
      <trkpt lat="43.43779" lon="-0.56841">
        <ele>185.19</ele>
        <time>2020-09-20T09:06:03Z</time>
      </trkpt>
      <trkpt lat="43.43772" lon="-0.5684">
        <ele>185.19</ele>
        <time>2020-09-20T09:06:04Z</time>
      </trkpt>
      <trkpt lat="43.43765" lon="-0.5684">
        <ele>184.71</ele>
        <time>2020-09-20T09:06:05Z</time>
      </trkpt>
      <trkpt lat="43.43757" lon="-0.5684">
        <ele>184.23</ele>
        <time>2020-09-20T09:06:06Z</time>
      </trkpt>
      <trkpt lat="43.43749" lon="-0.56839">
        <ele>183.75</ele>
        <time>2020-09-20T09:06:07Z</time>
      </trkpt>
      <trkpt lat="43.43739" lon="-0.56838">
        <ele>183.27</ele>
        <time>2020-09-20T09:06:08Z</time>
      </trkpt>
      <trkpt lat="43.43721" lon="-0.56836">
        <ele>182.31</ele>
        <time>2020-09-20T09:06:10Z</time>
      </trkpt>
      <trkpt lat="43.43711" lon="-0.56832">
        <ele>181.83</ele>
        <time>2020-09-20T09:06:11Z</time>
      </trkpt>
      <trkpt lat="43.43703" lon="-0.56828">
        <ele>180.87</ele>
        <time>2020-09-20T09:06:12Z</time>
      </trkpt>
      <trkpt lat="43.43676" lon="-0.5681">
        <ele>178.46</ele>
        <time>2020-09-20T09:06:16Z</time>
      </trkpt>
      <trkpt lat="43.43672" lon="-0.56809">
        <ele>177.5</ele>
        <time>2020-09-20T09:06:17Z</time>
      </trkpt>
      <trkpt lat="43.43669" lon="-0.56809">
        <ele>177.02</ele>
        <time>2020-09-20T09:06:18Z</time>
      </trkpt>
      <trkpt lat="43.43666" lon="-0.56809">
        <ele>175.58</ele>
        <time>2020-09-20T09:06:29Z</time>
      </trkpt>
      <trkpt lat="43.43669" lon="-0.56807">
        <ele>171.25</ele>
        <time>2020-09-20T09:06:54Z</time>
      </trkpt>
      <trkpt lat="43.43669" lon="-0.56809">
        <ele>171.25</ele>
        <time>2020-09-20T09:06:55Z</time>
      </trkpt>
      <trkpt lat="43.4367" lon="-0.56812">
        <ele>171.25</ele>
        <time>2020-09-20T09:06:56Z</time>
      </trkpt>
      <trkpt lat="43.43671" lon="-0.56815">
        <ele>170.77</ele>
        <time>2020-09-20T09:06:57Z</time>
      </trkpt>
      <trkpt lat="43.43672" lon="-0.56818">
        <ele>170.29</ele>
        <time>2020-09-20T09:06:58Z</time>
      </trkpt>
      <trkpt lat="43.43674" lon="-0.56823">
        <ele>169.33</ele>
        <time>2020-09-20T09:06:59Z</time>
      </trkpt>
      <trkpt lat="43.43675" lon="-0.56828">
        <ele>168.85</ele>
        <time>2020-09-20T09:07:00Z</time>
      </trkpt>
      <trkpt lat="43.43678" lon="-0.56833">
        <ele>167.89</ele>
        <time>2020-09-20T09:07:01Z</time>
      </trkpt>
      <trkpt lat="43.43684" lon="-0.5685">
        <ele>165.96</ele>
        <time>2020-09-20T09:07:04Z</time>
      </trkpt>
      <trkpt lat="43.43687" lon="-0.56856">
        <ele>165.48</ele>
        <time>2020-09-20T09:07:05Z</time>
      </trkpt>
      <trkpt lat="43.43696" lon="-0.56877">
        <ele>164.52</ele>
        <time>2020-09-20T09:07:08Z</time>
      </trkpt>
      <trkpt lat="43.43698" lon="-0.56884">
        <ele>164.04</ele>
        <time>2020-09-20T09:07:09Z</time>
      </trkpt>
      <trkpt lat="43.437" lon="-0.56892">
        <ele>164.04</ele>
        <time>2020-09-20T09:07:10Z</time>
      </trkpt>
      <trkpt lat="43.43702" lon="-0.569">
        <ele>163.56</ele>
        <time>2020-09-20T09:07:11Z</time>
      </trkpt>
      <trkpt lat="43.43704" lon="-0.56907">
        <ele>163.56</ele>
        <time>2020-09-20T09:07:12Z</time>
      </trkpt>
      <trkpt lat="43.43705" lon="-0.56915">
        <ele>163.08</ele>
        <time>2020-09-20T09:07:13Z</time>
      </trkpt>
      <trkpt lat="43.43707" lon="-0.56936">
        <ele>163.56</ele>
        <time>2020-09-20T09:07:16Z</time>
      </trkpt>
      <trkpt lat="43.43708" lon="-0.56949">
        <ele>163.56</ele>
        <time>2020-09-20T09:07:18Z</time>
      </trkpt>
      <trkpt lat="43.43709" lon="-0.56963">
        <ele>163.56</ele>
        <time>2020-09-20T09:07:20Z</time>
      </trkpt>
      <trkpt lat="43.43711" lon="-0.57028">
        <ele>162.12</ele>
        <time>2020-09-20T09:07:28Z</time>
      </trkpt>
      <trkpt lat="43.43714" lon="-0.57046">
        <ele>161.16</ele>
        <time>2020-09-20T09:07:30Z</time>
      </trkpt>
      <trkpt lat="43.43716" lon="-0.57054">
        <ele>160.68</ele>
        <time>2020-09-20T09:07:31Z</time>
      </trkpt>
      <trkpt lat="43.43719" lon="-0.57062">
        <ele>160.2</ele>
        <time>2020-09-20T09:07:32Z</time>
      </trkpt>
      <trkpt lat="43.43722" lon="-0.57069">
        <ele>159.24</ele>
        <time>2020-09-20T09:07:33Z</time>
      </trkpt>
      <trkpt lat="43.43725" lon="-0.57076">
        <ele>158.75</ele>
        <time>2020-09-20T09:07:34Z</time>
      </trkpt>
      <trkpt lat="43.43742" lon="-0.57111">
        <ele>156.83</ele>
        <time>2020-09-20T09:07:40Z</time>
      </trkpt>
      <trkpt lat="43.43743" lon="-0.57118">
        <ele>156.35</ele>
        <time>2020-09-20T09:07:41Z</time>
      </trkpt>
      <trkpt lat="43.43744" lon="-0.57123">
        <ele>155.87</ele>
        <time>2020-09-20T09:07:42Z</time>
      </trkpt>
      <trkpt lat="43.43746" lon="-0.57128">
        <ele>155.39</ele>
        <time>2020-09-20T09:07:43Z</time>
      </trkpt>
      <trkpt lat="43.43747" lon="-0.57133">
        <ele>155.39</ele>
        <time>2020-09-20T09:07:44Z</time>
      </trkpt>
      <trkpt lat="43.43758" lon="-0.57169">
        <ele>150.58</ele>
        <time>2020-09-20T09:07:54Z</time>
      </trkpt>
      <trkpt lat="43.43764" lon="-0.57179">
        <ele>149.62</ele>
        <time>2020-09-20T09:07:56Z</time>
      </trkpt>
      <trkpt lat="43.43768" lon="-0.57184">
        <ele>149.14</ele>
        <time>2020-09-20T09:07:57Z</time>
      </trkpt>
      <trkpt lat="43.4381" lon="-0.57239">
        <ele>144.34</ele>
        <time>2020-09-20T09:08:08Z</time>
      </trkpt>
      <trkpt lat="43.43853" lon="-0.57323">
        <ele>142.41</ele>
        <time>2020-09-20T09:08:22Z</time>
      </trkpt>
      <trkpt lat="43.43866" lon="-0.5737">
        <ele>140.97</ele>
        <time>2020-09-20T09:08:31Z</time>
      </trkpt>
      <trkpt lat="43.43864" lon="-0.57374">
        <ele>140.97</ele>
        <time>2020-09-20T09:08:32Z</time>
      </trkpt>
      <trkpt lat="43.4386" lon="-0.57378">
        <ele>140.01</ele>
        <time>2020-09-20T09:08:33Z</time>
      </trkpt>
      <trkpt lat="43.43806" lon="-0.57449">
        <ele>134.24</ele>
        <time>2020-09-20T09:08:43Z</time>
      </trkpt>
      <trkpt lat="43.43759" lon="-0.57569">
        <ele>130.4</ele>
        <time>2020-09-20T09:08:55Z</time>
      </trkpt>
      <trkpt lat="43.43723" lon="-0.57666">
        <ele>129.43</ele>
        <time>2020-09-20T09:09:05Z</time>
      </trkpt>
      <trkpt lat="43.43723" lon="-0.57677">
        <ele>128.95</ele>
        <time>2020-09-20T09:09:06Z</time>
      </trkpt>
      <trkpt lat="43.43724" lon="-0.57687">
        <ele>128.47</ele>
        <time>2020-09-20T09:09:07Z</time>
      </trkpt>
      <trkpt lat="43.43726" lon="-0.57698">
        <ele>128.47</ele>
        <time>2020-09-20T09:09:08Z</time>
      </trkpt>
      <trkpt lat="43.43729" lon="-0.57709">
        <ele>127.99</ele>
        <time>2020-09-20T09:09:09Z</time>
      </trkpt>
      <trkpt lat="43.43747" lon="-0.57766">
        <ele>127.51</ele>
        <time>2020-09-20T09:09:14Z</time>
      </trkpt>
      <trkpt lat="43.43788" lon="-0.5787">
        <ele>127.51</ele>
        <time>2020-09-20T09:09:24Z</time>
      </trkpt>
      <trkpt lat="43.43788" lon="-0.57881">
        <ele>127.51</ele>
        <time>2020-09-20T09:09:25Z</time>
      </trkpt>
      <trkpt lat="43.43789" lon="-0.57892">
        <ele>127.51</ele>
        <time>2020-09-20T09:09:26Z</time>
      </trkpt>
      <trkpt lat="43.4379" lon="-0.57922">
        <ele>127.51</ele>
        <time>2020-09-20T09:09:29Z</time>
      </trkpt>
      <trkpt lat="43.43792" lon="-0.57931">
        <ele>127.51</ele>
        <time>2020-09-20T09:09:30Z</time>
      </trkpt>
      <trkpt lat="43.43795" lon="-0.57939">
        <ele>127.51</ele>
        <time>2020-09-20T09:09:31Z</time>
      </trkpt>
      <trkpt lat="43.43798" lon="-0.57946">
        <ele>127.99</ele>
        <time>2020-09-20T09:09:32Z</time>
      </trkpt>
      <trkpt lat="43.43801" lon="-0.57954">
        <ele>127.99</ele>
        <time>2020-09-20T09:09:33Z</time>
      </trkpt>
      <trkpt lat="43.43816" lon="-0.57986">
        <ele>127.99</ele>
        <time>2020-09-20T09:09:38Z</time>
      </trkpt>
      <trkpt lat="43.43861" lon="-0.58087">
        <ele>128.47</ele>
        <time>2020-09-20T09:09:53Z</time>
      </trkpt>
      <trkpt lat="43.43912" lon="-0.58201">
        <ele>127.99</ele>
        <time>2020-09-20T09:10:08Z</time>
      </trkpt>
      <trkpt lat="43.43956" lon="-0.58301">
        <ele>128.95</ele>
        <time>2020-09-20T09:10:22Z</time>
      </trkpt>
      <trkpt lat="43.43968" lon="-0.58341">
        <ele>130.88</ele>
        <time>2020-09-20T09:10:32Z</time>
      </trkpt>
      <trkpt lat="43.43952" lon="-0.58371">
        <ele>130.88</ele>
        <time>2020-09-20T09:10:42Z</time>
      </trkpt>
      <trkpt lat="43.43896" lon="-0.58414">
        <ele>128.95</ele>
        <time>2020-09-20T09:10:57Z</time>
      </trkpt>
      <trkpt lat="43.43848" lon="-0.58456">
        <ele>128.95</ele>
        <time>2020-09-20T09:11:11Z</time>
      </trkpt>
      <trkpt lat="43.43815" lon="-0.58497">
        <ele>127.99</ele>
        <time>2020-09-20T09:11:22Z</time>
      </trkpt>
      <trkpt lat="43.43799" lon="-0.58517">
        <ele>127.99</ele>
        <time>2020-09-20T09:11:29Z</time>
      </trkpt>
      <trkpt lat="43.43796" lon="-0.58516">
        <ele>127.99</ele>
        <time>2020-09-20T09:11:30Z</time>
      </trkpt>
      <trkpt lat="43.43787" lon="-0.58512">
        <ele>127.03</ele>
        <time>2020-09-20T09:11:32Z</time>
      </trkpt>
      <trkpt lat="43.4373" lon="-0.58485">
        <ele>125.11</ele>
        <time>2020-09-20T09:11:47Z</time>
      </trkpt>
      <trkpt lat="43.43674" lon="-0.58456">
        <ele>124.15</ele>
        <time>2020-09-20T09:11:58Z</time>
      </trkpt>
      <trkpt lat="43.43669" lon="-0.58454">
        <ele>124.15</ele>
        <time>2020-09-20T09:11:59Z</time>
      </trkpt>
      <trkpt lat="43.43663" lon="-0.58452">
        <ele>124.15</ele>
        <time>2020-09-20T09:12:00Z</time>
      </trkpt>
      <trkpt lat="43.43548" lon="-0.58397">
        <ele>122.22</ele>
        <time>2020-09-20T09:12:20Z</time>
      </trkpt>
      <trkpt lat="43.43457" lon="-0.58354">
        <ele>122.22</ele>
        <time>2020-09-20T09:12:37Z</time>
      </trkpt>
      <trkpt lat="43.43388" lon="-0.58326">
        <ele>122.22</ele>
        <time>2020-09-20T09:12:50Z</time>
      </trkpt>
      <trkpt lat="43.43364" lon="-0.5832">
        <ele>122.71</ele>
        <time>2020-09-20T09:12:55Z</time>
      </trkpt>
      <trkpt lat="43.43361" lon="-0.58319">
        <ele>123.19</ele>
        <time>2020-09-20T09:12:56Z</time>
      </trkpt>
      <trkpt lat="43.43357" lon="-0.58317">
        <ele>123.19</ele>
        <time>2020-09-20T09:12:57Z</time>
      </trkpt>
      <trkpt lat="43.43327" lon="-0.58284">
        <ele>126.55</ele>
        <time>2020-09-20T09:13:09Z</time>
      </trkpt>
      <trkpt lat="43.43302" lon="-0.58244">
        <ele>130.88</ele>
        <time>2020-09-20T09:13:24Z</time>
      </trkpt>
      <trkpt lat="43.43286" lon="-0.58215">
        <ele>138.09</ele>
        <time>2020-09-20T09:13:39Z</time>
      </trkpt>
      <trkpt lat="43.43274" lon="-0.58188">
        <ele>144.82</ele>
        <time>2020-09-20T09:13:53Z</time>
      </trkpt>
      <trkpt lat="43.43256" lon="-0.5817">
        <ele>149.14</ele>
        <time>2020-09-20T09:14:09Z</time>
      </trkpt>
      <trkpt lat="43.43242" lon="-0.58171">
        <ele>151.06</ele>
        <time>2020-09-20T09:14:22Z</time>
      </trkpt>
      <trkpt lat="43.43228" lon="-0.58178">
        <ele>152.99</ele>
        <time>2020-09-20T09:14:35Z</time>
      </trkpt>
      <trkpt lat="43.43224" lon="-0.58185">
        <ele>153.47</ele>
        <time>2020-09-20T09:14:40Z</time>
      </trkpt>
      <trkpt lat="43.43224" lon="-0.58186">
        <ele>153.47</ele>
        <time>2020-09-20T09:14:41Z</time>
      </trkpt>
      <trkpt lat="43.43224" lon="-0.58188">
        <ele>153.47</ele>
        <time>2020-09-20T09:14:42Z</time>
      </trkpt>
      <trkpt lat="43.43222" lon="-0.582">
        <ele>154.43</ele>
        <time>2020-09-20T09:14:50Z</time>
      </trkpt>
      <trkpt lat="43.43221" lon="-0.58202">
        <ele>154.43</ele>
        <time>2020-09-20T09:14:51Z</time>
      </trkpt>
      <trkpt lat="43.43203" lon="-0.58218">
        <ele>155.39</ele>
        <time>2020-09-20T09:15:06Z</time>
      </trkpt>
      <trkpt lat="43.43184" lon="-0.58216">
        <ele>156.83</ele>
        <time>2020-09-20T09:15:18Z</time>
      </trkpt>
      <trkpt lat="43.43154" lon="-0.58208">
        <ele>157.31</ele>
        <time>2020-09-20T09:15:33Z</time>
      </trkpt>
      <trkpt lat="43.43127" lon="-0.58229">
        <ele>157.79</ele>
        <time>2020-09-20T09:15:48Z</time>
      </trkpt>
      <trkpt lat="43.43099" lon="-0.58242">
        <ele>160.2</ele>
        <time>2020-09-20T09:16:04Z</time>
      </trkpt>
      <trkpt lat="43.43085" lon="-0.58236">
        <ele>160.2</ele>
        <time>2020-09-20T09:16:12Z</time>
      </trkpt>
      <trkpt lat="43.43085" lon="-0.58234">
        <ele>160.2</ele>
        <time>2020-09-20T09:16:13Z</time>
      </trkpt>
      <trkpt lat="43.43084" lon="-0.58232">
        <ele>160.2</ele>
        <time>2020-09-20T09:16:14Z</time>
      </trkpt>
      <trkpt lat="43.43084" lon="-0.58229">
        <ele>160.68</ele>
        <time>2020-09-20T09:16:15Z</time>
      </trkpt>
      <trkpt lat="43.43084" lon="-0.58227">
        <ele>160.68</ele>
        <time>2020-09-20T09:16:16Z</time>
      </trkpt>
      <trkpt lat="43.43085" lon="-0.58225">
        <ele>160.68</ele>
        <time>2020-09-20T09:16:17Z</time>
      </trkpt>
      <trkpt lat="43.43086" lon="-0.58223">
        <ele>161.16</ele>
        <time>2020-09-20T09:16:18Z</time>
      </trkpt>
      <trkpt lat="43.43103" lon="-0.58192">
        <ele>164.04</ele>
        <time>2020-09-20T09:16:33Z</time>
      </trkpt>
      <trkpt lat="43.43122" lon="-0.58157">
        <ele>167.41</ele>
        <time>2020-09-20T09:16:50Z</time>
      </trkpt>
      <trkpt lat="43.4313" lon="-0.58119">
        <ele>169.33</ele>
        <time>2020-09-20T09:17:05Z</time>
      </trkpt>
      <trkpt lat="43.4314" lon="-0.58064">
        <ele>167.41</ele>
        <time>2020-09-20T09:17:18Z</time>
      </trkpt>
      <trkpt lat="43.43148" lon="-0.58002">
        <ele>165.96</ele>
        <time>2020-09-20T09:17:28Z</time>
      </trkpt>
      <trkpt lat="43.43148" lon="-0.57996">
        <ele>165.96</ele>
        <time>2020-09-20T09:17:29Z</time>
      </trkpt>
      <trkpt lat="43.43148" lon="-0.57991">
        <ele>165.48</ele>
        <time>2020-09-20T09:17:30Z</time>
      </trkpt>
      <trkpt lat="43.43148" lon="-0.57986">
        <ele>165.96</ele>
        <time>2020-09-20T09:17:31Z</time>
      </trkpt>
      <trkpt lat="43.43147" lon="-0.57981">
        <ele>165.96</ele>
        <time>2020-09-20T09:17:32Z</time>
      </trkpt>
      <trkpt lat="43.43127" lon="-0.57915">
        <ele>165</ele>
        <time>2020-09-20T09:17:45Z</time>
      </trkpt>
      <trkpt lat="43.43118" lon="-0.57881">
        <ele>163.08</ele>
        <time>2020-09-20T09:17:49Z</time>
      </trkpt>
      <trkpt lat="43.43116" lon="-0.57867">
        <ele>162.6</ele>
        <time>2020-09-20T09:17:51Z</time>
      </trkpt>
      <trkpt lat="43.43113" lon="-0.57814">
        <ele>163.56</ele>
        <time>2020-09-20T09:18:02Z</time>
      </trkpt>
      <trkpt lat="43.43103" lon="-0.57764">
        <ele>166.45</ele>
        <time>2020-09-20T09:18:14Z</time>
      </trkpt>
      <trkpt lat="43.43088" lon="-0.5772">
        <ele>169.33</ele>
        <time>2020-09-20T09:18:27Z</time>
      </trkpt>
      <trkpt lat="43.43063" lon="-0.57693">
        <ele>174.14</ele>
        <time>2020-09-20T09:18:41Z</time>
      </trkpt>
      <trkpt lat="43.43036" lon="-0.57673">
        <ele>177.02</ele>
        <time>2020-09-20T09:18:54Z</time>
      </trkpt>
      <trkpt lat="43.4302" lon="-0.57651">
        <ele>180.38</ele>
        <time>2020-09-20T09:19:07Z</time>
      </trkpt>
      <trkpt lat="43.43013" lon="-0.57623">
        <ele>182.31</ele>
        <time>2020-09-20T09:19:21Z</time>
      </trkpt>
      <trkpt lat="43.43006" lon="-0.576">
        <ele>185.19</ele>
        <time>2020-09-20T09:19:34Z</time>
      </trkpt>
      <trkpt lat="43.43005" lon="-0.57599">
        <ele>185.67</ele>
        <time>2020-09-20T09:19:35Z</time>
      </trkpt>
      <trkpt lat="43.42993" lon="-0.57582">
        <ele>190</ele>
        <time>2020-09-20T09:19:48Z</time>
      </trkpt>
      <trkpt lat="43.42986" lon="-0.57575">
        <ele>191.44</ele>
        <time>2020-09-20T09:19:55Z</time>
      </trkpt>
      <trkpt lat="43.42985" lon="-0.57574">
        <ele>191.92</ele>
        <time>2020-09-20T09:19:56Z</time>
      </trkpt>
      <trkpt lat="43.42984" lon="-0.57573">
        <ele>191.92</ele>
        <time>2020-09-20T09:19:57Z</time>
      </trkpt>
      <trkpt lat="43.42983" lon="-0.57571">
        <ele>191.92</ele>
        <time>2020-09-20T09:19:58Z</time>
      </trkpt>
      <trkpt lat="43.42982" lon="-0.5757">
        <ele>192.4</ele>
        <time>2020-09-20T09:19:59Z</time>
      </trkpt>
      <trkpt lat="43.42972" lon="-0.57551">
        <ele>195.77</ele>
        <time>2020-09-20T09:20:11Z</time>
      </trkpt>
      <trkpt lat="43.4297" lon="-0.5754">
        <ele>197.69</ele>
        <time>2020-09-20T09:20:17Z</time>
      </trkpt>
      <trkpt lat="43.42959" lon="-0.57512">
        <ele>198.17</ele>
        <time>2020-09-20T09:20:30Z</time>
      </trkpt>
      <trkpt lat="43.42941" lon="-0.57472">
        <ele>201.53</ele>
        <time>2020-09-20T09:20:43Z</time>
      </trkpt>
      <trkpt lat="43.42922" lon="-0.57433">
        <ele>206.34</ele>
        <time>2020-09-20T09:20:55Z</time>
      </trkpt>
      <trkpt lat="43.42913" lon="-0.57399">
        <ele>208.74</ele>
        <time>2020-09-20T09:21:07Z</time>
      </trkpt>
      <trkpt lat="43.42909" lon="-0.57392">
        <ele>208.74</ele>
        <time>2020-09-20T09:21:11Z</time>
      </trkpt>
      <trkpt lat="43.42909" lon="-0.57387">
        <ele>208.26</ele>
        <time>2020-09-20T09:21:13Z</time>
      </trkpt>
      <trkpt lat="43.42905" lon="-0.57362">
        <ele>211.63</ele>
        <time>2020-09-20T09:21:27Z</time>
      </trkpt>
      <trkpt lat="43.42904" lon="-0.57357">
        <ele>212.59</ele>
        <time>2020-09-20T09:21:30Z</time>
      </trkpt>
      <trkpt lat="43.42902" lon="-0.57346">
        <ele>213.55</ele>
        <time>2020-09-20T09:21:35Z</time>
      </trkpt>
      <trkpt lat="43.42891" lon="-0.57296">
        <ele>212.11</ele>
        <time>2020-09-20T09:21:49Z</time>
      </trkpt>
      <trkpt lat="43.42879" lon="-0.57256">
        <ele>207.78</ele>
        <time>2020-09-20T09:21:58Z</time>
      </trkpt>
      <trkpt lat="43.4288" lon="-0.57251">
        <ele>207.3</ele>
        <time>2020-09-20T09:22:21Z</time>
      </trkpt>
      <trkpt lat="43.42879" lon="-0.57249">
        <ele>207.3</ele>
        <time>2020-09-20T09:22:22Z</time>
      </trkpt>
      <trkpt lat="43.42858" lon="-0.57223">
        <ele>205.86</ele>
        <time>2020-09-20T09:22:31Z</time>
      </trkpt>
      <trkpt lat="43.42837" lon="-0.57187">
        <ele>206.34</ele>
        <time>2020-09-20T09:22:42Z</time>
      </trkpt>
      <trkpt lat="43.42821" lon="-0.57143">
        <ele>209.7</ele>
        <time>2020-09-20T09:22:56Z</time>
      </trkpt>
      <trkpt lat="43.428" lon="-0.57107">
        <ele>209.22</ele>
        <time>2020-09-20T09:23:07Z</time>
      </trkpt>
      <trkpt lat="43.42775" lon="-0.57063">
        <ele>208.74</ele>
        <time>2020-09-20T09:23:20Z</time>
      </trkpt>
      <trkpt lat="43.42746" lon="-0.57026">
        <ele>209.7</ele>
        <time>2020-09-20T09:23:32Z</time>
      </trkpt>
      <trkpt lat="43.42709" lon="-0.56972">
        <ele>209.7</ele>
        <time>2020-09-20T09:23:47Z</time>
      </trkpt>
      <trkpt lat="43.42687" lon="-0.56916">
        <ele>211.15</ele>
        <time>2020-09-20T09:23:55Z</time>
      </trkpt>
      <trkpt lat="43.42684" lon="-0.56907">
        <ele>211.63</ele>
        <time>2020-09-20T09:23:56Z</time>
      </trkpt>
      <trkpt lat="43.42683" lon="-0.56898">
        <ele>212.11</ele>
        <time>2020-09-20T09:23:57Z</time>
      </trkpt>
      <trkpt lat="43.42682" lon="-0.56888">
        <ele>212.11</ele>
        <time>2020-09-20T09:23:58Z</time>
      </trkpt>
      <trkpt lat="43.42683" lon="-0.56878">
        <ele>212.59</ele>
        <time>2020-09-20T09:23:59Z</time>
      </trkpt>
      <trkpt lat="43.42683" lon="-0.56868">
        <ele>212.11</ele>
        <time>2020-09-20T09:24:00Z</time>
      </trkpt>
      <trkpt lat="43.42684" lon="-0.56851">
        <ele>211.63</ele>
        <time>2020-09-20T09:24:02Z</time>
      </trkpt>
      <trkpt lat="43.42684" lon="-0.56843">
        <ele>211.63</ele>
        <time>2020-09-20T09:24:03Z</time>
      </trkpt>
      <trkpt lat="43.42682" lon="-0.56834">
        <ele>211.15</ele>
        <time>2020-09-20T09:24:04Z</time>
      </trkpt>
      <trkpt lat="43.42678" lon="-0.56825">
        <ele>210.67</ele>
        <time>2020-09-20T09:24:05Z</time>
      </trkpt>
      <trkpt lat="43.42674" lon="-0.56815">
        <ele>210.19</ele>
        <time>2020-09-20T09:24:06Z</time>
      </trkpt>
      <trkpt lat="43.42635" lon="-0.56706">
        <ele>205.86</ele>
        <time>2020-09-20T09:24:16Z</time>
      </trkpt>
      <trkpt lat="43.42624" lon="-0.56674">
        <ele>205.38</ele>
        <time>2020-09-20T09:24:21Z</time>
      </trkpt>
      <trkpt lat="43.42621" lon="-0.56669">
        <ele>205.38</ele>
        <time>2020-09-20T09:24:22Z</time>
      </trkpt>
      <trkpt lat="43.42618" lon="-0.56666">
        <ele>205.38</ele>
        <time>2020-09-20T09:24:23Z</time>
      </trkpt>
      <trkpt lat="43.42616" lon="-0.56662">
        <ele>205.38</ele>
        <time>2020-09-20T09:24:24Z</time>
      </trkpt>
      <trkpt lat="43.42614" lon="-0.56659">
        <ele>205.86</ele>
        <time>2020-09-20T09:24:25Z</time>
      </trkpt>
      <trkpt lat="43.42612" lon="-0.56656">
        <ele>205.86</ele>
        <time>2020-09-20T09:24:26Z</time>
      </trkpt>
      <trkpt lat="43.4261" lon="-0.56654">
        <ele>206.34</ele>
        <time>2020-09-20T09:24:27Z</time>
      </trkpt>
      <trkpt lat="43.42594" lon="-0.56619">
        <ele>211.15</ele>
        <time>2020-09-20T09:24:40Z</time>
      </trkpt>
      <trkpt lat="43.42584" lon="-0.56592">
        <ele>215.95</ele>
        <time>2020-09-20T09:24:51Z</time>
      </trkpt>
      <trkpt lat="43.42578" lon="-0.56574">
        <ele>217.88</ele>
        <time>2020-09-20T09:24:58Z</time>
      </trkpt>
      <trkpt lat="43.42577" lon="-0.56571">
        <ele>217.88</ele>
        <time>2020-09-20T09:24:59Z</time>
      </trkpt>
      <trkpt lat="43.42576" lon="-0.56569">
        <ele>218.36</ele>
        <time>2020-09-20T09:25:00Z</time>
      </trkpt>
      <trkpt lat="43.42575" lon="-0.56567">
        <ele>218.84</ele>
        <time>2020-09-20T09:25:01Z</time>
      </trkpt>
      <trkpt lat="43.42574" lon="-0.56565">
        <ele>219.32</ele>
        <time>2020-09-20T09:25:02Z</time>
      </trkpt>
      <trkpt lat="43.42573" lon="-0.56563">
        <ele>219.8</ele>
        <time>2020-09-20T09:25:03Z</time>
      </trkpt>
      <trkpt lat="43.42572" lon="-0.56561">
        <ele>220.28</ele>
        <time>2020-09-20T09:25:04Z</time>
      </trkpt>
      <trkpt lat="43.42572" lon="-0.56559">
        <ele>220.76</ele>
        <time>2020-09-20T09:25:05Z</time>
      </trkpt>
      <trkpt lat="43.42571" lon="-0.56558">
        <ele>220.76</ele>
        <time>2020-09-20T09:25:06Z</time>
      </trkpt>
      <trkpt lat="43.4257" lon="-0.56556">
        <ele>221.24</ele>
        <time>2020-09-20T09:25:07Z</time>
      </trkpt>
      <trkpt lat="43.42569" lon="-0.56554">
        <ele>221.72</ele>
        <time>2020-09-20T09:25:08Z</time>
      </trkpt>
      <trkpt lat="43.42568" lon="-0.56552">
        <ele>222.2</ele>
        <time>2020-09-20T09:25:09Z</time>
      </trkpt>
      <trkpt lat="43.42553" lon="-0.5652">
        <ele>227.97</ele>
        <time>2020-09-20T09:25:24Z</time>
      </trkpt>
      <trkpt lat="43.42541" lon="-0.56506">
        <ele>227.97</ele>
        <time>2020-09-20T09:25:32Z</time>
      </trkpt>
      <trkpt lat="43.4254" lon="-0.56504">
        <ele>227.97</ele>
        <time>2020-09-20T09:25:33Z</time>
      </trkpt>
      <trkpt lat="43.42532" lon="-0.56485">
        <ele>226.05</ele>
        <time>2020-09-20T09:25:43Z</time>
      </trkpt>
      <trkpt lat="43.42532" lon="-0.56483">
        <ele>225.09</ele>
        <time>2020-09-20T09:25:44Z</time>
      </trkpt>
      <trkpt lat="43.42531" lon="-0.56481">
        <ele>225.09</ele>
        <time>2020-09-20T09:25:45Z</time>
      </trkpt>
      <trkpt lat="43.4253" lon="-0.5648">
        <ele>225.57</ele>
        <time>2020-09-20T09:25:46Z</time>
      </trkpt>
      <trkpt lat="43.42529" lon="-0.56479">
        <ele>225.09</ele>
        <time>2020-09-20T09:25:47Z</time>
      </trkpt>
      <trkpt lat="43.42528" lon="-0.56477">
        <ele>224.61</ele>
        <time>2020-09-20T09:25:48Z</time>
      </trkpt>
      <trkpt lat="43.42512" lon="-0.56465">
        <ele>225.57</ele>
        <time>2020-09-20T09:26:01Z</time>
      </trkpt>
      <trkpt lat="43.42491" lon="-0.56447">
        <ele>225.09</ele>
        <time>2020-09-20T09:26:15Z</time>
      </trkpt>
      <trkpt lat="43.42473" lon="-0.56419">
        <ele>225.09</ele>
        <time>2020-09-20T09:26:29Z</time>
      </trkpt>
      <trkpt lat="43.42451" lon="-0.56375">
        <ele>222.68</ele>
        <time>2020-09-20T09:26:41Z</time>
      </trkpt>
      <trkpt lat="43.42424" lon="-0.56285">
        <ele>216.91</ele>
        <time>2020-09-20T09:26:52Z</time>
      </trkpt>
      <trkpt lat="43.42408" lon="-0.56218">
        <ele>218.36</ele>
        <time>2020-09-20T09:27:04Z</time>
      </trkpt>
      <trkpt lat="43.42408" lon="-0.56216">
        <ele>218.84</ele>
        <time>2020-09-20T09:27:18Z</time>
      </trkpt>
      <trkpt lat="43.42409" lon="-0.56216">
        <ele>216.91</ele>
        <time>2020-09-20T09:27:39Z</time>
      </trkpt>
      <trkpt lat="43.42407" lon="-0.56215">
        <ele>217.4</ele>
        <time>2020-09-20T09:28:03Z</time>
      </trkpt>
      <trkpt lat="43.42406" lon="-0.56214">
        <ele>215.95</ele>
        <time>2020-09-20T09:28:32Z</time>
      </trkpt>
      <trkpt lat="43.42404" lon="-0.56213">
        <ele>216.91</ele>
        <time>2020-09-20T09:28:44Z</time>
      </trkpt>
      <trkpt lat="43.42403" lon="-0.56213">
        <ele>216.91</ele>
        <time>2020-09-20T09:29:10Z</time>
      </trkpt>
      <trkpt lat="43.42401" lon="-0.56212">
        <ele>216.43</ele>
        <time>2020-09-20T09:29:31Z</time>
      </trkpt>
      <trkpt lat="43.42401" lon="-0.56211">
        <ele>216.91</ele>
        <time>2020-09-20T09:29:50Z</time>
      </trkpt>
      <trkpt lat="43.424" lon="-0.56214">
        <ele>216.43</ele>
        <time>2020-09-20T09:29:57Z</time>
      </trkpt>
      <trkpt lat="43.42393" lon="-0.56259">
        <ele>213.55</ele>
        <time>2020-09-20T09:30:05Z</time>
      </trkpt>
      <trkpt lat="43.4239" lon="-0.56269">
        <ele>212.59</ele>
        <time>2020-09-20T09:30:06Z</time>
      </trkpt>
      <trkpt lat="43.42387" lon="-0.56279">
        <ele>211.63</ele>
        <time>2020-09-20T09:30:07Z</time>
      </trkpt>
      <trkpt lat="43.42371" lon="-0.56322">
        <ele>208.26</ele>
        <time>2020-09-20T09:30:11Z</time>
      </trkpt>
      <trkpt lat="43.42352" lon="-0.56436">
        <ele>198.65</ele>
        <time>2020-09-20T09:30:21Z</time>
      </trkpt>
      <trkpt lat="43.42336" lon="-0.56489">
        <ele>191.44</ele>
        <time>2020-09-20T09:30:28Z</time>
      </trkpt>
      <trkpt lat="43.42332" lon="-0.56493">
        <ele>190</ele>
        <time>2020-09-20T09:30:29Z</time>
      </trkpt>
      <trkpt lat="43.42328" lon="-0.56497">
        <ele>189.04</ele>
        <time>2020-09-20T09:30:30Z</time>
      </trkpt>
      <trkpt lat="43.42323" lon="-0.56499">
        <ele>188.08</ele>
        <time>2020-09-20T09:30:31Z</time>
      </trkpt>
      <trkpt lat="43.42317" lon="-0.56499">
        <ele>186.63</ele>
        <time>2020-09-20T09:30:32Z</time>
      </trkpt>
      <trkpt lat="43.42288" lon="-0.56502">
        <ele>181.83</ele>
        <time>2020-09-20T09:30:36Z</time>
      </trkpt>
      <trkpt lat="43.4228" lon="-0.56505">
        <ele>180.87</ele>
        <time>2020-09-20T09:30:37Z</time>
      </trkpt>
      <trkpt lat="43.42273" lon="-0.56509">
        <ele>179.42</ele>
        <time>2020-09-20T09:30:38Z</time>
      </trkpt>
      <trkpt lat="43.4219" lon="-0.56546">
        <ele>167.41</ele>
        <time>2020-09-20T09:30:48Z</time>
      </trkpt>
      <trkpt lat="43.42134" lon="-0.56573">
        <ele>159.24</ele>
        <time>2020-09-20T09:30:56Z</time>
      </trkpt>
      <trkpt lat="43.4213" lon="-0.56575">
        <ele>158.75</ele>
        <time>2020-09-20T09:30:57Z</time>
      </trkpt>
      <trkpt lat="43.42128" lon="-0.56579">
        <ele>158.27</ele>
        <time>2020-09-20T09:30:58Z</time>
      </trkpt>
      <trkpt lat="43.42126" lon="-0.56584">
        <ele>157.31</ele>
        <time>2020-09-20T09:30:59Z</time>
      </trkpt>
      <trkpt lat="43.42125" lon="-0.5659">
        <ele>156.83</ele>
        <time>2020-09-20T09:31:00Z</time>
      </trkpt>
      <trkpt lat="43.42106" lon="-0.56675">
        <ele>152.03</ele>
        <time>2020-09-20T09:31:09Z</time>
      </trkpt>
      <trkpt lat="43.42082" lon="-0.56767">
        <ele>149.14</ele>
        <time>2020-09-20T09:31:17Z</time>
      </trkpt>
      <trkpt lat="43.42009" lon="-0.56933">
        <ele>140.01</ele>
        <time>2020-09-20T09:31:31Z</time>
      </trkpt>
      <trkpt lat="43.41973" lon="-0.57015">
        <ele>137.13</ele>
        <time>2020-09-20T09:31:38Z</time>
      </trkpt>
      <trkpt lat="43.41967" lon="-0.57024">
        <ele>136.64</ele>
        <time>2020-09-20T09:31:39Z</time>
      </trkpt>
      <trkpt lat="43.41929" lon="-0.57074">
        <ele>135.2</ele>
        <time>2020-09-20T09:31:46Z</time>
      </trkpt>
      <trkpt lat="43.41925" lon="-0.57082">
        <ele>134.72</ele>
        <time>2020-09-20T09:31:47Z</time>
      </trkpt>
      <trkpt lat="43.41923" lon="-0.5709">
        <ele>134.72</ele>
        <time>2020-09-20T09:31:48Z</time>
      </trkpt>
      <trkpt lat="43.41897" lon="-0.57187">
        <ele>133.76</ele>
        <time>2020-09-20T09:32:00Z</time>
      </trkpt>
      <trkpt lat="43.41893" lon="-0.57193">
        <ele>134.24</ele>
        <time>2020-09-20T09:32:01Z</time>
      </trkpt>
      <trkpt lat="43.41888" lon="-0.57199">
        <ele>134.24</ele>
        <time>2020-09-20T09:32:02Z</time>
      </trkpt>
      <trkpt lat="43.41881" lon="-0.57203">
        <ele>134.72</ele>
        <time>2020-09-20T09:32:03Z</time>
      </trkpt>
      <trkpt lat="43.41874" lon="-0.57207">
        <ele>134.72</ele>
        <time>2020-09-20T09:32:04Z</time>
      </trkpt>
      <trkpt lat="43.41832" lon="-0.57224">
        <ele>133.28</ele>
        <time>2020-09-20T09:32:10Z</time>
      </trkpt>
      <trkpt lat="43.41825" lon="-0.57225">
        <ele>133.28</ele>
        <time>2020-09-20T09:32:11Z</time>
      </trkpt>
      <trkpt lat="43.41818" lon="-0.57225">
        <ele>133.28</ele>
        <time>2020-09-20T09:32:12Z</time>
      </trkpt>
      <trkpt lat="43.41811" lon="-0.57224">
        <ele>133.28</ele>
        <time>2020-09-20T09:32:13Z</time>
      </trkpt>
      <trkpt lat="43.41804" lon="-0.57223">
        <ele>133.28</ele>
        <time>2020-09-20T09:32:14Z</time>
      </trkpt>
      <trkpt lat="43.41727" lon="-0.57203">
        <ele>132.8</ele>
        <time>2020-09-20T09:32:26Z</time>
      </trkpt>
      <trkpt lat="43.41693" lon="-0.57183">
        <ele>132.32</ele>
        <time>2020-09-20T09:32:32Z</time>
      </trkpt>
      <trkpt lat="43.41656" lon="-0.57164">
        <ele>132.8</ele>
        <time>2020-09-20T09:32:38Z</time>
      </trkpt>
      <trkpt lat="43.41651" lon="-0.57159">
        <ele>132.8</ele>
        <time>2020-09-20T09:32:39Z</time>
      </trkpt>
      <trkpt lat="43.41647" lon="-0.57154">
        <ele>132.8</ele>
        <time>2020-09-20T09:32:40Z</time>
      </trkpt>
      <trkpt lat="43.41644" lon="-0.57148">
        <ele>132.8</ele>
        <time>2020-09-20T09:32:41Z</time>
      </trkpt>
      <trkpt lat="43.4164" lon="-0.57141">
        <ele>132.8</ele>
        <time>2020-09-20T09:32:42Z</time>
      </trkpt>
      <trkpt lat="43.41637" lon="-0.57133">
        <ele>132.8</ele>
        <time>2020-09-20T09:32:43Z</time>
      </trkpt>
      <trkpt lat="43.41625" lon="-0.57093">
        <ele>133.28</ele>
        <time>2020-09-20T09:32:48Z</time>
      </trkpt>
      <trkpt lat="43.41606" lon="-0.57035">
        <ele>133.76</ele>
        <time>2020-09-20T09:32:54Z</time>
      </trkpt>
      <trkpt lat="43.41553" lon="-0.56881">
        <ele>133.76</ele>
        <time>2020-09-20T09:33:07Z</time>
      </trkpt>
      <trkpt lat="43.41533" lon="-0.56752">
        <ele>134.24</ele>
        <time>2020-09-20T09:33:18Z</time>
      </trkpt>
      <trkpt lat="43.41519" lon="-0.56621">
        <ele>134.24</ele>
        <time>2020-09-20T09:33:32Z</time>
      </trkpt>
      <trkpt lat="43.41518" lon="-0.56613">
        <ele>134.24</ele>
        <time>2020-09-20T09:33:33Z</time>
      </trkpt>
      <trkpt lat="43.4151" lon="-0.56562">
        <ele>134.24</ele>
        <time>2020-09-20T09:33:39Z</time>
      </trkpt>
      <trkpt lat="43.41508" lon="-0.56537">
        <ele>134.24</ele>
        <time>2020-09-20T09:33:42Z</time>
      </trkpt>
      <trkpt lat="43.41509" lon="-0.5652">
        <ele>134.72</ele>
        <time>2020-09-20T09:33:44Z</time>
      </trkpt>
      <trkpt lat="43.4151" lon="-0.56512">
        <ele>134.72</ele>
        <time>2020-09-20T09:33:45Z</time>
      </trkpt>
      <trkpt lat="43.41514" lon="-0.56487">
        <ele>135.2</ele>
        <time>2020-09-20T09:33:48Z</time>
      </trkpt>
      <trkpt lat="43.41513" lon="-0.56388">
        <ele>137.13</ele>
        <time>2020-09-20T09:34:01Z</time>
      </trkpt>
      <trkpt lat="43.41522" lon="-0.56317">
        <ele>139.05</ele>
        <time>2020-09-20T09:34:14Z</time>
      </trkpt>
      <trkpt lat="43.4152" lon="-0.56307">
        <ele>138.57</ele>
        <time>2020-09-20T09:34:26Z</time>
      </trkpt>
      <trkpt lat="43.4152" lon="-0.56306">
        <ele>138.57</ele>
        <time>2020-09-20T09:34:34Z</time>
      </trkpt>
      <trkpt lat="43.41519" lon="-0.56305">
        <ele>138.57</ele>
        <time>2020-09-20T09:34:35Z</time>
      </trkpt>
      <trkpt lat="43.41517" lon="-0.56305">
        <ele>138.57</ele>
        <time>2020-09-20T09:34:36Z</time>
      </trkpt>
      <trkpt lat="43.41515" lon="-0.56305">
        <ele>138.57</ele>
        <time>2020-09-20T09:34:37Z</time>
      </trkpt>
      <trkpt lat="43.41512" lon="-0.56306">
        <ele>138.57</ele>
        <time>2020-09-20T09:34:38Z</time>
      </trkpt>
      <trkpt lat="43.41509" lon="-0.56307">
        <ele>138.09</ele>
        <time>2020-09-20T09:34:39Z</time>
      </trkpt>
      <trkpt lat="43.41506" lon="-0.56309">
        <ele>138.09</ele>
        <time>2020-09-20T09:34:40Z</time>
      </trkpt>
      <trkpt lat="43.41493" lon="-0.56315">
        <ele>137.61</ele>
        <time>2020-09-20T09:34:43Z</time>
      </trkpt>
      <trkpt lat="43.4141" lon="-0.56345">
        <ele>137.13</ele>
        <time>2020-09-20T09:34:58Z</time>
      </trkpt>
      <trkpt lat="43.41322" lon="-0.56363">
        <ele>136.64</ele>
        <time>2020-09-20T09:35:13Z</time>
      </trkpt>
      <trkpt lat="43.41317" lon="-0.56364">
        <ele>136.64</ele>
        <time>2020-09-20T09:35:14Z</time>
      </trkpt>
      <trkpt lat="43.41312" lon="-0.56364">
        <ele>136.64</ele>
        <time>2020-09-20T09:35:15Z</time>
      </trkpt>
      <trkpt lat="43.41308" lon="-0.56364">
        <ele>136.64</ele>
        <time>2020-09-20T09:35:16Z</time>
      </trkpt>
      <trkpt lat="43.41303" lon="-0.56361">
        <ele>136.16</ele>
        <time>2020-09-20T09:35:17Z</time>
      </trkpt>
      <trkpt lat="43.41298" lon="-0.56356">
        <ele>136.16</ele>
        <time>2020-09-20T09:35:18Z</time>
      </trkpt>
      <trkpt lat="43.41294" lon="-0.56351">
        <ele>136.16</ele>
        <time>2020-09-20T09:35:19Z</time>
      </trkpt>
      <trkpt lat="43.41285" lon="-0.5634">
        <ele>136.16</ele>
        <time>2020-09-20T09:35:21Z</time>
      </trkpt>
      <trkpt lat="43.41281" lon="-0.56334">
        <ele>136.16</ele>
        <time>2020-09-20T09:35:22Z</time>
      </trkpt>
      <trkpt lat="43.41277" lon="-0.56326">
        <ele>136.16</ele>
        <time>2020-09-20T09:35:23Z</time>
      </trkpt>
      <trkpt lat="43.41274" lon="-0.56319">
        <ele>136.16</ele>
        <time>2020-09-20T09:35:24Z</time>
      </trkpt>
      <trkpt lat="43.41271" lon="-0.5631">
        <ele>136.16</ele>
        <time>2020-09-20T09:35:25Z</time>
      </trkpt>
      <trkpt lat="43.41245" lon="-0.56215">
        <ele>134.72</ele>
        <time>2020-09-20T09:35:37Z</time>
      </trkpt>
      <trkpt lat="43.41243" lon="-0.56198">
        <ele>134.72</ele>
        <time>2020-09-20T09:35:39Z</time>
      </trkpt>
      <trkpt lat="43.41241" lon="-0.56103">
        <ele>132.8</ele>
        <time>2020-09-20T09:35:50Z</time>
      </trkpt>
      <trkpt lat="43.41241" lon="-0.56093">
        <ele>132.8</ele>
        <time>2020-09-20T09:35:51Z</time>
      </trkpt>
      <trkpt lat="43.4124" lon="-0.56057">
        <ele>132.32</ele>
        <time>2020-09-20T09:35:55Z</time>
      </trkpt>
      <trkpt lat="43.41237" lon="-0.56049">
        <ele>132.32</ele>
        <time>2020-09-20T09:35:56Z</time>
      </trkpt>
      <trkpt lat="43.41233" lon="-0.56043">
        <ele>132.32</ele>
        <time>2020-09-20T09:35:57Z</time>
      </trkpt>
      <trkpt lat="43.41227" lon="-0.5604">
        <ele>132.32</ele>
        <time>2020-09-20T09:35:58Z</time>
      </trkpt>
      <trkpt lat="43.41221" lon="-0.56039">
        <ele>132.32</ele>
        <time>2020-09-20T09:35:59Z</time>
      </trkpt>
      <trkpt lat="43.41214" lon="-0.5604">
        <ele>132.32</ele>
        <time>2020-09-20T09:36:00Z</time>
      </trkpt>
      <trkpt lat="43.41208" lon="-0.5604">
        <ele>132.32</ele>
        <time>2020-09-20T09:36:01Z</time>
      </trkpt>
      <trkpt lat="43.41202" lon="-0.56037">
        <ele>132.8</ele>
        <time>2020-09-20T09:36:02Z</time>
      </trkpt>
      <trkpt lat="43.41197" lon="-0.56032">
        <ele>132.8</ele>
        <time>2020-09-20T09:36:03Z</time>
      </trkpt>
      <trkpt lat="43.41193" lon="-0.56026">
        <ele>132.8</ele>
        <time>2020-09-20T09:36:04Z</time>
      </trkpt>
      <trkpt lat="43.4119" lon="-0.56018">
        <ele>132.8</ele>
        <time>2020-09-20T09:36:05Z</time>
      </trkpt>
      <trkpt lat="43.41163" lon="-0.55956">
        <ele>133.28</ele>
        <time>2020-09-20T09:36:13Z</time>
      </trkpt>
      <trkpt lat="43.41162" lon="-0.55947">
        <ele>133.28</ele>
        <time>2020-09-20T09:36:14Z</time>
      </trkpt>
      <trkpt lat="43.41164" lon="-0.5594">
        <ele>133.28</ele>
        <time>2020-09-20T09:36:15Z</time>
      </trkpt>
      <trkpt lat="43.41167" lon="-0.55934">
        <ele>133.28</ele>
        <time>2020-09-20T09:36:16Z</time>
      </trkpt>
      <trkpt lat="43.41172" lon="-0.5593">
        <ele>133.28</ele>
        <time>2020-09-20T09:36:17Z</time>
      </trkpt>
      <trkpt lat="43.41177" lon="-0.55926">
        <ele>133.28</ele>
        <time>2020-09-20T09:36:18Z</time>
      </trkpt>
      <trkpt lat="43.412" lon="-0.55908">
        <ele>133.76</ele>
        <time>2020-09-20T09:36:23Z</time>
      </trkpt>
      <trkpt lat="43.41204" lon="-0.55904">
        <ele>134.24</ele>
        <time>2020-09-20T09:36:24Z</time>
      </trkpt>
      <trkpt lat="43.41206" lon="-0.55898">
        <ele>134.24</ele>
        <time>2020-09-20T09:36:25Z</time>
      </trkpt>
      <trkpt lat="43.41207" lon="-0.55891">
        <ele>134.24</ele>
        <time>2020-09-20T09:36:26Z</time>
      </trkpt>
      <trkpt lat="43.41206" lon="-0.55885">
        <ele>134.72</ele>
        <time>2020-09-20T09:36:27Z</time>
      </trkpt>
      <trkpt lat="43.41203" lon="-0.55879">
        <ele>134.72</ele>
        <time>2020-09-20T09:36:28Z</time>
      </trkpt>
      <trkpt lat="43.41199" lon="-0.55875">
        <ele>134.72</ele>
        <time>2020-09-20T09:36:29Z</time>
      </trkpt>
      <trkpt lat="43.41195" lon="-0.55871">
        <ele>134.72</ele>
        <time>2020-09-20T09:36:30Z</time>
      </trkpt>
      <trkpt lat="43.41191" lon="-0.55867">
        <ele>134.72</ele>
        <time>2020-09-20T09:36:31Z</time>
      </trkpt>
      <trkpt lat="43.41177" lon="-0.55853">
        <ele>134.72</ele>
        <time>2020-09-20T09:36:34Z</time>
      </trkpt>
      <trkpt lat="43.41172" lon="-0.55849">
        <ele>134.72</ele>
        <time>2020-09-20T09:36:35Z</time>
      </trkpt>
      <trkpt lat="43.41168" lon="-0.55844">
        <ele>134.72</ele>
        <time>2020-09-20T09:36:36Z</time>
      </trkpt>
      <trkpt lat="43.41154" lon="-0.55828">
        <ele>134.72</ele>
        <time>2020-09-20T09:36:39Z</time>
      </trkpt>
      <trkpt lat="43.41124" lon="-0.55803">
        <ele>134.72</ele>
        <time>2020-09-20T09:36:45Z</time>
      </trkpt>
      <trkpt lat="43.41069" lon="-0.5574">
        <ele>135.2</ele>
        <time>2020-09-20T09:36:57Z</time>
      </trkpt>
      <trkpt lat="43.41066" lon="-0.55734">
        <ele>135.2</ele>
        <time>2020-09-20T09:36:58Z</time>
      </trkpt>
      <trkpt lat="43.41062" lon="-0.55728">
        <ele>135.2</ele>
        <time>2020-09-20T09:36:59Z</time>
      </trkpt>
      <trkpt lat="43.4106" lon="-0.55721">
        <ele>135.68</ele>
        <time>2020-09-20T09:37:00Z</time>
      </trkpt>
      <trkpt lat="43.41058" lon="-0.55713">
        <ele>135.68</ele>
        <time>2020-09-20T09:37:01Z</time>
      </trkpt>
      <trkpt lat="43.41055" lon="-0.55706">
        <ele>135.68</ele>
        <time>2020-09-20T09:37:02Z</time>
      </trkpt>
      <trkpt lat="43.41053" lon="-0.557">
        <ele>135.68</ele>
        <time>2020-09-20T09:37:03Z</time>
      </trkpt>
      <trkpt lat="43.41026" lon="-0.55635">
        <ele>137.13</ele>
        <time>2020-09-20T09:37:13Z</time>
      </trkpt>
      <trkpt lat="43.41021" lon="-0.55632">
        <ele>137.13</ele>
        <time>2020-09-20T09:37:14Z</time>
      </trkpt>
      <trkpt lat="43.41018" lon="-0.55633">
        <ele>137.13</ele>
        <time>2020-09-20T09:37:15Z</time>
      </trkpt>
      <trkpt lat="43.41014" lon="-0.55635">
        <ele>137.13</ele>
        <time>2020-09-20T09:37:16Z</time>
      </trkpt>
      <trkpt lat="43.41009" lon="-0.55639">
        <ele>137.13</ele>
        <time>2020-09-20T09:37:17Z</time>
      </trkpt>
      <trkpt lat="43.40931" lon="-0.55712">
        <ele>134.72</ele>
        <time>2020-09-20T09:37:32Z</time>
      </trkpt>
      <trkpt lat="43.4085" lon="-0.55793">
        <ele>133.76</ele>
        <time>2020-09-20T09:37:48Z</time>
      </trkpt>
      <trkpt lat="43.40844" lon="-0.55797">
        <ele>133.76</ele>
        <time>2020-09-20T09:37:49Z</time>
      </trkpt>
      <trkpt lat="43.40839" lon="-0.558">
        <ele>133.76</ele>
        <time>2020-09-20T09:37:50Z</time>
      </trkpt>
      <trkpt lat="43.40834" lon="-0.55803">
        <ele>134.24</ele>
        <time>2020-09-20T09:37:51Z</time>
      </trkpt>
      <trkpt lat="43.40828" lon="-0.55806">
        <ele>134.24</ele>
        <time>2020-09-20T09:37:52Z</time>
      </trkpt>
      <trkpt lat="43.40823" lon="-0.55809">
        <ele>134.72</ele>
        <time>2020-09-20T09:37:53Z</time>
      </trkpt>
      <trkpt lat="43.40817" lon="-0.55811">
        <ele>134.72</ele>
        <time>2020-09-20T09:37:54Z</time>
      </trkpt>
      <trkpt lat="43.40755" lon="-0.55832">
        <ele>138.57</ele>
        <time>2020-09-20T09:38:08Z</time>
      </trkpt>
      <trkpt lat="43.40694" lon="-0.55871">
        <ele>142.89</ele>
        <time>2020-09-20T09:38:24Z</time>
      </trkpt>
      <trkpt lat="43.40631" lon="-0.55934">
        <ele>143.37</ele>
        <time>2020-09-20T09:38:41Z</time>
      </trkpt>
      <trkpt lat="43.4056" lon="-0.56004">
        <ele>138.57</ele>
        <time>2020-09-20T09:38:53Z</time>
      </trkpt>
      <trkpt lat="43.40461" lon="-0.56067">
        <ele>135.2</ele>
        <time>2020-09-20T09:39:06Z</time>
      </trkpt>
      <trkpt lat="43.40391" lon="-0.5611">
        <ele>134.72</ele>
        <time>2020-09-20T09:39:16Z</time>
      </trkpt>
      <trkpt lat="43.40385" lon="-0.56116">
        <ele>134.72</ele>
        <time>2020-09-20T09:39:17Z</time>
      </trkpt>
      <trkpt lat="43.40368" lon="-0.56136">
        <ele>134.72</ele>
        <time>2020-09-20T09:39:20Z</time>
      </trkpt>
      <trkpt lat="43.40346" lon="-0.56176">
        <ele>135.2</ele>
        <time>2020-09-20T09:39:25Z</time>
      </trkpt>
      <trkpt lat="43.40342" lon="-0.56185">
        <ele>135.2</ele>
        <time>2020-09-20T09:39:26Z</time>
      </trkpt>
      <trkpt lat="43.40265" lon="-0.56321">
        <ele>135.2</ele>
        <time>2020-09-20T09:39:43Z</time>
      </trkpt>
      <trkpt lat="43.40214" lon="-0.56413">
        <ele>134.24</ele>
        <time>2020-09-20T09:39:55Z</time>
      </trkpt>
      <trkpt lat="43.40206" lon="-0.5643">
        <ele>134.24</ele>
        <time>2020-09-20T09:39:57Z</time>
      </trkpt>
      <trkpt lat="43.40133" lon="-0.5652">
        <ele>133.76</ele>
        <time>2020-09-20T09:40:11Z</time>
      </trkpt>
      <trkpt lat="43.40035" lon="-0.56615">
        <ele>130.88</ele>
        <time>2020-09-20T09:40:28Z</time>
      </trkpt>
      <trkpt lat="43.39999" lon="-0.5665">
        <ele>128.95</ele>
        <time>2020-09-20T09:40:34Z</time>
      </trkpt>
      <trkpt lat="43.39993" lon="-0.56654">
        <ele>128.47</ele>
        <time>2020-09-20T09:40:35Z</time>
      </trkpt>
      <trkpt lat="43.39984" lon="-0.5666">
        <ele>127.99</ele>
        <time>2020-09-20T09:40:37Z</time>
      </trkpt>
      <trkpt lat="43.39976" lon="-0.56669">
        <ele>127.51</ele>
        <time>2020-09-20T09:40:39Z</time>
      </trkpt>
      <trkpt lat="43.39958" lon="-0.56685">
        <ele>126.07</ele>
        <time>2020-09-20T09:40:42Z</time>
      </trkpt>
      <trkpt lat="43.39953" lon="-0.56693">
        <ele>125.11</ele>
        <time>2020-09-20T09:40:43Z</time>
      </trkpt>
      <trkpt lat="43.39947" lon="-0.56703">
        <ele>124.63</ele>
        <time>2020-09-20T09:40:44Z</time>
      </trkpt>
      <trkpt lat="43.39943" lon="-0.56713">
        <ele>124.15</ele>
        <time>2020-09-20T09:40:45Z</time>
      </trkpt>
      <trkpt lat="43.3994" lon="-0.56725">
        <ele>123.67</ele>
        <time>2020-09-20T09:40:46Z</time>
      </trkpt>
      <trkpt lat="43.39939" lon="-0.56737">
        <ele>123.19</ele>
        <time>2020-09-20T09:40:47Z</time>
      </trkpt>
      <trkpt lat="43.39939" lon="-0.5675">
        <ele>122.71</ele>
        <time>2020-09-20T09:40:48Z</time>
      </trkpt>
      <trkpt lat="43.3994" lon="-0.56763">
        <ele>121.74</ele>
        <time>2020-09-20T09:40:49Z</time>
      </trkpt>
      <trkpt lat="43.3993" lon="-0.56904">
        <ele>116.46</ele>
        <time>2020-09-20T09:41:00Z</time>
      </trkpt>
      <trkpt lat="43.39923" lon="-0.56955">
        <ele>116.46</ele>
        <time>2020-09-20T09:41:05Z</time>
      </trkpt>
      <trkpt lat="43.39909" lon="-0.57011">
        <ele>114.05</ele>
        <time>2020-09-20T09:41:12Z</time>
      </trkpt>
      <trkpt lat="43.39911" lon="-0.57025">
        <ele>113.57</ele>
        <time>2020-09-20T09:41:14Z</time>
      </trkpt>
      <trkpt lat="43.39915" lon="-0.57137">
        <ele>112.13</ele>
        <time>2020-09-20T09:41:27Z</time>
      </trkpt>
      <trkpt lat="43.39922" lon="-0.57208">
        <ele>111.65</ele>
        <time>2020-09-20T09:41:35Z</time>
      </trkpt>
      <trkpt lat="43.39924" lon="-0.57215">
        <ele>111.17</ele>
        <time>2020-09-20T09:41:36Z</time>
      </trkpt>
      <trkpt lat="43.39927" lon="-0.57223">
        <ele>111.17</ele>
        <time>2020-09-20T09:41:37Z</time>
      </trkpt>
      <trkpt lat="43.39943" lon="-0.57336">
        <ele>110.21</ele>
        <time>2020-09-20T09:41:51Z</time>
      </trkpt>
      <trkpt lat="43.39946" lon="-0.57354">
        <ele>110.69</ele>
        <time>2020-09-20T09:41:54Z</time>
      </trkpt>
      <trkpt lat="43.39947" lon="-0.57357">
        <ele>111.17</ele>
        <time>2020-09-20T09:41:55Z</time>
      </trkpt>
    </trkseg>
  </trk>
</gpx>